<?xml version='1.0' encoding='UTF-8'?><gpx version="1.1" creator="JPX - https://github.com/jenetics/jpx" xmlns="http://www.topografix.com/GPX/1/1"><trk><trkseg><trkpt lat="46.0004767" lon="12.757165"><ele>47.0</ele><time>2026-04-03T19:24:50.332Z</time></trkpt><trkpt lat="46.0003583" lon="12.7569917"><ele>47.0</ele><time>2026-04-03T19:24:51.332Z</time></trkpt><trkpt lat="46.0002533" lon="12.7568083"><ele>47.0</ele><time>2026-04-03T19:24:52.332Z</time></trkpt><trkpt lat="46.0001617" lon="12.7566183"><ele>46.666666666666664</ele><time>2026-04-03T19:24:53.332Z</time></trkpt><trkpt lat="46.0000717" lon="12.75641"><ele>46.333333333333336</ele><time>2026-04-03T19:24:54.333Z</time></trkpt><trkpt lat="46.0000017" lon="12.7562033"><ele>46.0</ele><time>2026-04-03T19:24:55.332Z</time></trkpt><trkpt lat="45.9999267" lon="12.7559817"><ele>47.0</ele><time>2026-04-03T19:24:56.332Z</time></trkpt><trkpt lat="45.9998633" lon="12.7557533"><ele>48.0</ele><time>2026-04-03T19:24:57.332Z</time></trkpt><trkpt lat="45.9998017" lon="12.7555167"><ele>49.0</ele><time>2026-04-03T19:24:58.332Z</time></trkpt><trkpt lat="45.99974" lon="12.75528"><ele>48.666666666666664</ele><time>2026-04-03T19:24:59.332Z</time></trkpt><trkpt lat="45.9996833" lon="12.7550367"><ele>48.33333333333333</ele><time>2026-04-03T19:25:00.332Z</time></trkpt><trkpt lat="45.9996333" lon="12.7548017"><ele>48.0</ele><time>2026-04-03T19:25:01.332Z</time></trkpt><trkpt lat="45.9995983" lon="12.7545583"><ele>47.666666666666664</ele><time>2026-04-03T19:25:02.332Z</time></trkpt><trkpt lat="45.9995683" lon="12.75431"><ele>47.33333333333333</ele><time>2026-04-03T19:25:03.332Z</time></trkpt><trkpt lat="45.9995633" lon="12.7540583"><ele>47.0</ele><time>2026-04-03T19:25:04.332Z</time></trkpt><trkpt lat="45.999575" lon="12.75381"><ele>47.0</ele><time>2026-04-03T19:25:05.333Z</time></trkpt><trkpt lat="45.9995933" lon="12.7535583"><ele>47.0</ele><time>2026-04-03T19:25:06.332Z</time></trkpt><trkpt lat="45.9996083" lon="12.7533083"><ele>47.0</ele><time>2026-04-03T19:25:07.332Z</time></trkpt><trkpt lat="45.9996283" lon="12.7530683"><ele>47.33333333333333</ele><time>2026-04-03T19:25:08.332Z</time></trkpt><trkpt lat="45.9996483" lon="12.7528233"><ele>47.666666666666664</ele><time>2026-04-03T19:25:09.332Z</time></trkpt><trkpt lat="45.9996717" lon="12.75257"><ele>48.0</ele><time>2026-04-03T19:25:10.332Z</time></trkpt><trkpt lat="45.9996917" lon="12.75231"><ele>47.333333333333336</ele><time>2026-04-03T19:25:11.332Z</time></trkpt><trkpt lat="45.9997167" lon="12.7520567"><ele>46.66666666666667</ele><time>2026-04-03T19:25:12.332Z</time></trkpt><trkpt lat="45.9997417" lon="12.7517917"><ele>46.0</ele><time>2026-04-03T19:25:13.332Z</time></trkpt><trkpt lat="45.9997767" lon="12.75153"><ele>46.0</ele><time>2026-04-03T19:25:14.332Z</time></trkpt><trkpt lat="45.9998183" lon="12.7512567"><ele>46.0</ele><time>2026-04-03T19:25:15.332Z</time></trkpt><trkpt lat="45.99986" lon="12.750985"><ele>46.0</ele><time>2026-04-03T19:25:16.332Z</time></trkpt><trkpt lat="45.9998967" lon="12.750715"><ele>46.333333333333336</ele><time>2026-04-03T19:25:17.332Z</time></trkpt><trkpt lat="45.999945" lon="12.750445"><ele>46.666666666666664</ele><time>2026-04-03T19:25:18.332Z</time></trkpt><trkpt lat="45.9999967" lon="12.7501667"><ele>47.0</ele><time>2026-04-03T19:25:19.332Z</time></trkpt><trkpt lat="46.0000433" lon="12.7498933"><ele>47.33333333333333</ele><time>2026-04-03T19:25:20.332Z</time></trkpt><trkpt lat="46.0000833" lon="12.7496167"><ele>47.666666666666664</ele><time>2026-04-03T19:25:21.332Z</time></trkpt><trkpt lat="46.000125" lon="12.7493417"><ele>48.0</ele><time>2026-04-03T19:25:22.332Z</time></trkpt><trkpt lat="46.0001733" lon="12.74906"><ele>48.33333333333333</ele><time>2026-04-03T19:25:23.332Z</time></trkpt><trkpt lat="46.0002283" lon="12.7487733"><ele>48.666666666666664</ele><time>2026-04-03T19:25:24.332Z</time></trkpt><trkpt lat="46.0002783" lon="12.7484867"><ele>49.0</ele><time>2026-04-03T19:25:25.332Z</time></trkpt><trkpt lat="46.0003233" lon="12.7482033"><ele>49.33333333333333</ele><time>2026-04-03T19:25:26.332Z</time></trkpt><trkpt lat="46.0003717" lon="12.74793"><ele>49.66666666666667</ele><time>2026-04-03T19:25:27.333Z</time></trkpt><trkpt lat="46.0004133" lon="12.7476533"><ele>50.0</ele><time>2026-04-03T19:25:28.332Z</time></trkpt><trkpt lat="46.0004533" lon="12.74738"><ele>50.0</ele><time>2026-04-03T19:25:29.332Z</time></trkpt><trkpt lat="46.0004983" lon="12.7471133"><ele>50.0</ele><time>2026-04-03T19:25:30.333Z</time></trkpt><trkpt lat="46.000545" lon="12.7468417"><ele>50.0</ele><time>2026-04-03T19:25:31.332Z</time></trkpt><trkpt lat="46.0006033" lon="12.7465683"><ele>50.0</ele><time>2026-04-03T19:25:32.332Z</time></trkpt><trkpt lat="46.000665" lon="12.746295"><ele>50.0</ele><time>2026-04-03T19:25:33.332Z</time></trkpt><trkpt lat="46.0007317" lon="12.746035"><ele>50.0</ele><time>2026-04-03T19:25:34.332Z</time></trkpt><trkpt lat="46.0008067" lon="12.7457783"><ele>50.0</ele><time>2026-04-03T19:25:35.332Z</time></trkpt><trkpt lat="46.0008817" lon="12.7455383"><ele>50.0</ele><time>2026-04-03T19:25:36.332Z</time></trkpt><trkpt lat="46.000955" lon="12.745295"><ele>50.0</ele><time>2026-04-03T19:25:37.332Z</time></trkpt><trkpt lat="46.00103" lon="12.7450583"><ele>49.66666666666667</ele><time>2026-04-03T19:25:38.332Z</time></trkpt><trkpt lat="46.0011017" lon="12.744825"><ele>49.33333333333333</ele><time>2026-04-03T19:25:39.332Z</time></trkpt><trkpt lat="46.0011817" lon="12.74458"><ele>49.0</ele><time>2026-04-03T19:25:40.332Z</time></trkpt><trkpt lat="46.00125" lon="12.7443467"><ele>48.666666666666664</ele><time>2026-04-03T19:25:41.333Z</time></trkpt><trkpt lat="46.0013133" lon="12.74412"><ele>48.33333333333333</ele><time>2026-04-03T19:25:42.332Z</time></trkpt><trkpt lat="46.001375" lon="12.743885"><ele>48.0</ele><time>2026-04-03T19:25:43.332Z</time></trkpt><trkpt lat="46.0014333" lon="12.7436433"><ele>48.33333333333333</ele><time>2026-04-03T19:25:44.332Z</time></trkpt><trkpt lat="46.0014933" lon="12.7434033"><ele>48.666666666666664</ele><time>2026-04-03T19:25:45.332Z</time></trkpt><trkpt lat="46.0015533" lon="12.7431683"><ele>49.0</ele><time>2026-04-03T19:25:46.332Z</time></trkpt><trkpt lat="46.0016133" lon="12.74293"><ele>49.33333333333333</ele><time>2026-04-03T19:25:47.332Z</time></trkpt><trkpt lat="46.00168" lon="12.742675"><ele>49.66666666666667</ele><time>2026-04-03T19:25:48.332Z</time></trkpt><trkpt lat="46.0017383" lon="12.7424333"><ele>50.0</ele><time>2026-04-03T19:25:49.332Z</time></trkpt><trkpt lat="46.0018033" lon="12.7421967"><ele>50.0</ele><time>2026-04-03T19:25:50.332Z</time></trkpt><trkpt lat="46.0018617" lon="12.741955"><ele>50.0</ele><time>2026-04-03T19:25:51.332Z</time></trkpt><trkpt lat="46.001925" lon="12.7417217"><ele>50.0</ele><time>2026-04-03T19:25:52.332Z</time></trkpt><trkpt lat="46.00198" lon="12.7415017"><ele>50.0</ele><time>2026-04-03T19:25:53.332Z</time></trkpt><trkpt lat="46.002025" lon="12.7413"><ele>50.0</ele><time>2026-04-03T19:25:54.332Z</time></trkpt><trkpt lat="46.0020683" lon="12.7411167"><ele>50.0</ele><time>2026-04-03T19:25:55.332Z</time></trkpt><trkpt lat="46.0021067" lon="12.7409467"><ele>50.0</ele><time>2026-04-03T19:25:56.332Z</time></trkpt><trkpt lat="46.002145" lon="12.740785"><ele>50.00000000000001</ele><time>2026-04-03T19:25:57.332Z</time></trkpt><trkpt lat="46.0021817" lon="12.7406433"><ele>50.0</ele><time>2026-04-03T19:25:58.332Z</time></trkpt><trkpt lat="46.0022117" lon="12.7405233"><ele>50.0</ele><time>2026-04-03T19:25:59.333Z</time></trkpt><trkpt lat="46.00223" lon="12.7404183"><ele>50.0</ele><time>2026-04-03T19:26:00.332Z</time></trkpt><trkpt lat="46.002235" lon="12.7403067"><ele>50.00000000000001</ele><time>2026-04-03T19:26:01.332Z</time></trkpt><trkpt lat="46.0022267" lon="12.74018"><ele>50.0</ele><time>2026-04-03T19:26:02.332Z</time></trkpt><trkpt lat="46.0021967" lon="12.7400583"><ele>50.25</ele><time>2026-04-03T19:26:03.332Z</time></trkpt><trkpt lat="46.0021483" lon="12.739935"><ele>50.5</ele><time>2026-04-03T19:26:04.332Z</time></trkpt><trkpt lat="46.0020883" lon="12.7398017"><ele>50.75</ele><time>2026-04-03T19:26:05.332Z</time></trkpt><trkpt lat="46.0020333" lon="12.739655"><ele>51.0</ele><time>2026-04-03T19:26:06.332Z</time></trkpt><trkpt lat="46.0019783" lon="12.7394933"><ele>51.0</ele><time>2026-04-03T19:26:07.332Z</time></trkpt><trkpt lat="46.0019233" lon="12.7393217"><ele>51.0</ele><time>2026-04-03T19:26:08.332Z</time></trkpt><trkpt lat="46.00187" lon="12.739145"><ele>51.0</ele><time>2026-04-03T19:26:09.332Z</time></trkpt><trkpt lat="46.001815" lon="12.738965"><ele>51.0</ele><time>2026-04-03T19:26:10.332Z</time></trkpt><trkpt lat="46.0017633" lon="12.73877"><ele>51.0</ele><time>2026-04-03T19:26:11.332Z</time></trkpt><trkpt lat="46.00172" lon="12.73857"><ele>51.0</ele><time>2026-04-03T19:26:12.332Z</time></trkpt><trkpt lat="46.0016817" lon="12.738365"><ele>51.0</ele><time>2026-04-03T19:26:13.332Z</time></trkpt><trkpt lat="46.00164" lon="12.73816"><ele>51.0</ele><time>2026-04-03T19:26:14.332Z</time></trkpt><trkpt lat="46.0015983" lon="12.7379467"><ele>50.33333333333333</ele><time>2026-04-03T19:26:15.332Z</time></trkpt><trkpt lat="46.001555" lon="12.7377367"><ele>49.666666666666664</ele><time>2026-04-03T19:26:16.332Z</time></trkpt><trkpt lat="46.0015117" lon="12.7375217"><ele>49.0</ele><time>2026-04-03T19:26:17.332Z</time></trkpt><trkpt lat="46.001465" lon="12.7373017"><ele>49.0</ele><time>2026-04-03T19:26:18.332Z</time></trkpt><trkpt lat="46.001425" lon="12.73708"><ele>49.0</ele><time>2026-04-03T19:26:19.332Z</time></trkpt><trkpt lat="46.0013817" lon="12.7368567"><ele>49.0</ele><time>2026-04-03T19:26:20.332Z</time></trkpt><trkpt lat="46.00133" lon="12.7366317"><ele>48.666666666666664</ele><time>2026-04-03T19:26:21.332Z</time></trkpt><trkpt lat="46.00127" lon="12.7364067"><ele>48.33333333333333</ele><time>2026-04-03T19:26:22.332Z</time></trkpt><trkpt lat="46.00119" lon="12.7361917"><ele>48.0</ele><time>2026-04-03T19:26:23.332Z</time></trkpt><trkpt lat="46.001095" lon="12.7360017"><ele>48.0</ele><time>2026-04-03T19:26:24.332Z</time></trkpt><trkpt lat="46.0009917" lon="12.7358"><ele>48.0</ele><time>2026-04-03T19:26:25.333Z</time></trkpt><trkpt lat="46.00088" lon="12.7356083"><ele>48.0</ele><time>2026-04-03T19:26:26.332Z</time></trkpt><trkpt lat="46.0007683" lon="12.73543"><ele>48.0</ele><time>2026-04-03T19:26:27.332Z</time></trkpt><trkpt lat="46.0006583" lon="12.73526"><ele>48.0</ele><time>2026-04-03T19:26:28.332Z</time></trkpt><trkpt lat="46.0005483" lon="12.7350867"><ele>48.0</ele><time>2026-04-03T19:26:29.332Z</time></trkpt><trkpt lat="46.0004317" lon="12.7349017"><ele>48.33333333333333</ele><time>2026-04-03T19:26:30.332Z</time></trkpt><trkpt lat="46.0003217" lon="12.734715"><ele>48.666666666666664</ele><time>2026-04-03T19:26:31.332Z</time></trkpt><trkpt lat="46.0002133" lon="12.734535"><ele>49.0</ele><time>2026-04-03T19:26:32.332Z</time></trkpt><trkpt lat="46.000095" lon="12.7343483"><ele>48.33333333333333</ele><time>2026-04-03T19:26:33.332Z</time></trkpt><trkpt lat="45.9999967" lon="12.73414"><ele>47.666666666666664</ele><time>2026-04-03T19:26:34.332Z</time></trkpt><trkpt lat="45.999895" lon="12.7339217"><ele>47.0</ele><time>2026-04-03T19:26:35.332Z</time></trkpt><trkpt lat="45.999805" lon="12.7336967"><ele>47.0</ele><time>2026-04-03T19:26:36.332Z</time></trkpt><trkpt lat="45.9997217" lon="12.7334783"><ele>47.0</ele><time>2026-04-03T19:26:37.332Z</time></trkpt><trkpt lat="45.999655" lon="12.7332517"><ele>47.0</ele><time>2026-04-03T19:26:38.332Z</time></trkpt><trkpt lat="45.9995867" lon="12.7330167"><ele>47.0</ele><time>2026-04-03T19:26:39.332Z</time></trkpt><trkpt lat="45.99952" lon="12.73278"><ele>47.0</ele><time>2026-04-03T19:26:40.332Z</time></trkpt><trkpt lat="45.9994567" lon="12.73255"><ele>47.0</ele><time>2026-04-03T19:26:41.332Z</time></trkpt><trkpt lat="45.9993933" lon="12.73232"><ele>47.33333333333333</ele><time>2026-04-03T19:26:42.332Z</time></trkpt><trkpt lat="45.999325" lon="12.7320967"><ele>47.666666666666664</ele><time>2026-04-03T19:26:43.332Z</time></trkpt><trkpt lat="45.9992567" lon="12.7318767"><ele>48.0</ele><time>2026-04-03T19:26:44.332Z</time></trkpt><trkpt lat="45.9991833" lon="12.7316517"><ele>47.666666666666664</ele><time>2026-04-03T19:26:45.333Z</time></trkpt><trkpt lat="45.9991033" lon="12.731445"><ele>47.33333333333333</ele><time>2026-04-03T19:26:46.333Z</time></trkpt><trkpt lat="45.99902" lon="12.7312333"><ele>47.0</ele><time>2026-04-03T19:26:47.332Z</time></trkpt><trkpt lat="45.998935" lon="12.7310267"><ele>46.666666666666664</ele><time>2026-04-03T19:26:48.332Z</time></trkpt><trkpt lat="45.9988467" lon="12.7308167"><ele>46.333333333333336</ele><time>2026-04-03T19:26:49.332Z</time></trkpt><trkpt lat="45.9987583" lon="12.7306067"><ele>46.0</ele><time>2026-04-03T19:26:50.332Z</time></trkpt><trkpt lat="45.9986717" lon="12.7304033"><ele>46.0</ele><time>2026-04-03T19:26:51.333Z</time></trkpt><trkpt lat="45.9985883" lon="12.7301967"><ele>46.0</ele><time>2026-04-03T19:26:52.332Z</time></trkpt><trkpt lat="45.9985083" lon="12.7299933"><ele>46.0</ele><time>2026-04-03T19:26:53.332Z</time></trkpt><trkpt lat="45.99843" lon="12.7297933"><ele>46.0</ele><time>2026-04-03T19:26:54.332Z</time></trkpt><trkpt lat="45.9983433" lon="12.7295983"><ele>46.0</ele><time>2026-04-03T19:26:55.332Z</time></trkpt><trkpt lat="45.99826" lon="12.7293983"><ele>46.0</ele><time>2026-04-03T19:26:56.332Z</time></trkpt><trkpt lat="45.9981683" lon="12.729205"><ele>46.333333333333336</ele><time>2026-04-03T19:26:57.333Z</time></trkpt><trkpt lat="45.99808" lon="12.7290117"><ele>46.666666666666664</ele><time>2026-04-03T19:26:58.333Z</time></trkpt><trkpt lat="45.997995" lon="12.728815"><ele>47.0</ele><time>2026-04-03T19:26:59.333Z</time></trkpt><trkpt lat="45.9979117" lon="12.7286167"><ele>47.0</ele><time>2026-04-03T19:27:00.333Z</time></trkpt><trkpt lat="45.9978283" lon="12.7284167"><ele>47.0</ele><time>2026-04-03T19:27:01.333Z</time></trkpt><trkpt lat="45.99774" lon="12.7282083"><ele>47.0</ele><time>2026-04-03T19:27:02.333Z</time></trkpt><trkpt lat="45.997645" lon="12.7280067"><ele>47.0</ele><time>2026-04-03T19:27:03.333Z</time></trkpt><trkpt lat="45.9975517" lon="12.727805"><ele>47.0</ele><time>2026-04-03T19:27:04.333Z</time></trkpt><trkpt lat="45.9974617" lon="12.727595"><ele>47.0</ele><time>2026-04-03T19:27:05.333Z</time></trkpt><trkpt lat="45.99736" lon="12.7274083"><ele>46.666666666666664</ele><time>2026-04-03T19:27:06.333Z</time></trkpt><trkpt lat="45.997245" lon="12.727245"><ele>46.333333333333336</ele><time>2026-04-03T19:27:07.333Z</time></trkpt><trkpt lat="45.9971183" lon="12.7270917"><ele>46.0</ele><time>2026-04-03T19:27:08.333Z</time></trkpt><trkpt lat="45.9969717" lon="12.7269517"><ele>46.0</ele><time>2026-04-03T19:27:09.333Z</time></trkpt><trkpt lat="45.9968217" lon="12.7268083"><ele>46.0</ele><time>2026-04-03T19:27:10.333Z</time></trkpt><trkpt lat="45.996665" lon="12.7266783"><ele>46.0</ele><time>2026-04-03T19:27:11.333Z</time></trkpt><trkpt lat="45.996515" lon="12.7265483"><ele>45.66666666666667</ele><time>2026-04-03T19:27:12.333Z</time></trkpt><trkpt lat="45.9963533" lon="12.7264033"><ele>45.333333333333336</ele><time>2026-04-03T19:27:13.333Z</time></trkpt><trkpt lat="45.9962033" lon="12.7262667"><ele>45.0</ele><time>2026-04-03T19:27:14.333Z</time></trkpt><trkpt lat="45.9960517" lon="12.7261317"><ele>44.333333333333336</ele><time>2026-04-03T19:27:15.333Z</time></trkpt><trkpt lat="45.9959017" lon="12.7259967"><ele>43.66666666666667</ele><time>2026-04-03T19:27:16.333Z</time></trkpt><trkpt lat="45.995755" lon="12.72587"><ele>43.0</ele><time>2026-04-03T19:27:17.333Z</time></trkpt><trkpt lat="45.9956017" lon="12.725745"><ele>43.0</ele><time>2026-04-03T19:27:18.333Z</time></trkpt><trkpt lat="45.9954583" lon="12.7256133"><ele>43.0</ele><time>2026-04-03T19:27:19.333Z</time></trkpt><trkpt lat="45.9953117" lon="12.7254783"><ele>43.0</ele><time>2026-04-03T19:27:20.333Z</time></trkpt><trkpt lat="45.9951683" lon="12.7253317"><ele>43.333333333333336</ele><time>2026-04-03T19:27:21.333Z</time></trkpt><trkpt lat="45.9950283" lon="12.7251867"><ele>43.666666666666664</ele><time>2026-04-03T19:27:22.333Z</time></trkpt><trkpt lat="45.99489" lon="12.7250467"><ele>44.0</ele><time>2026-04-03T19:27:23.333Z</time></trkpt><trkpt lat="45.9947567" lon="12.7249083"><ele>43.0</ele><time>2026-04-03T19:27:24.333Z</time></trkpt><trkpt lat="45.9946333" lon="12.72476"><ele>42.0</ele><time>2026-04-03T19:27:25.333Z</time></trkpt><trkpt lat="45.9945033" lon="12.724605"><ele>41.0</ele><time>2026-04-03T19:27:26.333Z</time></trkpt><trkpt lat="45.9943767" lon="12.7244383"><ele>41.0</ele><time>2026-04-03T19:27:27.333Z</time></trkpt><trkpt lat="45.994265" lon="12.7242433"><ele>41.0</ele><time>2026-04-03T19:27:28.334Z</time></trkpt><trkpt lat="45.9941833" lon="12.7240433"><ele>41.0</ele><time>2026-04-03T19:27:29.333Z</time></trkpt><trkpt lat="45.9941233" lon="12.7238333"><ele>41.33333333333333</ele><time>2026-04-03T19:27:30.333Z</time></trkpt><trkpt lat="45.994075" lon="12.7236017"><ele>41.666666666666664</ele><time>2026-04-03T19:27:31.333Z</time></trkpt><trkpt lat="45.9940283" lon="12.72337"><ele>42.0</ele><time>2026-04-03T19:27:32.333Z</time></trkpt><trkpt lat="45.993985" lon="12.7231433"><ele>42.333333333333336</ele><time>2026-04-03T19:27:33.333Z</time></trkpt><trkpt lat="45.9939383" lon="12.722915"><ele>42.66666666666667</ele><time>2026-04-03T19:27:34.333Z</time></trkpt><trkpt lat="45.9938917" lon="12.7226867"><ele>43.0</ele><time>2026-04-03T19:27:35.333Z</time></trkpt><trkpt lat="45.9938333" lon="12.722465"><ele>43.333333333333336</ele><time>2026-04-03T19:27:36.334Z</time></trkpt><trkpt lat="45.9937817" lon="12.7222467"><ele>43.666666666666664</ele><time>2026-04-03T19:27:37.333Z</time></trkpt><trkpt lat="45.9937283" lon="12.72204"><ele>44.0</ele><time>2026-04-03T19:27:38.333Z</time></trkpt><trkpt lat="45.9936717" lon="12.7218333"><ele>44.666666666666664</ele><time>2026-04-03T19:27:39.333Z</time></trkpt><trkpt lat="45.9936167" lon="12.72163"><ele>45.333333333333336</ele><time>2026-04-03T19:27:40.333Z</time></trkpt><trkpt lat="45.99356" lon="12.7214183"><ele>46.0</ele><time>2026-04-03T19:27:41.333Z</time></trkpt><trkpt lat="45.993495" lon="12.721205"><ele>45.333333333333336</ele><time>2026-04-03T19:27:42.333Z</time></trkpt><trkpt lat="45.9934433" lon="12.7209867"><ele>44.666666666666664</ele><time>2026-04-03T19:27:43.333Z</time></trkpt><trkpt lat="45.9933867" lon="12.7207683"><ele>44.0</ele><time>2026-04-03T19:27:44.333Z</time></trkpt><trkpt lat="45.9933183" lon="12.72057"><ele>44.0</ele><time>2026-04-03T19:27:45.333Z</time></trkpt><trkpt lat="45.9932483" lon="12.72037"><ele>44.0</ele><time>2026-04-03T19:27:46.334Z</time></trkpt><trkpt lat="45.993185" lon="12.7201667"><ele>44.0</ele><time>2026-04-03T19:27:47.333Z</time></trkpt><trkpt lat="45.9931283" lon="12.7199583"><ele>44.0</ele><time>2026-04-03T19:27:48.333Z</time></trkpt><trkpt lat="45.99307" lon="12.7197467"><ele>44.0</ele><time>2026-04-03T19:27:49.333Z</time></trkpt><trkpt lat="45.9930233" lon="12.719545"><ele>44.0</ele><time>2026-04-03T19:27:50.333Z</time></trkpt><trkpt lat="45.99296" lon="12.7193467"><ele>44.33333333333333</ele><time>2026-04-03T19:27:51.333Z</time></trkpt><trkpt lat="45.99291" lon="12.719145"><ele>44.666666666666664</ele><time>2026-04-03T19:27:52.333Z</time></trkpt><trkpt lat="45.9928533" lon="12.7189333"><ele>45.0</ele><time>2026-04-03T19:27:53.333Z</time></trkpt><trkpt lat="45.9928" lon="12.7187217"><ele>45.0</ele><time>2026-04-03T19:27:54.333Z</time></trkpt><trkpt lat="45.992745" lon="12.7185117"><ele>45.0</ele><time>2026-04-03T19:27:55.333Z</time></trkpt><trkpt lat="45.99269" lon="12.7183033"><ele>45.0</ele><time>2026-04-03T19:27:56.333Z</time></trkpt><trkpt lat="45.9926317" lon="12.71809"><ele>45.0</ele><time>2026-04-03T19:27:57.333Z</time></trkpt><trkpt lat="45.9925717" lon="12.7178867"><ele>45.0</ele><time>2026-04-03T19:27:58.333Z</time></trkpt><trkpt lat="45.992495" lon="12.7177133"><ele>45.0</ele><time>2026-04-03T19:27:59.333Z</time></trkpt><trkpt lat="45.9924533" lon="12.7175233"><ele>45.0</ele><time>2026-04-03T19:28:00.333Z</time></trkpt><trkpt lat="45.9924133" lon="12.7173467"><ele>44.8</ele><time>2026-04-03T19:28:01.333Z</time></trkpt><trkpt lat="45.99237" lon="12.7171967"><ele>44.6</ele><time>2026-04-03T19:28:02.333Z</time></trkpt><trkpt lat="45.992335" lon="12.7170667"><ele>44.400000000000006</ele><time>2026-04-03T19:28:03.333Z</time></trkpt><trkpt lat="45.9923" lon="12.7169433"><ele>44.2</ele><time>2026-04-03T19:28:04.333Z</time></trkpt><trkpt lat="45.9922683" lon="12.7168283"><ele>44.0</ele><time>2026-04-03T19:28:05.333Z</time></trkpt><trkpt lat="45.9922417" lon="12.7167217"><ele>44.0</ele><time>2026-04-03T19:28:06.333Z</time></trkpt><trkpt lat="45.99221" lon="12.7166283"><ele>44.0</ele><time>2026-04-03T19:28:07.333Z</time></trkpt><trkpt lat="45.9921733" lon="12.716475"><ele>44.0</ele><time>2026-04-03T19:28:09.334Z</time></trkpt><trkpt lat="45.992105" lon="12.7163717"><ele>44.0</ele><time>2026-04-03T19:28:11.333Z</time></trkpt><trkpt lat="45.9919917" lon="12.7163767"><ele>44.0</ele><time>2026-04-03T19:28:13.333Z</time></trkpt><trkpt lat="45.9919083" lon="12.7164167"><ele>44.0</ele><time>2026-04-03T19:28:14.333Z</time></trkpt><trkpt lat="45.99181" lon="12.716455"><ele>44.0</ele><time>2026-04-03T19:28:15.333Z</time></trkpt><trkpt lat="45.99171" lon="12.716495"><ele>44.0</ele><time>2026-04-03T19:28:16.333Z</time></trkpt><trkpt lat="45.9916033" lon="12.7165433"><ele>44.0</ele><time>2026-04-03T19:28:17.333Z</time></trkpt><trkpt lat="45.991495" lon="12.7165883"><ele>44.0</ele><time>2026-04-03T19:28:18.333Z</time></trkpt><trkpt lat="45.9913867" lon="12.7166333"><ele>43.800000000000004</ele><time>2026-04-03T19:28:19.333Z</time></trkpt><trkpt lat="45.99128" lon="12.7166817"><ele>43.6</ele><time>2026-04-03T19:28:20.333Z</time></trkpt><trkpt lat="45.991175" lon="12.71673"><ele>43.4</ele><time>2026-04-03T19:28:21.334Z</time></trkpt><trkpt lat="45.991065" lon="12.71678"><ele>43.2</ele><time>2026-04-03T19:28:22.333Z</time></trkpt><trkpt lat="45.99096" lon="12.71683"><ele>43.0</ele><time>2026-04-03T19:28:23.333Z</time></trkpt><trkpt lat="45.9908417" lon="12.7168817"><ele>42.5</ele><time>2026-04-03T19:28:24.333Z</time></trkpt><trkpt lat="45.9907233" lon="12.7169267"><ele>42.0</ele><time>2026-04-03T19:28:25.333Z</time></trkpt><trkpt lat="45.9905983" lon="12.7169567"><ele>41.5</ele><time>2026-04-03T19:28:26.334Z</time></trkpt><trkpt lat="45.9904717" lon="12.7169883"><ele>41.0</ele><time>2026-04-03T19:28:27.333Z</time></trkpt><trkpt lat="45.9903383" lon="12.7170083"><ele>41.0</ele><time>2026-04-03T19:28:28.333Z</time></trkpt><trkpt lat="45.9901983" lon="12.717035"><ele>41.0</ele><time>2026-04-03T19:28:29.333Z</time></trkpt><trkpt lat="45.9900533" lon="12.71707"><ele>41.0</ele><time>2026-04-03T19:28:30.333Z</time></trkpt><trkpt lat="45.9899167" lon="12.7170967"><ele>41.0</ele><time>2026-04-03T19:28:31.333Z</time></trkpt><trkpt lat="45.9897783" lon="12.7171133"><ele>41.5</ele><time>2026-04-03T19:28:32.333Z</time></trkpt><trkpt lat="45.9896483" lon="12.717125"><ele>42.0</ele><time>2026-04-03T19:28:33.333Z</time></trkpt><trkpt lat="45.9895083" lon="12.7171267"><ele>42.5</ele><time>2026-04-03T19:28:34.333Z</time></trkpt><trkpt lat="45.98938" lon="12.7170933"><ele>43.0</ele><time>2026-04-03T19:28:35.333Z</time></trkpt><trkpt lat="45.9892567" lon="12.71704"><ele>43.25</ele><time>2026-04-03T19:28:36.333Z</time></trkpt><trkpt lat="45.9891433" lon="12.7169667"><ele>43.5</ele><time>2026-04-03T19:28:37.333Z</time></trkpt><trkpt lat="45.9890217" lon="12.7168917"><ele>43.75</ele><time>2026-04-03T19:28:38.333Z</time></trkpt><trkpt lat="45.9888967" lon="12.71681"><ele>44.0</ele><time>2026-04-03T19:28:39.333Z</time></trkpt><trkpt lat="45.9887617" lon="12.7167133"><ele>43.5</ele><time>2026-04-03T19:28:40.333Z</time></trkpt><trkpt lat="45.9886217" lon="12.7166233"><ele>43.0</ele><time>2026-04-03T19:28:41.333Z</time></trkpt><trkpt lat="45.988485" lon="12.716545"><ele>42.5</ele><time>2026-04-03T19:28:42.333Z</time></trkpt><trkpt lat="45.9883617" lon="12.71645"><ele>42.0</ele><time>2026-04-03T19:28:43.333Z</time></trkpt><trkpt lat="45.9882383" lon="12.7163667"><ele>41.5</ele><time>2026-04-03T19:28:44.333Z</time></trkpt><trkpt lat="45.988115" lon="12.7162883"><ele>41.0</ele><time>2026-04-03T19:28:45.333Z</time></trkpt><trkpt lat="45.9879983" lon="12.716245"><ele>40.5</ele><time>2026-04-03T19:28:46.333Z</time></trkpt><trkpt lat="45.9878617" lon="12.7162167"><ele>40.0</ele><time>2026-04-03T19:28:47.333Z</time></trkpt><trkpt lat="45.9877333" lon="12.7162217"><ele>40.0</ele><time>2026-04-03T19:28:48.333Z</time></trkpt><trkpt lat="45.987605" lon="12.7162317"><ele>40.0</ele><time>2026-04-03T19:28:49.333Z</time></trkpt><trkpt lat="45.987485" lon="12.7162483"><ele>40.0</ele><time>2026-04-03T19:28:50.333Z</time></trkpt><trkpt lat="45.9873767" lon="12.7162667"><ele>40.0</ele><time>2026-04-03T19:28:51.333Z</time></trkpt><trkpt lat="45.9872783" lon="12.7162917"><ele>39.66666666666667</ele><time>2026-04-03T19:28:52.333Z</time></trkpt><trkpt lat="45.9871967" lon="12.71631"><ele>39.333333333333336</ele><time>2026-04-03T19:28:53.333Z</time></trkpt><trkpt lat="45.9871167" lon="12.7163283"><ele>39.0</ele><time>2026-04-03T19:28:54.333Z</time></trkpt><trkpt lat="45.987005" lon="12.71634"><ele>38.666666666666664</ele><time>2026-04-03T19:28:56.333Z</time></trkpt><trkpt lat="45.9869217" lon="12.7163717"><ele>38.33333333333333</ele><time>2026-04-03T19:28:58.333Z</time></trkpt><trkpt lat="45.986885" lon="12.7164717"><ele>38.0</ele><time>2026-04-03T19:29:00.333Z</time></trkpt><trkpt lat="45.9869233" lon="12.7166467"><ele>38.0</ele><time>2026-04-03T19:29:02.333Z</time></trkpt><trkpt lat="45.986965" lon="12.71675"><ele>38.0</ele><time>2026-04-03T19:29:03.333Z</time></trkpt><trkpt lat="45.9870017" lon="12.716865"><ele>38.0</ele><time>2026-04-03T19:29:04.333Z</time></trkpt><trkpt lat="45.98703" lon="12.7169867"><ele>38.0</ele><time>2026-04-03T19:29:05.334Z</time></trkpt><trkpt lat="45.987045" lon="12.7171033"><ele>38.0</ele><time>2026-04-03T19:29:06.333Z</time></trkpt><trkpt lat="45.9870617" lon="12.71722"><ele>38.0</ele><time>2026-04-03T19:29:07.333Z</time></trkpt><trkpt lat="45.98707" lon="12.7173383"><ele>38.0</ele><time>2026-04-03T19:29:08.334Z</time></trkpt><trkpt lat="45.9870767" lon="12.7174483"><ele>38.0</ele><time>2026-04-03T19:29:09.333Z</time></trkpt><trkpt lat="45.9870833" lon="12.7175483"><ele>38.0</ele><time>2026-04-03T19:29:10.333Z</time></trkpt><trkpt lat="45.9870817" lon="12.71766"><ele>38.0</ele><time>2026-04-03T19:29:11.333Z</time></trkpt><trkpt lat="45.987065" lon="12.7178333"><ele>38.0</ele><time>2026-04-03T19:29:13.333Z</time></trkpt><trkpt lat="45.9870317" lon="12.717925"><ele>38.0</ele><time>2026-04-03T19:29:14.333Z</time></trkpt><trkpt lat="45.9869817" lon="12.718"><ele>38.199999999999996</ele><time>2026-04-03T19:29:15.333Z</time></trkpt><trkpt lat="45.9869167" lon="12.7180583"><ele>38.4</ele><time>2026-04-03T19:29:16.333Z</time></trkpt><trkpt lat="45.986825" lon="12.7180867"><ele>38.599999999999994</ele><time>2026-04-03T19:29:17.333Z</time></trkpt><trkpt lat="45.9867233" lon="12.718105"><ele>38.8</ele><time>2026-04-03T19:29:18.333Z</time></trkpt><trkpt lat="45.98662" lon="12.7181183"><ele>39.0</ele><time>2026-04-03T19:29:19.333Z</time></trkpt><trkpt lat="45.9865067" lon="12.7181367"><ele>38.5</ele><time>2026-04-03T19:29:20.333Z</time></trkpt><trkpt lat="45.9863833" lon="12.71815"><ele>38.0</ele><time>2026-04-03T19:29:21.333Z</time></trkpt><trkpt lat="45.9862533" lon="12.7181583"><ele>37.5</ele><time>2026-04-03T19:29:22.333Z</time></trkpt><trkpt lat="45.9861117" lon="12.7181517"><ele>37.0</ele><time>2026-04-03T19:29:23.334Z</time></trkpt><trkpt lat="45.985975" lon="12.7181233"><ele>37.75</ele><time>2026-04-03T19:29:24.334Z</time></trkpt><trkpt lat="45.9858417" lon="12.7180933"><ele>38.5</ele><time>2026-04-03T19:29:25.333Z</time></trkpt><trkpt lat="45.9857067" lon="12.7180467"><ele>39.25</ele><time>2026-04-03T19:29:26.333Z</time></trkpt><trkpt lat="45.98557" lon="12.7180267"><ele>40.0</ele><time>2026-04-03T19:29:27.333Z</time></trkpt><trkpt lat="45.9854433" lon="12.7180267"><ele>40.0</ele><time>2026-04-03T19:29:28.333Z</time></trkpt><trkpt lat="45.9853033" lon="12.718045"><ele>40.0</ele><time>2026-04-03T19:29:29.333Z</time></trkpt><trkpt lat="45.985175" lon="12.7180983"><ele>40.0</ele><time>2026-04-03T19:29:30.333Z</time></trkpt><trkpt lat="45.98504" lon="12.7181817"><ele>40.0</ele><time>2026-04-03T19:29:31.333Z</time></trkpt><trkpt lat="45.9849083" lon="12.71827"><ele>40.25</ele><time>2026-04-03T19:29:32.333Z</time></trkpt><trkpt lat="45.9847767" lon="12.7183633"><ele>40.5</ele><time>2026-04-03T19:29:33.333Z</time></trkpt><trkpt lat="45.984645" lon="12.7184567"><ele>40.75</ele><time>2026-04-03T19:29:34.333Z</time></trkpt><trkpt lat="45.9845117" lon="12.7185467"><ele>41.0</ele><time>2026-04-03T19:29:35.333Z</time></trkpt><trkpt lat="45.9843917" lon="12.7186267"><ele>40.25</ele><time>2026-04-03T19:29:36.333Z</time></trkpt><trkpt lat="45.9842717" lon="12.7187117"><ele>39.5</ele><time>2026-04-03T19:29:37.333Z</time></trkpt><trkpt lat="45.9841467" lon="12.7187983"><ele>38.75</ele><time>2026-04-03T19:29:38.334Z</time></trkpt><trkpt lat="45.9840233" lon="12.7188833"><ele>38.0</ele><time>2026-04-03T19:29:39.333Z</time></trkpt><trkpt lat="45.9838983" lon="12.718975"><ele>37.5</ele><time>2026-04-03T19:29:40.334Z</time></trkpt><trkpt lat="45.9837717" lon="12.719065"><ele>37.0</ele><time>2026-04-03T19:29:41.333Z</time></trkpt><trkpt lat="45.98365" lon="12.71913"><ele>36.5</ele><time>2026-04-03T19:29:42.333Z</time></trkpt><trkpt lat="45.9835267" lon="12.7191933"><ele>36.0</ele><time>2026-04-03T19:29:43.333Z</time></trkpt><trkpt lat="45.9834" lon="12.719225"><ele>35.75</ele><time>2026-04-03T19:29:44.333Z</time></trkpt><trkpt lat="45.983275" lon="12.719245"><ele>35.5</ele><time>2026-04-03T19:29:45.333Z</time></trkpt><trkpt lat="45.9831433" lon="12.7192433"><ele>35.25</ele><time>2026-04-03T19:29:46.333Z</time></trkpt><trkpt lat="45.98302" lon="12.719245"><ele>35.0</ele><time>2026-04-03T19:29:47.333Z</time></trkpt><trkpt lat="45.9829017" lon="12.7192267"><ele>35.0</ele><time>2026-04-03T19:29:48.334Z</time></trkpt><trkpt lat="45.9827733" lon="12.7191983"><ele>35.0</ele><time>2026-04-03T19:29:49.333Z</time></trkpt><trkpt lat="45.9826383" lon="12.7191533"><ele>35.0</ele><time>2026-04-03T19:29:50.333Z</time></trkpt><trkpt lat="45.982495" lon="12.719095"><ele>35.0</ele><time>2026-04-03T19:29:51.333Z</time></trkpt><trkpt lat="45.9823483" lon="12.71903"><ele>34.75</ele><time>2026-04-03T19:29:52.333Z</time></trkpt><trkpt lat="45.9822133" lon="12.718955"><ele>34.5</ele><time>2026-04-03T19:29:53.333Z</time></trkpt><trkpt lat="45.982075" lon="12.7188733"><ele>34.25</ele><time>2026-04-03T19:29:54.333Z</time></trkpt><trkpt lat="45.9819433" lon="12.718795"><ele>34.0</ele><time>2026-04-03T19:29:55.333Z</time></trkpt><trkpt lat="45.9818117" lon="12.718715"><ele>34.0</ele><time>2026-04-03T19:29:56.333Z</time></trkpt><trkpt lat="45.9816867" lon="12.7186383"><ele>34.0</ele><time>2026-04-03T19:29:57.333Z</time></trkpt><trkpt lat="45.981565" lon="12.7185633"><ele>34.0</ele><time>2026-04-03T19:29:58.333Z</time></trkpt><trkpt lat="45.9814383" lon="12.7184967"><ele>34.0</ele><time>2026-04-03T19:29:59.333Z</time></trkpt><trkpt lat="45.9813183" lon="12.7184417"><ele>33.75</ele><time>2026-04-03T19:30:00.333Z</time></trkpt><trkpt lat="45.9811933" lon="12.718395"><ele>33.5</ele><time>2026-04-03T19:30:01.333Z</time></trkpt><trkpt lat="45.9810633" lon="12.718365"><ele>33.25</ele><time>2026-04-03T19:30:02.333Z</time></trkpt><trkpt lat="45.9809283" lon="12.7183333"><ele>33.0</ele><time>2026-04-03T19:30:03.334Z</time></trkpt><trkpt lat="45.9807867" lon="12.718315"><ele>33.0</ele><time>2026-04-03T19:30:04.333Z</time></trkpt><trkpt lat="45.9806533" lon="12.7182983"><ele>33.0</ele><time>2026-04-03T19:30:05.333Z</time></trkpt><trkpt lat="45.98052" lon="12.718285"><ele>33.0</ele><time>2026-04-03T19:30:06.333Z</time></trkpt><trkpt lat="45.9803833" lon="12.7182717"><ele>33.0</ele><time>2026-04-03T19:30:07.333Z</time></trkpt><trkpt lat="45.9802517" lon="12.7182583"><ele>33.0</ele><time>2026-04-03T19:30:08.333Z</time></trkpt><trkpt lat="45.9801183" lon="12.718245"><ele>33.0</ele><time>2026-04-03T19:30:09.333Z</time></trkpt><trkpt lat="45.9799883" lon="12.7182233"><ele>33.0</ele><time>2026-04-03T19:30:10.333Z</time></trkpt><trkpt lat="45.9798633" lon="12.7182017"><ele>33.0</ele><time>2026-04-03T19:30:11.333Z</time></trkpt><trkpt lat="45.97974" lon="12.7181783"><ele>32.75</ele><time>2026-04-03T19:30:12.333Z</time></trkpt><trkpt lat="45.97961" lon="12.7181633"><ele>32.5</ele><time>2026-04-03T19:30:13.333Z</time></trkpt><trkpt lat="45.9794817" lon="12.7181483"><ele>32.25</ele><time>2026-04-03T19:30:14.333Z</time></trkpt><trkpt lat="45.979375" lon="12.71813"><ele>32.0</ele><time>2026-04-03T19:30:15.333Z</time></trkpt><trkpt lat="45.97928" lon="12.7181117"><ele>32.0</ele><time>2026-04-03T19:30:16.333Z</time></trkpt><trkpt lat="45.979195" lon="12.7180983"><ele>32.0</ele><time>2026-04-03T19:30:17.333Z</time></trkpt><trkpt lat="45.979115" lon="12.718095"><ele>32.0</ele><time>2026-04-03T19:30:18.333Z</time></trkpt><trkpt lat="45.979045" lon="12.71809"><ele>32.0</ele><time>2026-04-03T19:30:19.333Z</time></trkpt><trkpt lat="45.9789283" lon="12.71807"><ele>32.0</ele><time>2026-04-03T19:30:21.333Z</time></trkpt><trkpt lat="45.9788233" lon="12.718105"><ele>31.999999999999996</ele><time>2026-04-03T19:30:23.334Z</time></trkpt><trkpt lat="45.9787667" lon="12.7181583"><ele>32.0</ele><time>2026-04-03T19:30:24.333Z</time></trkpt><trkpt lat="45.97871" lon="12.7182417"><ele>32.0</ele><time>2026-04-03T19:30:25.333Z</time></trkpt><trkpt lat="45.9786533" lon="12.718345"><ele>32.0</ele><time>2026-04-03T19:30:26.333Z</time></trkpt><trkpt lat="45.9785983" lon="12.71846"><ele>31.999999999999996</ele><time>2026-04-03T19:30:27.333Z</time></trkpt><trkpt lat="45.9785417" lon="12.7185767"><ele>32.0</ele><time>2026-04-03T19:30:28.333Z</time></trkpt><trkpt lat="45.97848" lon="12.7187067"><ele>32.0</ele><time>2026-04-03T19:30:29.333Z</time></trkpt><trkpt lat="45.978415" lon="12.7188383"><ele>32.0</ele><time>2026-04-03T19:30:30.333Z</time></trkpt><trkpt lat="45.97834" lon="12.7189783"><ele>32.0</ele><time>2026-04-03T19:30:31.333Z</time></trkpt><trkpt lat="45.9782633" lon="12.719125"><ele>32.0</ele><time>2026-04-03T19:30:32.333Z</time></trkpt><trkpt lat="45.9781833" lon="12.719275"><ele>31.75</ele><time>2026-04-03T19:30:33.333Z</time></trkpt><trkpt lat="45.9781017" lon="12.7194267"><ele>31.5</ele><time>2026-04-03T19:30:34.333Z</time></trkpt><trkpt lat="45.9780217" lon="12.7195833"><ele>31.25</ele><time>2026-04-03T19:30:35.333Z</time></trkpt><trkpt lat="45.9779317" lon="12.71974"><ele>31.0</ele><time>2026-04-03T19:30:36.333Z</time></trkpt><trkpt lat="45.97785" lon="12.7198933"><ele>31.0</ele><time>2026-04-03T19:30:37.333Z</time></trkpt><trkpt lat="45.9777633" lon="12.720055"><ele>31.0</ele><time>2026-04-03T19:30:38.333Z</time></trkpt><trkpt lat="45.9776733" lon="12.72022"><ele>31.0</ele><time>2026-04-03T19:30:39.333Z</time></trkpt><trkpt lat="45.977585" lon="12.72038"><ele>31.0</ele><time>2026-04-03T19:30:40.333Z</time></trkpt><trkpt lat="45.9774967" lon="12.72053"><ele>30.75</ele><time>2026-04-03T19:30:41.333Z</time></trkpt><trkpt lat="45.977415" lon="12.720685"><ele>30.5</ele><time>2026-04-03T19:30:42.333Z</time></trkpt><trkpt lat="45.9773283" lon="12.7208417"><ele>30.25</ele><time>2026-04-03T19:30:43.333Z</time></trkpt><trkpt lat="45.9772417" lon="12.7209917"><ele>30.0</ele><time>2026-04-03T19:30:44.333Z</time></trkpt><trkpt lat="45.9771483" lon="12.7211433"><ele>30.0</ele><time>2026-04-03T19:30:45.334Z</time></trkpt><trkpt lat="45.9770583" lon="12.7213"><ele>30.0</ele><time>2026-04-03T19:30:46.333Z</time></trkpt><trkpt lat="45.9769633" lon="12.7214533"><ele>30.0</ele><time>2026-04-03T19:30:47.333Z</time></trkpt><trkpt lat="45.9768717" lon="12.7216"><ele>30.0</ele><time>2026-04-03T19:30:48.333Z</time></trkpt><trkpt lat="45.9767867" lon="12.7217433"><ele>30.0</ele><time>2026-04-03T19:30:49.334Z</time></trkpt><trkpt lat="45.976705" lon="12.72188"><ele>30.0</ele><time>2026-04-03T19:30:50.333Z</time></trkpt><trkpt lat="45.9766217" lon="12.7219983"><ele>30.0</ele><time>2026-04-03T19:30:51.333Z</time></trkpt><trkpt lat="45.976545" lon="12.7221117"><ele>30.0</ele><time>2026-04-03T19:30:52.333Z</time></trkpt><trkpt lat="45.9764683" lon="12.72222"><ele>30.0</ele><time>2026-04-03T19:30:53.333Z</time></trkpt><trkpt lat="45.9763783" lon="12.72231"><ele>30.0</ele><time>2026-04-03T19:30:54.333Z</time></trkpt><trkpt lat="45.9762833" lon="12.722385"><ele>30.0</ele><time>2026-04-03T19:30:55.333Z</time></trkpt><trkpt lat="45.97618" lon="12.7224283"><ele>30.0</ele><time>2026-04-03T19:30:56.333Z</time></trkpt><trkpt lat="45.9760717" lon="12.7224617"><ele>30.0</ele><time>2026-04-03T19:30:57.333Z</time></trkpt><trkpt lat="45.97597" lon="12.7224883"><ele>30.0</ele><time>2026-04-03T19:30:58.334Z</time></trkpt><trkpt lat="45.97586" lon="12.7225167"><ele>30.0</ele><time>2026-04-03T19:30:59.334Z</time></trkpt><trkpt lat="45.97574" lon="12.72255"><ele>30.0</ele><time>2026-04-03T19:31:00.334Z</time></trkpt><trkpt lat="45.9756167" lon="12.7225767"><ele>30.0</ele><time>2026-04-03T19:31:01.333Z</time></trkpt><trkpt lat="45.975485" lon="12.72261"><ele>29.25</ele><time>2026-04-03T19:31:02.333Z</time></trkpt><trkpt lat="45.975345" lon="12.7226483"><ele>28.5</ele><time>2026-04-03T19:31:03.333Z</time></trkpt><trkpt lat="45.9752083" lon="12.7226867"><ele>27.75</ele><time>2026-04-03T19:31:04.334Z</time></trkpt><trkpt lat="45.9750667" lon="12.72273"><ele>27.0</ele><time>2026-04-03T19:31:05.333Z</time></trkpt><trkpt lat="45.9749183" lon="12.722795"><ele>27.0</ele><time>2026-04-03T19:31:06.333Z</time></trkpt><trkpt lat="45.9747817" lon="12.7228683"><ele>27.0</ele><time>2026-04-03T19:31:07.333Z</time></trkpt><trkpt lat="45.9746567" lon="12.7229383"><ele>27.0</ele><time>2026-04-03T19:31:08.333Z</time></trkpt><trkpt lat="45.9745367" lon="12.723025"><ele>27.0</ele><time>2026-04-03T19:31:09.334Z</time></trkpt><trkpt lat="45.974415" lon="12.723115"><ele>27.0</ele><time>2026-04-03T19:31:10.333Z</time></trkpt><trkpt lat="45.9743033" lon="12.7232167"><ele>27.0</ele><time>2026-04-03T19:31:11.333Z</time></trkpt><trkpt lat="45.9742" lon="12.7233167"><ele>27.0</ele><time>2026-04-03T19:31:12.333Z</time></trkpt><trkpt lat="45.9741033" lon="12.7234133"><ele>27.0</ele><time>2026-04-03T19:31:13.333Z</time></trkpt><trkpt lat="45.9740067" lon="12.7235017"><ele>26.666666666666668</ele><time>2026-04-03T19:31:14.333Z</time></trkpt><trkpt lat="45.97393" lon="12.72358"><ele>26.333333333333336</ele><time>2026-04-03T19:31:15.333Z</time></trkpt><trkpt lat="45.973865" lon="12.723645"><ele>26.0</ele><time>2026-04-03T19:31:16.333Z</time></trkpt><trkpt lat="45.97381" lon="12.7236983"><ele>25.666666666666668</ele><time>2026-04-03T19:31:17.333Z</time></trkpt><trkpt lat="45.97371" lon="12.72377"><ele>25.333333333333336</ele><time>2026-04-03T19:31:19.333Z</time></trkpt><trkpt lat="45.9736517" lon="12.72384"><ele>25.0</ele><time>2026-04-03T19:31:21.333Z</time></trkpt><trkpt lat="45.9736433" lon="12.7239317"><ele>25.000000000000004</ele><time>2026-04-03T19:31:23.333Z</time></trkpt><trkpt lat="45.9736917" lon="12.7240017"><ele>25.0</ele><time>2026-04-03T19:31:25.333Z</time></trkpt><trkpt lat="45.9737733" lon="12.72405"><ele>25.0</ele><time>2026-04-03T19:31:27.333Z</time></trkpt><trkpt lat="45.9738767" lon="12.7241117"><ele>25.0</ele><time>2026-04-03T19:31:29.333Z</time></trkpt><trkpt lat="45.9739317" lon="12.7241567"><ele>25.000000000000004</ele><time>2026-04-03T19:31:30.333Z</time></trkpt><trkpt lat="45.97399" lon="12.724205"><ele>25.0</ele><time>2026-04-03T19:31:31.333Z</time></trkpt><trkpt lat="45.9740467" lon="12.72426"><ele>25.000000000000004</ele><time>2026-04-03T19:31:32.333Z</time></trkpt><trkpt lat="45.97411" lon="12.7243067"><ele>25.0</ele><time>2026-04-03T19:31:33.333Z</time></trkpt><trkpt lat="45.9741783" lon="12.7243517"><ele>25.0</ele><time>2026-04-03T19:31:34.333Z</time></trkpt><trkpt lat="45.97425" lon="12.7243983"><ele>25.0</ele><time>2026-04-03T19:31:35.333Z</time></trkpt><trkpt lat="45.9743183" lon="12.7244467"><ele>25.000000000000004</ele><time>2026-04-03T19:31:36.333Z</time></trkpt><trkpt lat="45.9743867" lon="12.7244967"><ele>25.0</ele><time>2026-04-03T19:31:37.333Z</time></trkpt><trkpt lat="45.9744583" lon="12.7245433"><ele>25.166666666666668</ele><time>2026-04-03T19:31:38.333Z</time></trkpt><trkpt lat="45.9745367" lon="12.7245883"><ele>25.333333333333336</ele><time>2026-04-03T19:31:39.333Z</time></trkpt><trkpt lat="45.974615" lon="12.72464"><ele>25.5</ele><time>2026-04-03T19:31:40.333Z</time></trkpt><trkpt lat="45.9746867" lon="12.7246883"><ele>25.666666666666664</ele><time>2026-04-03T19:31:41.334Z</time></trkpt><trkpt lat="45.9747517" lon="12.72474"><ele>25.833333333333332</ele><time>2026-04-03T19:31:42.333Z</time></trkpt><trkpt lat="45.9748267" lon="12.7247917"><ele>26.0</ele><time>2026-04-03T19:31:43.333Z</time></trkpt><trkpt lat="45.9749067" lon="12.7248467"><ele>25.999999999999996</ele><time>2026-04-03T19:31:44.333Z</time></trkpt><trkpt lat="45.974985" lon="12.724905"><ele>26.0</ele><time>2026-04-03T19:31:45.333Z</time></trkpt><trkpt lat="45.97506" lon="12.7249583"><ele>26.0</ele><time>2026-04-03T19:31:46.333Z</time></trkpt><trkpt lat="45.9751317" lon="12.7250217"><ele>26.0</ele><time>2026-04-03T19:31:47.333Z</time></trkpt><trkpt lat="45.97518" lon="12.7251017"><ele>25.999999999999996</ele><time>2026-04-03T19:31:48.333Z</time></trkpt><trkpt lat="45.9752267" lon="12.725175"><ele>26.0</ele><time>2026-04-03T19:31:49.333Z</time></trkpt><trkpt lat="45.975265" lon="12.7252583"><ele>25.999999999999996</ele><time>2026-04-03T19:31:50.333Z</time></trkpt><trkpt lat="45.9753067" lon="12.7253417"><ele>26.0</ele><time>2026-04-03T19:31:51.333Z</time></trkpt><trkpt lat="45.97535" lon="12.7254283"><ele>26.0</ele><time>2026-04-03T19:31:52.333Z</time></trkpt><trkpt lat="45.9753933" lon="12.725525"><ele>26.0</ele><time>2026-04-03T19:31:53.333Z</time></trkpt><trkpt lat="45.97544" lon="12.7256233"><ele>25.999999999999996</ele><time>2026-04-03T19:31:54.333Z</time></trkpt><trkpt lat="45.9754883" lon="12.725725"><ele>26.0</ele><time>2026-04-03T19:31:55.333Z</time></trkpt><trkpt lat="45.9755417" lon="12.72583"><ele>25.999999999999996</ele><time>2026-04-03T19:31:56.333Z</time></trkpt><trkpt lat="45.975595" lon="12.7259333"><ele>26.0</ele><time>2026-04-03T19:31:57.333Z</time></trkpt><trkpt lat="45.97565" lon="12.7260367"><ele>26.0</ele><time>2026-04-03T19:31:58.333Z</time></trkpt><trkpt lat="45.9756983" lon="12.7261383"><ele>26.0</ele><time>2026-04-03T19:31:59.333Z</time></trkpt><trkpt lat="45.9757483" lon="12.7262333"><ele>25.999999999999996</ele><time>2026-04-03T19:32:00.333Z</time></trkpt><trkpt lat="45.9757983" lon="12.72633"><ele>26.0</ele><time>2026-04-03T19:32:01.333Z</time></trkpt><trkpt lat="45.97585" lon="12.7264233"><ele>26.166666666666664</ele><time>2026-04-03T19:32:02.333Z</time></trkpt><trkpt lat="45.9759017" lon="12.72652"><ele>26.333333333333332</ele><time>2026-04-03T19:32:03.333Z</time></trkpt><trkpt lat="45.97595" lon="12.7266083"><ele>26.5</ele><time>2026-04-03T19:32:04.333Z</time></trkpt><trkpt lat="45.9759967" lon="12.7266983"><ele>26.666666666666664</ele><time>2026-04-03T19:32:05.333Z</time></trkpt><trkpt lat="45.97605" lon="12.7267883"><ele>26.833333333333332</ele><time>2026-04-03T19:32:06.334Z</time></trkpt><trkpt lat="45.9761" lon="12.7268717"><ele>27.0</ele><time>2026-04-03T19:32:07.334Z</time></trkpt><trkpt lat="45.9761483" lon="12.72696"><ele>27.0</ele><time>2026-04-03T19:32:08.333Z</time></trkpt><trkpt lat="45.9761983" lon="12.7270533"><ele>27.0</ele><time>2026-04-03T19:32:09.333Z</time></trkpt><trkpt lat="45.9762433" lon="12.7271483"><ele>27.0</ele><time>2026-04-03T19:32:10.333Z</time></trkpt><trkpt lat="45.97629" lon="12.7272333"><ele>27.0</ele><time>2026-04-03T19:32:11.333Z</time></trkpt><trkpt lat="45.9763367" lon="12.7273167"><ele>27.0</ele><time>2026-04-03T19:32:12.333Z</time></trkpt><trkpt lat="45.9763833" lon="12.72739"><ele>27.0</ele><time>2026-04-03T19:32:13.333Z</time></trkpt><trkpt lat="45.976455" lon="12.7275367"><ele>27.0</ele><time>2026-04-03T19:32:15.333Z</time></trkpt><trkpt lat="45.976485" lon="12.7276233"><ele>27.0</ele><time>2026-04-03T19:32:16.334Z</time></trkpt><trkpt lat="45.9765167" lon="12.72772"><ele>27.0</ele><time>2026-04-03T19:32:17.333Z</time></trkpt><trkpt lat="45.9765433" lon="12.7278233"><ele>27.0</ele><time>2026-04-03T19:32:18.333Z</time></trkpt><trkpt lat="45.9765783" lon="12.727935"><ele>27.0</ele><time>2026-04-03T19:32:19.333Z</time></trkpt><trkpt lat="45.9765983" lon="12.7280317"><ele>27.0</ele><time>2026-04-03T19:32:20.333Z</time></trkpt><trkpt lat="45.97662" lon="12.728125"><ele>27.0</ele><time>2026-04-03T19:32:21.333Z</time></trkpt><trkpt lat="45.976645" lon="12.7282167"><ele>27.0</ele><time>2026-04-03T19:32:22.333Z</time></trkpt><trkpt lat="45.97667" lon="12.72832"><ele>27.0</ele><time>2026-04-03T19:32:23.333Z</time></trkpt><trkpt lat="45.9766917" lon="12.7284267"><ele>27.0</ele><time>2026-04-03T19:32:24.333Z</time></trkpt><trkpt lat="45.9767167" lon="12.7285367"><ele>27.0</ele><time>2026-04-03T19:32:25.333Z</time></trkpt><trkpt lat="45.9767483" lon="12.7286483"><ele>27.0</ele><time>2026-04-03T19:32:26.333Z</time></trkpt><trkpt lat="45.976775" lon="12.7287617"><ele>27.0</ele><time>2026-04-03T19:32:27.333Z</time></trkpt><trkpt lat="45.9768033" lon="12.7288767"><ele>27.0</ele><time>2026-04-03T19:32:28.333Z</time></trkpt><trkpt lat="45.976835" lon="12.7289917"><ele>27.0</ele><time>2026-04-03T19:32:29.333Z</time></trkpt><trkpt lat="45.976865" lon="12.7291"><ele>27.0</ele><time>2026-04-03T19:32:30.333Z</time></trkpt><trkpt lat="45.97689" lon="12.7291967"><ele>27.0</ele><time>2026-04-03T19:32:31.333Z</time></trkpt><trkpt lat="45.9769067" lon="12.7292967"><ele>27.0</ele><time>2026-04-03T19:32:32.333Z</time></trkpt><trkpt lat="45.976925" lon="12.7294617"><ele>27.0</ele><time>2026-04-03T19:32:34.333Z</time></trkpt><trkpt lat="45.9769633" lon="12.7295917"><ele>26.6</ele><time>2026-04-03T19:32:36.333Z</time></trkpt><trkpt lat="45.9770367" lon="12.7296733"><ele>26.200000000000003</ele><time>2026-04-03T19:32:38.333Z</time></trkpt><trkpt lat="45.9771083" lon="12.72977"><ele>25.8</ele><time>2026-04-03T19:32:40.333Z</time></trkpt><trkpt lat="45.9771583" lon="12.7299033"><ele>25.4</ele><time>2026-04-03T19:32:42.333Z</time></trkpt><trkpt lat="45.9772083" lon="12.7300567"><ele>25.0</ele><time>2026-04-03T19:32:44.333Z</time></trkpt><trkpt lat="45.977235" lon="12.7301417"><ele>25.000000000000004</ele><time>2026-04-03T19:32:45.333Z</time></trkpt><trkpt lat="45.9772667" lon="12.7302283"><ele>25.0</ele><time>2026-04-03T19:32:46.333Z</time></trkpt><trkpt lat="45.977305" lon="12.7303167"><ele>25.0</ele><time>2026-04-03T19:32:47.333Z</time></trkpt><trkpt lat="45.9773467" lon="12.73041"><ele>25.0</ele><time>2026-04-03T19:32:48.334Z</time></trkpt><trkpt lat="45.977385" lon="12.7305033"><ele>25.0</ele><time>2026-04-03T19:32:49.333Z</time></trkpt><trkpt lat="45.9774217" lon="12.730595"><ele>25.000000000000004</ele><time>2026-04-03T19:32:50.333Z</time></trkpt><trkpt lat="45.97746" lon="12.730685"><ele>25.0</ele><time>2026-04-03T19:32:51.333Z</time></trkpt><trkpt lat="45.977495" lon="12.73078"><ele>25.28571428571429</ele><time>2026-04-03T19:32:52.333Z</time></trkpt><trkpt lat="45.9775283" lon="12.7308733"><ele>25.571428571428573</ele><time>2026-04-03T19:32:53.333Z</time></trkpt><trkpt lat="45.9775633" lon="12.73096"><ele>25.857142857142858</ele><time>2026-04-03T19:32:54.333Z</time></trkpt><trkpt lat="45.977595" lon="12.7310417"><ele>26.142857142857146</ele><time>2026-04-03T19:32:55.333Z</time></trkpt><trkpt lat="45.9776283" lon="12.731125"><ele>26.428571428571427</ele><time>2026-04-03T19:32:56.334Z</time></trkpt><trkpt lat="45.977665" lon="12.73121"><ele>26.714285714285715</ele><time>2026-04-03T19:32:57.333Z</time></trkpt><trkpt lat="45.9777017" lon="12.7313"><ele>27.0</ele><time>2026-04-03T19:32:58.333Z</time></trkpt><trkpt lat="45.97774" lon="12.7313967"><ele>27.333333333333332</ele><time>2026-04-03T19:32:59.333Z</time></trkpt><trkpt lat="45.9777817" lon="12.7314967"><ele>27.666666666666664</ele><time>2026-04-03T19:33:00.333Z</time></trkpt><trkpt lat="45.9778233" lon="12.7315967"><ele>28.0</ele><time>2026-04-03T19:33:01.333Z</time></trkpt><trkpt lat="45.97787" lon="12.7317033"><ele>28.333333333333332</ele><time>2026-04-03T19:33:02.334Z</time></trkpt><trkpt lat="45.9779083" lon="12.7317967"><ele>28.666666666666664</ele><time>2026-04-03T19:33:03.334Z</time></trkpt><trkpt lat="45.9779483" lon="12.7318917"><ele>29.0</ele><time>2026-04-03T19:33:04.333Z</time></trkpt><trkpt lat="45.9779867" lon="12.7319883"><ele>28.999999999999996</ele><time>2026-04-03T19:33:05.333Z</time></trkpt><trkpt lat="45.9780267" lon="12.7320833"><ele>29.0</ele><time>2026-04-03T19:33:06.333Z</time></trkpt><trkpt lat="45.978065" lon="12.7321833"><ele>29.0</ele><time>2026-04-03T19:33:07.333Z</time></trkpt><trkpt lat="45.9781067" lon="12.7322883"><ele>29.0</ele><time>2026-04-03T19:33:08.333Z</time></trkpt><trkpt lat="45.97815" lon="12.7323883"><ele>28.999999999999996</ele><time>2026-04-03T19:33:09.333Z</time></trkpt><trkpt lat="45.9781917" lon="12.7324933"><ele>29.0</ele><time>2026-04-03T19:33:10.333Z</time></trkpt><trkpt lat="45.97823" lon="12.732595"><ele>28.999999999999996</ele><time>2026-04-03T19:33:11.333Z</time></trkpt><trkpt lat="45.9782583" lon="12.73271"><ele>29.0</ele><time>2026-04-03T19:33:12.333Z</time></trkpt><trkpt lat="45.9782733" lon="12.7328283"><ele>29.0</ele><time>2026-04-03T19:33:13.333Z</time></trkpt><trkpt lat="45.9782833" lon="12.7329383"><ele>29.0</ele><time>2026-04-03T19:33:14.334Z</time></trkpt><trkpt lat="45.9782783" lon="12.7330417"><ele>28.999999999999996</ele><time>2026-04-03T19:33:15.333Z</time></trkpt><trkpt lat="45.97827" lon="12.7331517"><ele>29.0</ele><time>2026-04-03T19:33:16.333Z</time></trkpt><trkpt lat="45.978255" lon="12.7332567"><ele>29.000000000000004</ele><time>2026-04-03T19:33:17.333Z</time></trkpt><trkpt lat="45.9782367" lon="12.7333517"><ele>29.0</ele><time>2026-04-03T19:33:18.333Z</time></trkpt><trkpt lat="45.97822" lon="12.7334483"><ele>29.000000000000004</ele><time>2026-04-03T19:33:19.333Z</time></trkpt><trkpt lat="45.9781967" lon="12.7335467"><ele>29.000000000000004</ele><time>2026-04-03T19:33:20.333Z</time></trkpt><trkpt lat="45.97818" lon="12.733645"><ele>29.0</ele><time>2026-04-03T19:33:21.333Z</time></trkpt><trkpt lat="45.97817" lon="12.7337417"><ele>29.000000000000004</ele><time>2026-04-03T19:33:22.333Z</time></trkpt><trkpt lat="45.9781517" lon="12.733845"><ele>29.000000000000004</ele><time>2026-04-03T19:33:23.333Z</time></trkpt><trkpt lat="45.978135" lon="12.7339567"><ele>29.2</ele><time>2026-04-03T19:33:24.333Z</time></trkpt><trkpt lat="45.9781183" lon="12.734055"><ele>29.4</ele><time>2026-04-03T19:33:25.333Z</time></trkpt><trkpt lat="45.97811" lon="12.7341483"><ele>29.6</ele><time>2026-04-03T19:33:26.333Z</time></trkpt><trkpt lat="45.9780917" lon="12.7343283"><ele>29.8</ele><time>2026-04-03T19:33:28.334Z</time></trkpt><trkpt lat="45.97807" lon="12.73451"><ele>30.0</ele><time>2026-04-03T19:33:30.333Z</time></trkpt><trkpt lat="45.9780617" lon="12.7346117"><ele>30.0</ele><time>2026-04-03T19:33:31.333Z</time></trkpt><trkpt lat="45.9780533" lon="12.73471"><ele>30.0</ele><time>2026-04-03T19:33:32.333Z</time></trkpt><trkpt lat="45.9780433" lon="12.7348"><ele>30.0</ele><time>2026-04-03T19:33:33.333Z</time></trkpt><trkpt lat="45.9780217" lon="12.7349567"><ele>30.0</ele><time>2026-04-03T19:33:35.333Z</time></trkpt><trkpt lat="45.97801" lon="12.7350967"><ele>30.0</ele><time>2026-04-03T19:33:37.333Z</time></trkpt><trkpt lat="45.9779983" lon="12.735235"><ele>30.0</ele><time>2026-04-03T19:33:39.333Z</time></trkpt><trkpt lat="45.9779817" lon="12.73537"><ele>30.0</ele><time>2026-04-03T19:33:41.333Z</time></trkpt><trkpt lat="45.97798" lon="12.735535"><ele>30.0</ele><time>2026-04-03T19:33:43.333Z</time></trkpt><trkpt lat="45.9779717" lon="12.73569"><ele>30.0</ele><time>2026-04-03T19:33:45.333Z</time></trkpt><trkpt lat="45.9779633" lon="12.7358533"><ele>30.0</ele><time>2026-04-03T19:33:47.333Z</time></trkpt><trkpt lat="45.9779533" lon="12.73604"><ele>29.833333333333332</ele><time>2026-04-03T19:33:49.333Z</time></trkpt><trkpt lat="45.9779483" lon="12.7361483"><ele>29.666666666666664</ele><time>2026-04-03T19:33:50.333Z</time></trkpt><trkpt lat="45.9779433" lon="12.7362617"><ele>29.5</ele><time>2026-04-03T19:33:51.333Z</time></trkpt><trkpt lat="45.9779367" lon="12.7363783"><ele>29.333333333333332</ele><time>2026-04-03T19:33:52.333Z</time></trkpt><trkpt lat="45.9779333" lon="12.7364883"><ele>29.166666666666664</ele><time>2026-04-03T19:33:53.333Z</time></trkpt><trkpt lat="45.97793" lon="12.7365933"><ele>29.0</ele><time>2026-04-03T19:33:54.333Z</time></trkpt><trkpt lat="45.977925" lon="12.7366967"><ele>28.999999999999996</ele><time>2026-04-03T19:33:55.333Z</time></trkpt><trkpt lat="45.9779183" lon="12.7367967"><ele>29.0</ele><time>2026-04-03T19:33:56.333Z</time></trkpt><trkpt lat="45.977915" lon="12.7369033"><ele>29.0</ele><time>2026-04-03T19:33:57.333Z</time></trkpt><trkpt lat="45.9779217" lon="12.73701"><ele>29.0</ele><time>2026-04-03T19:33:58.333Z</time></trkpt><trkpt lat="45.9779233" lon="12.737125"><ele>28.999999999999996</ele><time>2026-04-03T19:33:59.333Z</time></trkpt><trkpt lat="45.97793" lon="12.7372417"><ele>29.0</ele><time>2026-04-03T19:34:00.333Z</time></trkpt><trkpt lat="45.9779383" lon="12.7373517"><ele>28.833333333333332</ele><time>2026-04-03T19:34:01.333Z</time></trkpt><trkpt lat="45.9779467" lon="12.7374633"><ele>28.666666666666664</ele><time>2026-04-03T19:34:02.333Z</time></trkpt><trkpt lat="45.9779533" lon="12.7375767"><ele>28.5</ele><time>2026-04-03T19:34:03.333Z</time></trkpt><trkpt lat="45.9779633" lon="12.73769"><ele>28.333333333333336</ele><time>2026-04-03T19:34:04.333Z</time></trkpt><trkpt lat="45.9779717" lon="12.7378033"><ele>28.166666666666668</ele><time>2026-04-03T19:34:05.334Z</time></trkpt><trkpt lat="45.977975" lon="12.7379233"><ele>28.0</ele><time>2026-04-03T19:34:06.333Z</time></trkpt><trkpt lat="45.9779767" lon="12.7380317"><ele>27.833333333333336</ele><time>2026-04-03T19:34:07.333Z</time></trkpt><trkpt lat="45.9779867" lon="12.7381383"><ele>27.666666666666668</ele><time>2026-04-03T19:34:08.333Z</time></trkpt><trkpt lat="45.9779967" lon="12.7382417"><ele>27.5</ele><time>2026-04-03T19:34:09.333Z</time></trkpt><trkpt lat="45.978" lon="12.7383567"><ele>27.333333333333336</ele><time>2026-04-03T19:34:10.333Z</time></trkpt><trkpt lat="45.9780033" lon="12.7384783"><ele>27.166666666666668</ele><time>2026-04-03T19:34:11.333Z</time></trkpt><trkpt lat="45.9780133" lon="12.7386017"><ele>27.0</ele><time>2026-04-03T19:34:12.333Z</time></trkpt><trkpt lat="45.978025" lon="12.7387217"><ele>27.333333333333332</ele><time>2026-04-03T19:34:13.333Z</time></trkpt><trkpt lat="45.97803" lon="12.738845"><ele>27.666666666666664</ele><time>2026-04-03T19:34:14.333Z</time></trkpt><trkpt lat="45.978045" lon="12.7389683"><ele>28.0</ele><time>2026-04-03T19:34:15.333Z</time></trkpt><trkpt lat="45.9780533" lon="12.7390983"><ele>28.333333333333332</ele><time>2026-04-03T19:34:16.333Z</time></trkpt><trkpt lat="45.9780417" lon="12.7392183"><ele>28.666666666666664</ele><time>2026-04-03T19:34:17.333Z</time></trkpt><trkpt lat="45.9780417" lon="12.7393483"><ele>29.0</ele><time>2026-04-03T19:34:18.333Z</time></trkpt><trkpt lat="45.9780433" lon="12.7394667"><ele>29.166666666666664</ele><time>2026-04-03T19:34:19.333Z</time></trkpt><trkpt lat="45.978055" lon="12.7395983"><ele>29.333333333333332</ele><time>2026-04-03T19:34:20.333Z</time></trkpt><trkpt lat="45.9780633" lon="12.7397267"><ele>29.5</ele><time>2026-04-03T19:34:21.333Z</time></trkpt><trkpt lat="45.9780767" lon="12.7398517"><ele>29.666666666666664</ele><time>2026-04-03T19:34:22.333Z</time></trkpt><trkpt lat="45.97809" lon="12.7399767"><ele>29.833333333333332</ele><time>2026-04-03T19:34:23.333Z</time></trkpt><trkpt lat="45.9781033" lon="12.7401"><ele>30.0</ele><time>2026-04-03T19:34:24.333Z</time></trkpt><trkpt lat="45.97811" lon="12.7402267"><ele>30.0</ele><time>2026-04-03T19:34:25.333Z</time></trkpt><trkpt lat="45.9781117" lon="12.74035"><ele>30.0</ele><time>2026-04-03T19:34:26.333Z</time></trkpt><trkpt lat="45.97812" lon="12.74047"><ele>30.0</ele><time>2026-04-03T19:34:27.333Z</time></trkpt><trkpt lat="45.97813" lon="12.7405817"><ele>30.0</ele><time>2026-04-03T19:34:28.333Z</time></trkpt><trkpt lat="45.9781367" lon="12.7406933"><ele>30.0</ele><time>2026-04-03T19:34:29.333Z</time></trkpt><trkpt lat="45.9781383" lon="12.7408017"><ele>30.0</ele><time>2026-04-03T19:34:30.333Z</time></trkpt><trkpt lat="45.9781317" lon="12.7408967"><ele>30.0</ele><time>2026-04-03T19:34:31.333Z</time></trkpt><trkpt lat="45.978115" lon="12.7409983"><ele>30.0</ele><time>2026-04-03T19:34:32.334Z</time></trkpt><trkpt lat="45.9780883" lon="12.7410933"><ele>30.0</ele><time>2026-04-03T19:34:33.333Z</time></trkpt><trkpt lat="45.97806" lon="12.741185"><ele>30.0</ele><time>2026-04-03T19:34:34.334Z</time></trkpt><trkpt lat="45.9780283" lon="12.7412783"><ele>30.0</ele><time>2026-04-03T19:34:35.333Z</time></trkpt><trkpt lat="45.9779967" lon="12.741365"><ele>30.0</ele><time>2026-04-03T19:34:36.333Z</time></trkpt><trkpt lat="45.9779633" lon="12.7414583"><ele>30.0</ele><time>2026-04-03T19:34:37.333Z</time></trkpt><trkpt lat="45.97792" lon="12.741545"><ele>30.333333333333332</ele><time>2026-04-03T19:34:38.333Z</time></trkpt><trkpt lat="45.9778883" lon="12.741625"><ele>30.666666666666664</ele><time>2026-04-03T19:34:39.334Z</time></trkpt><trkpt lat="45.9778517" lon="12.74171"><ele>31.0</ele><time>2026-04-03T19:34:40.333Z</time></trkpt><trkpt lat="45.97782" lon="12.7417933"><ele>31.333333333333332</ele><time>2026-04-03T19:34:41.333Z</time></trkpt><trkpt lat="45.9777617" lon="12.7419417"><ele>31.666666666666664</ele><time>2026-04-03T19:34:43.333Z</time></trkpt><trkpt lat="45.9777" lon="12.742085"><ele>32.0</ele><time>2026-04-03T19:34:45.333Z</time></trkpt><trkpt lat="45.9776533" lon="12.7422117"><ele>31.999999999999996</ele><time>2026-04-03T19:34:47.333Z</time></trkpt><trkpt lat="45.9776217" lon="12.7423183"><ele>32.0</ele><time>2026-04-03T19:34:49.334Z</time></trkpt><trkpt lat="45.9775517" lon="12.742365"><ele>32.0</ele><time>2026-04-03T19:34:52.333Z</time></trkpt><trkpt lat="45.9774917" lon="12.74233"><ele>32.0</ele><time>2026-04-03T19:34:54.333Z</time></trkpt><trkpt lat="45.97742" lon="12.7422733"><ele>31.999999999999996</ele><time>2026-04-03T19:34:56.333Z</time></trkpt><trkpt lat="45.97734" lon="12.7421933"><ele>32.0</ele><time>2026-04-03T19:34:58.333Z</time></trkpt><trkpt lat="45.9772783" lon="12.7420883"><ele>32.0</ele><time>2026-04-03T19:35:00.333Z</time></trkpt><trkpt lat="45.977215" lon="12.7419917"><ele>32.0</ele><time>2026-04-03T19:35:02.333Z</time></trkpt><trkpt lat="45.9771317" lon="12.7419"><ele>32.0</ele><time>2026-04-03T19:35:04.333Z</time></trkpt><trkpt lat="45.9770333" lon="12.74187"><ele>32.0</ele><time>2026-04-03T19:35:06.333Z</time></trkpt><trkpt lat="45.9769433" lon="12.7418883"><ele>32.0</ele><time>2026-04-03T19:35:08.333Z</time></trkpt><trkpt lat="45.9768667" lon="12.7419067"><ele>31.999999999999996</ele><time>2026-04-03T19:35:10.333Z</time></trkpt><trkpt lat="45.9767933" lon="12.7418783"><ele>32.0</ele><time>2026-04-03T19:35:12.333Z</time></trkpt><trkpt lat="45.9767183" lon="12.7418183"><ele>32.0</ele><time>2026-04-03T19:35:14.333Z</time></trkpt><trkpt lat="45.97665" lon="12.741745"><ele>32.0</ele><time>2026-04-03T19:35:16.334Z</time></trkpt><trkpt lat="45.97659" lon="12.7416583"><ele>31.999999999999996</ele><time>2026-04-03T19:35:18.334Z</time></trkpt><trkpt lat="45.9765433" lon="12.7415567"><ele>32.0</ele><time>2026-04-03T19:35:20.333Z</time></trkpt><trkpt lat="45.97649" lon="12.7414533"><ele>31.6</ele><time>2026-04-03T19:35:22.333Z</time></trkpt><trkpt lat="45.9764383" lon="12.74133"><ele>31.200000000000003</ele><time>2026-04-03T19:35:24.333Z</time></trkpt><trkpt lat="45.976375" lon="12.7412"><ele>30.8</ele><time>2026-04-03T19:35:26.333Z</time></trkpt><trkpt lat="45.9763133" lon="12.7410783"><ele>30.4</ele><time>2026-04-03T19:35:28.333Z</time></trkpt><trkpt lat="45.9762467" lon="12.7409717"><ele>30.0</ele><time>2026-04-03T19:35:30.334Z</time></trkpt><trkpt lat="45.9761783" lon="12.74089"><ele>29.833333333333332</ele><time>2026-04-03T19:35:32.333Z</time></trkpt><trkpt lat="45.9761083" lon="12.74082"><ele>29.666666666666664</ele><time>2026-04-03T19:35:34.333Z</time></trkpt><trkpt lat="45.9760567" lon="12.7407517"><ele>29.5</ele><time>2026-04-03T19:35:36.333Z</time></trkpt><trkpt lat="45.9760017" lon="12.74066"><ele>29.333333333333332</ele><time>2026-04-03T19:35:38.333Z</time></trkpt><trkpt lat="45.9759683" lon="12.740555"><ele>29.166666666666664</ele><time>2026-04-03T19:35:40.333Z</time></trkpt><trkpt lat="45.9759283" lon="12.7404333"><ele>29.0</ele><time>2026-04-03T19:35:42.333Z</time></trkpt><trkpt lat="45.9758733" lon="12.7403117"><ele>29.0</ele><time>2026-04-03T19:35:44.333Z</time></trkpt><trkpt lat="45.9758267" lon="12.7402033"><ele>29.0</ele><time>2026-04-03T19:35:46.333Z</time></trkpt><trkpt lat="45.97577" lon="12.7400983"><ele>29.0</ele><time>2026-04-03T19:35:48.334Z</time></trkpt><trkpt lat="45.97572" lon="12.7399733"><ele>29.0</ele><time>2026-04-03T19:35:50.333Z</time></trkpt><trkpt lat="45.9756883" lon="12.739835"><ele>29.0</ele><time>2026-04-03T19:35:52.333Z</time></trkpt><trkpt lat="45.9756767" lon="12.7396717"><ele>29.0</ele><time>2026-04-03T19:35:54.333Z</time></trkpt><trkpt lat="45.9756567" lon="12.73952"><ele>29.0</ele><time>2026-04-03T19:35:56.333Z</time></trkpt><trkpt lat="45.9756283" lon="12.7393867"><ele>29.0</ele><time>2026-04-03T19:35:58.333Z</time></trkpt><trkpt lat="45.975595" lon="12.7392533"><ele>29.0</ele><time>2026-04-03T19:36:00.333Z</time></trkpt><trkpt lat="45.975565" lon="12.7391567"><ele>29.0</ele><time>2026-04-03T19:36:02.332Z</time></trkpt><trkpt lat="45.975535" lon="12.7390567"><ele>28.499999999999996</ele><time>2026-04-03T19:36:05.332Z</time></trkpt><trkpt lat="45.9755083" lon="12.7389467"><ele>28.0</ele><time>2026-04-03T19:36:08.332Z</time></trkpt><trkpt lat="45.97546" lon="12.7388867"><ele>27.5</ele><time>2026-04-03T19:36:11.332Z</time></trkpt><trkpt lat="45.97538" lon="12.73889"><ele>27.0</ele><time>2026-04-03T19:36:15.332Z</time></trkpt><trkpt lat="45.975315" lon="12.7388533"><ele>26.499999999999996</ele><time>2026-04-03T19:36:18.333Z</time></trkpt><trkpt lat="45.975245" lon="12.7388133"><ele>26.0</ele><time>2026-04-03T19:36:21.332Z</time></trkpt><trkpt lat="45.975185" lon="12.7387233"><ele>26.0</ele><time>2026-04-03T19:36:24.332Z</time></trkpt><trkpt lat="45.9751583" lon="12.7386033"><ele>26.0</ele><time>2026-04-03T19:36:27.332Z</time></trkpt><trkpt lat="45.975145" lon="12.7384617"><ele>26.0</ele><time>2026-04-03T19:36:29.332Z</time></trkpt><trkpt lat="45.97514" lon="12.73831"><ele>26.0</ele><time>2026-04-03T19:36:31.332Z</time></trkpt><trkpt lat="45.97512" lon="12.73816"><ele>26.0</ele><time>2026-04-03T19:36:33.332Z</time></trkpt><trkpt lat="45.9750917" lon="12.7380283"><ele>26.0</ele><time>2026-04-03T19:36:35.332Z</time></trkpt><trkpt lat="45.9750483" lon="12.737885"><ele>26.0</ele><time>2026-04-03T19:36:37.332Z</time></trkpt><trkpt lat="45.9750067" lon="12.7377333"><ele>26.0</ele><time>2026-04-03T19:36:39.332Z</time></trkpt><trkpt lat="45.9749583" lon="12.7375817"><ele>26.0</ele><time>2026-04-03T19:36:41.332Z</time></trkpt><trkpt lat="45.9749267" lon="12.7374367"><ele>26.0</ele><time>2026-04-03T19:36:43.332Z</time></trkpt><trkpt lat="45.9748983" lon="12.7372767"><ele>25.999999999999996</ele><time>2026-04-03T19:36:45.332Z</time></trkpt><trkpt lat="45.9748633" lon="12.7371283"><ele>26.0</ele><time>2026-04-03T19:36:47.332Z</time></trkpt><trkpt lat="45.97484" lon="12.7369983"><ele>26.0</ele><time>2026-04-03T19:36:49.332Z</time></trkpt><trkpt lat="45.9748083" lon="12.7369167"><ele>26.0</ele><time>2026-04-03T19:36:51.332Z</time></trkpt><trkpt lat="45.9747533" lon="12.7368533"><ele>25.999999999999996</ele><time>2026-04-03T19:36:55.332Z</time></trkpt><trkpt lat="45.9746783" lon="12.7367717"><ele>26.0</ele><time>2026-04-03T19:42:16.336Z</time></trkpt><trkpt lat="45.97461" lon="12.736855"><ele>26.0</ele><time>2026-04-03T19:43:11.336Z</time></trkpt><trkpt lat="45.97458" lon="12.736945"><ele>26.0</ele><time>2026-04-03T19:43:18.336Z</time></trkpt><trkpt lat="45.97452" lon="12.7370033"><ele>26.0</ele><time>2026-04-03T19:43:24.336Z</time></trkpt><trkpt lat="45.9744617" lon="12.737045"><ele>26.0</ele><time>2026-04-03T19:43:35.336Z</time></trkpt><trkpt lat="45.9744567" lon="12.7371517"><ele>26.0</ele><time>2026-04-03T19:43:44.337Z</time></trkpt><trkpt lat="45.9745067" lon="12.73724"><ele>26.0</ele><time>2026-04-03T19:43:49.336Z</time></trkpt><trkpt lat="45.9745317" lon="12.7373317"><ele>26.0</ele><time>2026-04-03T19:43:53.336Z</time></trkpt><trkpt lat="45.9745517" lon="12.7374217"><ele>26.0</ele><time>2026-04-03T19:43:56.336Z</time></trkpt><trkpt lat="45.974575" lon="12.7375183"><ele>26.0</ele><time>2026-04-03T19:44:00.336Z</time></trkpt><trkpt lat="45.9746233" lon="12.73761"><ele>26.0</ele><time>2026-04-03T19:44:04.336Z</time></trkpt><trkpt lat="45.974665" lon="12.737705"><ele>26.0</ele><time>2026-04-03T19:44:08.336Z</time></trkpt><trkpt lat="45.974705" lon="12.73779"><ele>26.0</ele><time>2026-04-03T19:44:13.336Z</time></trkpt><trkpt lat="45.974725" lon="12.7378817"><ele>26.0</ele><time>2026-04-03T19:44:18.336Z</time></trkpt><trkpt lat="45.9747467" lon="12.7379717"><ele>26.0</ele><time>2026-04-03T19:44:23.336Z</time></trkpt><trkpt lat="45.9747833" lon="12.7380567"><ele>26.0</ele><time>2026-04-03T19:44:27.336Z</time></trkpt><trkpt lat="45.9748217" lon="12.7381317"><ele>26.0</ele><time>2026-04-03T19:44:31.336Z</time></trkpt><trkpt lat="45.97483" lon="12.7382317"><ele>26.0</ele><time>2026-04-03T19:44:35.336Z</time></trkpt><trkpt lat="45.9748617" lon="12.7383117"><ele>26.0</ele><time>2026-04-03T19:44:38.336Z</time></trkpt><trkpt lat="45.9749" lon="12.73842"><ele>26.0</ele><time>2026-04-03T19:44:41.336Z</time></trkpt><trkpt lat="45.9749183" lon="12.7385117"><ele>26.0</ele><time>2026-04-03T19:44:43.336Z</time></trkpt><trkpt lat="45.9749117" lon="12.73864"><ele>26.0</ele><time>2026-04-03T19:44:46.336Z</time></trkpt><trkpt lat="45.9748817" lon="12.738725"><ele>26.166666666666664</ele><time>2026-04-03T19:44:48.336Z</time></trkpt><trkpt lat="45.9748233" lon="12.7387867"><ele>26.333333333333332</ele><time>2026-04-03T19:44:51.336Z</time></trkpt><trkpt lat="45.97475" lon="12.7388817"><ele>26.5</ele><time>2026-04-03T19:48:33.336Z</time></trkpt><trkpt lat="45.9747017" lon="12.738955"><ele>26.666666666666664</ele><time>2026-04-03T19:48:38.336Z</time></trkpt><trkpt lat="45.974645" lon="12.7390283"><ele>26.833333333333332</ele><time>2026-04-03T19:48:42.336Z</time></trkpt><trkpt lat="45.9745933" lon="12.7391"><ele>27.0</ele><time>2026-04-03T19:48:47.336Z</time></trkpt><trkpt lat="45.9745417" lon="12.73916"><ele>27.0</ele><time>2026-04-03T19:48:51.336Z</time></trkpt><trkpt lat="45.9744933" lon="12.7392233"><ele>27.0</ele><time>2026-04-03T19:48:55.336Z</time></trkpt><trkpt lat="45.97445" lon="12.73932"><ele>27.0</ele><time>2026-04-03T19:49:00.336Z</time></trkpt><trkpt lat="45.97442" lon="12.739405"><ele>27.0</ele><time>2026-04-03T19:49:03.336Z</time></trkpt><trkpt lat="45.9744283" lon="12.739505"><ele>27.0</ele><time>2026-04-03T19:49:06.336Z</time></trkpt><trkpt lat="45.9744617" lon="12.7396033"><ele>27.0</ele><time>2026-04-03T19:49:09.336Z</time></trkpt><trkpt lat="45.974505" lon="12.73969"><ele>27.0</ele><time>2026-04-03T19:49:12.336Z</time></trkpt><trkpt lat="45.9745417" lon="12.7397783"><ele>27.200000000000003</ele><time>2026-04-03T19:49:14.336Z</time></trkpt><trkpt lat="45.9745967" lon="12.73991"><ele>27.400000000000002</ele><time>2026-04-03T19:49:16.336Z</time></trkpt><trkpt lat="45.9746533" lon="12.74005"><ele>27.599999999999998</ele><time>2026-04-03T19:49:18.336Z</time></trkpt><trkpt lat="45.97471" lon="12.7401767"><ele>27.799999999999997</ele><time>2026-04-03T19:49:20.336Z</time></trkpt><trkpt lat="45.974765" lon="12.7402917"><ele>28.0</ele><time>2026-04-03T19:49:22.336Z</time></trkpt><trkpt lat="45.9748167" lon="12.7404"><ele>28.2</ele><time>2026-04-03T19:49:24.336Z</time></trkpt><trkpt lat="45.9748667" lon="12.74052"><ele>28.4</ele><time>2026-04-03T19:49:26.336Z</time></trkpt><trkpt lat="45.9749167" lon="12.7406533"><ele>28.599999999999998</ele><time>2026-04-03T19:49:28.336Z</time></trkpt><trkpt lat="45.9749617" lon="12.7407933"><ele>28.799999999999997</ele><time>2026-04-03T19:49:30.336Z</time></trkpt><trkpt lat="45.9750133" lon="12.7409583"><ele>29.0</ele><time>2026-04-03T19:49:32.336Z</time></trkpt><trkpt lat="45.9750383" lon="12.7410433"><ele>29.166666666666664</ele><time>2026-04-03T19:49:33.336Z</time></trkpt><trkpt lat="45.9750633" lon="12.7411317"><ele>29.333333333333332</ele><time>2026-04-03T19:49:34.336Z</time></trkpt><trkpt lat="45.9751017" lon="12.7412733"><ele>29.5</ele><time>2026-04-03T19:49:36.336Z</time></trkpt><trkpt lat="45.97511" lon="12.7413917"><ele>29.666666666666664</ele><time>2026-04-03T19:49:38.336Z</time></trkpt><trkpt lat="45.9751" lon="12.7414883"><ele>29.833333333333332</ele><time>2026-04-03T19:49:40.336Z</time></trkpt><trkpt lat="45.975065" lon="12.7416133"><ele>30.0</ele><time>2026-04-03T19:49:43.336Z</time></trkpt><trkpt lat="45.9750433" lon="12.7417083"><ele>29.857142857142858</ele><time>2026-04-03T19:49:47.336Z</time></trkpt><trkpt lat="45.9750133" lon="12.7417933"><ele>29.714285714285715</ele><time>2026-04-03T19:49:52.336Z</time></trkpt><trkpt lat="45.9749533" lon="12.7418467"><ele>29.571428571428573</ele><time>2026-04-03T19:49:58.336Z</time></trkpt><trkpt lat="45.974915" lon="12.741765"><ele>29.42857142857143</ele><time>2026-04-03T19:50:04.336Z</time></trkpt><trkpt lat="45.974905" lon="12.741655"><ele>29.285714285714285</ele><time>2026-04-03T19:50:10.336Z</time></trkpt><trkpt lat="45.97487" lon="12.7415767"><ele>29.142857142857146</ele><time>2026-04-03T19:50:14.336Z</time></trkpt><trkpt lat="45.974835" lon="12.741485"><ele>29.000000000000004</ele><time>2026-04-03T19:50:18.336Z</time></trkpt><trkpt lat="45.974805" lon="12.7413867"><ele>28.999999999999996</ele><time>2026-04-03T19:50:22.336Z</time></trkpt><trkpt lat="45.97479" lon="12.741285"><ele>29.0</ele><time>2026-04-03T19:50:26.336Z</time></trkpt><trkpt lat="45.9747533" lon="12.741185"><ele>29.0</ele><time>2026-04-03T19:50:30.336Z</time></trkpt><trkpt lat="45.9747117" lon="12.7410883"><ele>29.0</ele><time>2026-04-03T19:50:33.337Z</time></trkpt><trkpt lat="45.9746883" lon="12.7410033"><ele>28.999999999999996</ele><time>2026-04-03T19:50:35.336Z</time></trkpt><trkpt lat="45.9746717" lon="12.7409033"><ele>29.0</ele><time>2026-04-03T19:50:38.336Z</time></trkpt><trkpt lat="45.9745733" lon="12.7407333"><ele>29.0</ele><time>2026-04-03T19:52:03.336Z</time></trkpt><trkpt lat="45.97453" lon="12.740585"><ele>29.0</ele><time>2026-04-03T19:52:26.336Z</time></trkpt><trkpt lat="45.9744517" lon="12.7406883"><ele>29.0</ele><time>2026-04-03T19:52:53.336Z</time></trkpt><trkpt lat="45.974405" lon="12.74084"><ele>29.0</ele><time>2026-04-03T19:53:14.335Z</time></trkpt><trkpt lat="45.9743883" lon="12.7409283"><ele>29.0</ele><time>2026-04-03T19:53:24.336Z</time></trkpt><trkpt lat="45.97434" lon="12.740995"><ele>28.999999999999996</ele><time>2026-04-03T19:53:29.335Z</time></trkpt><trkpt lat="45.9742933" lon="12.7410767"><ele>29.0</ele><time>2026-04-03T19:53:35.335Z</time></trkpt><trkpt lat="45.974295" lon="12.7411867"><ele>29.0</ele><time>2026-04-03T19:55:31.335Z</time></trkpt><trkpt lat="45.974325" lon="12.7412917"><ele>29.0</ele><time>2026-04-03T19:55:34.335Z</time></trkpt><trkpt lat="45.9743633" lon="12.7414117"><ele>28.999999999999996</ele><time>2026-04-03T19:55:37.335Z</time></trkpt><trkpt lat="45.9743967" lon="12.7415033"><ele>29.0</ele><time>2026-04-03T19:55:42.335Z</time></trkpt><trkpt lat="45.9744283" lon="12.7415967"><ele>29.0</ele><time>2026-04-03T19:55:46.335Z</time></trkpt><trkpt lat="45.9744283" lon="12.7417083"><ele>29.0</ele><time>2026-04-03T19:55:51.335Z</time></trkpt><trkpt lat="45.9743633" lon="12.7417983"><ele>29.0</ele><time>2026-04-03T19:55:55.335Z</time></trkpt><trkpt lat="45.9742883" lon="12.7418033"><ele>29.0</ele><time>2026-04-03T19:55:57.335Z</time></trkpt><trkpt lat="45.9741983" lon="12.7417617"><ele>29.0</ele><time>2026-04-03T19:55:59.335Z</time></trkpt><trkpt lat="45.9740783" lon="12.7417167"><ele>28.666666666666664</ele><time>2026-04-03T19:56:01.335Z</time></trkpt><trkpt lat="45.9740167" lon="12.7416817"><ele>28.333333333333332</ele><time>2026-04-03T19:56:02.335Z</time></trkpt><trkpt lat="45.9739533" lon="12.741635"><ele>28.0</ele><time>2026-04-03T19:56:03.336Z</time></trkpt><trkpt lat="45.9738933" lon="12.74158"><ele>27.666666666666664</ele><time>2026-04-03T19:56:04.335Z</time></trkpt><trkpt lat="45.9737817" lon="12.74148"><ele>27.333333333333332</ele><time>2026-04-03T19:56:06.335Z</time></trkpt><trkpt lat="45.9737233" lon="12.7414317"><ele>27.0</ele><time>2026-04-03T19:56:07.335Z</time></trkpt><trkpt lat="45.973625" lon="12.74134"><ele>27.0</ele><time>2026-04-03T19:56:09.335Z</time></trkpt><trkpt lat="45.9735483" lon="12.7412333"><ele>27.0</ele><time>2026-04-03T19:56:11.335Z</time></trkpt><trkpt lat="45.973505" lon="12.7411517"><ele>27.0</ele><time>2026-04-03T19:56:13.335Z</time></trkpt><trkpt lat="45.973465" lon="12.74105"><ele>27.0</ele><time>2026-04-03T19:56:16.335Z</time></trkpt><trkpt lat="45.9734217" lon="12.740925"><ele>27.0</ele><time>2026-04-03T19:56:19.335Z</time></trkpt><trkpt lat="45.9733717" lon="12.7408267"><ele>27.0</ele><time>2026-04-03T19:56:22.335Z</time></trkpt><trkpt lat="45.97333" lon="12.74072"><ele>26.833333333333332</ele><time>2026-04-03T19:56:25.335Z</time></trkpt><trkpt lat="45.97329" lon="12.7406117"><ele>26.666666666666664</ele><time>2026-04-03T19:56:27.335Z</time></trkpt><trkpt lat="45.97323" lon="12.7404533"><ele>26.5</ele><time>2026-04-03T19:56:29.335Z</time></trkpt><trkpt lat="45.97319" lon="12.7403733"><ele>26.333333333333332</ele><time>2026-04-03T19:56:30.335Z</time></trkpt><trkpt lat="45.9731517" lon="12.7402917"><ele>26.166666666666664</ele><time>2026-04-03T19:56:31.335Z</time></trkpt><trkpt lat="45.97311" lon="12.7402017"><ele>26.0</ele><time>2026-04-03T19:56:32.335Z</time></trkpt><trkpt lat="45.9730633" lon="12.7401017"><ele>25.999999999999996</ele><time>2026-04-03T19:56:33.335Z</time></trkpt><trkpt lat="45.9730117" lon="12.739995"><ele>26.0</ele><time>2026-04-03T19:56:34.335Z</time></trkpt><trkpt lat="45.972965" lon="12.7398917"><ele>26.0</ele><time>2026-04-03T19:56:35.335Z</time></trkpt><trkpt lat="45.9729233" lon="12.7397917"><ele>26.0</ele><time>2026-04-03T19:56:36.335Z</time></trkpt><trkpt lat="45.9728833" lon="12.7397"><ele>25.999999999999996</ele><time>2026-04-03T19:56:37.335Z</time></trkpt><trkpt lat="45.972845" lon="12.7396183"><ele>26.0</ele><time>2026-04-03T19:56:38.335Z</time></trkpt><trkpt lat="45.9727933" lon="12.73954"><ele>25.999999999999996</ele><time>2026-04-03T19:56:39.335Z</time></trkpt><trkpt lat="45.97275" lon="12.739465"><ele>26.0</ele><time>2026-04-03T19:56:40.335Z</time></trkpt><trkpt lat="45.9727117" lon="12.7393833"><ele>26.0</ele><time>2026-04-03T19:56:41.335Z</time></trkpt><trkpt lat="45.9726867" lon="12.7392417"><ele>26.0</ele><time>2026-04-03T19:56:43.335Z</time></trkpt><trkpt lat="45.97268" lon="12.7391"><ele>25.999999999999996</ele><time>2026-04-03T19:56:45.335Z</time></trkpt><trkpt lat="45.9726583" lon="12.73899"><ele>26.0</ele><time>2026-04-03T19:56:47.335Z</time></trkpt><trkpt lat="45.9726433" lon="12.7388983"><ele>26.166666666666664</ele><time>2026-04-03T19:56:50.335Z</time></trkpt><trkpt lat="45.9726133" lon="12.738775"><ele>26.333333333333332</ele><time>2026-04-03T19:56:53.335Z</time></trkpt><trkpt lat="45.9725867" lon="12.73866"><ele>26.5</ele><time>2026-04-03T19:56:55.335Z</time></trkpt><trkpt lat="45.97256" lon="12.7385667"><ele>26.666666666666664</ele><time>2026-04-03T19:56:57.335Z</time></trkpt><trkpt lat="45.9725333" lon="12.7384717"><ele>26.833333333333332</ele><time>2026-04-03T19:56:59.335Z</time></trkpt><trkpt lat="45.9725117" lon="12.7383767"><ele>27.0</ele><time>2026-04-03T19:57:01.335Z</time></trkpt><trkpt lat="45.97249" lon="12.7382783"><ele>26.714285714285715</ele><time>2026-04-03T19:57:03.335Z</time></trkpt><trkpt lat="45.97246" lon="12.7381983"><ele>26.428571428571427</ele><time>2026-04-03T19:57:05.335Z</time></trkpt><trkpt lat="45.9724033" lon="12.7381133"><ele>26.142857142857146</ele><time>2026-04-03T19:57:08.335Z</time></trkpt><trkpt lat="45.97234" lon="12.7380633"><ele>25.857142857142858</ele><time>2026-04-03T19:57:12.335Z</time></trkpt><trkpt lat="45.97227" lon="12.7380417"><ele>25.571428571428573</ele><time>2026-04-03T19:57:16.335Z</time></trkpt><trkpt lat="45.9722033" lon="12.738035"><ele>25.28571428571429</ele><time>2026-04-03T19:57:19.335Z</time></trkpt><trkpt lat="45.9721183" lon="12.738"><ele>25.0</ele><time>2026-04-03T19:57:22.335Z</time></trkpt><trkpt lat="45.972045" lon="12.737965"><ele>25.000000000000004</ele><time>2026-04-03T19:57:24.335Z</time></trkpt><trkpt lat="45.9719733" lon="12.73791"><ele>25.0</ele><time>2026-04-03T19:57:26.335Z</time></trkpt><trkpt lat="45.9719267" lon="12.7378033"><ele>25.0</ele><time>2026-04-03T19:57:28.336Z</time></trkpt><trkpt lat="45.971885" lon="12.73769"><ele>25.0</ele><time>2026-04-03T19:57:30.335Z</time></trkpt><trkpt lat="45.9718483" lon="12.7375767"><ele>25.000000000000004</ele><time>2026-04-03T19:57:32.335Z</time></trkpt><trkpt lat="45.9718083" lon="12.7374633"><ele>25.0</ele><time>2026-04-03T19:57:34.335Z</time></trkpt><trkpt lat="45.971785" lon="12.737355"><ele>25.000000000000004</ele><time>2026-04-03T19:57:36.335Z</time></trkpt><trkpt lat="45.971765" lon="12.7372667"><ele>25.0</ele><time>2026-04-03T19:57:38.335Z</time></trkpt><trkpt lat="45.971735" lon="12.7371617"><ele>25.0</ele><time>2026-04-03T19:57:40.335Z</time></trkpt><trkpt lat="45.971685" lon="12.7370533"><ele>25.0</ele><time>2026-04-03T19:57:42.335Z</time></trkpt><trkpt lat="45.9716167" lon="12.7369783"><ele>25.000000000000004</ele><time>2026-04-03T19:57:44.335Z</time></trkpt><trkpt lat="45.97156" lon="12.7369133"><ele>25.0</ele><time>2026-04-03T19:57:46.335Z</time></trkpt><trkpt lat="45.9715033" lon="12.7368417"><ele>25.000000000000004</ele><time>2026-04-03T19:57:48.335Z</time></trkpt><trkpt lat="45.97146" lon="12.7367617"><ele>25.0</ele><time>2026-04-03T19:57:50.335Z</time></trkpt><trkpt lat="45.9713767" lon="12.7366983"><ele>25.0</ele><time>2026-04-03T19:59:19.335Z</time></trkpt><trkpt lat="45.971345" lon="12.7367817"><ele>25.0</ele><time>2026-04-03T19:59:23.335Z</time></trkpt><trkpt lat="45.9713817" lon="12.7368617"><ele>25.0</ele><time>2026-04-03T19:59:26.335Z</time></trkpt><trkpt lat="45.971425" lon="12.7369383"><ele>25.000000000000004</ele><time>2026-04-03T19:59:29.335Z</time></trkpt><trkpt lat="45.971455" lon="12.737025"><ele>25.0</ele><time>2026-04-03T19:59:33.335Z</time></trkpt><trkpt lat="45.9714517" lon="12.737125"><ele>25.333333333333336</ele><time>2026-04-03T19:59:37.335Z</time></trkpt><trkpt lat="45.9714383" lon="12.7372283"><ele>25.666666666666668</ele><time>2026-04-03T19:59:42.335Z</time></trkpt><trkpt lat="45.9714433" lon="12.737325"><ele>26.0</ele><time>2026-04-03T19:59:47.335Z</time></trkpt><trkpt lat="45.9714633" lon="12.737415"><ele>26.333333333333336</ele><time>2026-04-03T19:59:50.335Z</time></trkpt><trkpt lat="45.971475" lon="12.7375767"><ele>26.666666666666668</ele><time>2026-04-03T20:01:44.346Z</time></trkpt><trkpt lat="45.9714733" lon="12.7376867"><ele>27.0</ele><time>2026-04-03T20:01:48.346Z</time></trkpt><trkpt lat="45.97148" lon="12.7377967"><ele>27.142857142857142</ele><time>2026-04-03T20:01:51.346Z</time></trkpt><trkpt lat="45.9714533" lon="12.7379083"><ele>27.285714285714285</ele><time>2026-04-03T20:01:54.346Z</time></trkpt><trkpt lat="45.9714083" lon="12.73799"><ele>27.42857142857143</ele><time>2026-04-03T20:01:57.346Z</time></trkpt><trkpt lat="45.97136" lon="12.7380533"><ele>27.57142857142857</ele><time>2026-04-03T20:02:00.346Z</time></trkpt><trkpt lat="45.9713067" lon="12.7381167"><ele>27.714285714285715</ele><time>2026-04-03T20:02:03.346Z</time></trkpt><trkpt lat="45.9712533" lon="12.7381867"><ele>27.857142857142858</ele><time>2026-04-03T20:02:06.346Z</time></trkpt><trkpt lat="45.97119" lon="12.7382267"><ele>28.0</ele><time>2026-04-03T20:02:10.346Z</time></trkpt><trkpt lat="45.9711367" lon="12.738175"><ele>28.0</ele><time>2026-04-03T20:02:15.346Z</time></trkpt><trkpt lat="45.9711" lon="12.7380833"><ele>28.0</ele><time>2026-04-03T20:02:19.346Z</time></trkpt><trkpt lat="45.9710533" lon="12.7379967"><ele>28.0</ele><time>2026-04-03T20:02:23.346Z</time></trkpt><trkpt lat="45.971005" lon="12.7379383"><ele>28.0</ele><time>2026-04-03T20:02:30.346Z</time></trkpt><trkpt lat="45.9709333" lon="12.737915"><ele>28.0</ele><time>2026-04-03T20:02:37.346Z</time></trkpt><trkpt lat="45.97087" lon="12.7378717"><ele>28.0</ele><time>2026-04-03T20:02:43.346Z</time></trkpt><trkpt lat="45.9708717" lon="12.73778"><ele>28.0</ele><time>2026-04-03T20:02:48.346Z</time></trkpt><trkpt lat="45.9708233" lon="12.7377083"><ele>27.857142857142858</ele><time>2026-04-03T20:02:58.346Z</time></trkpt><trkpt lat="45.970755" lon="12.73767"><ele>27.714285714285715</ele><time>2026-04-03T20:03:03.347Z</time></trkpt><trkpt lat="45.9706917" lon="12.7376033"><ele>27.57142857142857</ele><time>2026-04-03T20:03:08.346Z</time></trkpt><trkpt lat="45.97063" lon="12.7375617"><ele>27.42857142857143</ele><time>2026-04-03T20:03:12.346Z</time></trkpt><trkpt lat="45.970565" lon="12.737525"><ele>27.285714285714285</ele><time>2026-04-03T20:03:16.346Z</time></trkpt><trkpt lat="45.9704933" lon="12.7374883"><ele>27.142857142857142</ele><time>2026-04-03T20:03:20.346Z</time></trkpt><trkpt lat="45.9704267" lon="12.73744"><ele>27.0</ele><time>2026-04-03T20:03:24.345Z</time></trkpt><trkpt lat="45.9703683" lon="12.7373983"><ele>27.0</ele><time>2026-04-03T20:03:28.345Z</time></trkpt><trkpt lat="45.9703033" lon="12.7373333"><ele>27.0</ele><time>2026-04-03T20:03:32.345Z</time></trkpt><trkpt lat="45.9702717" lon="12.737245"><ele>27.0</ele><time>2026-04-03T20:03:37.345Z</time></trkpt><trkpt lat="45.9702417" lon="12.7371633"><ele>27.0</ele><time>2026-04-03T20:03:40.345Z</time></trkpt><trkpt lat="45.9702" lon="12.7370917"><ele>27.0</ele><time>2026-04-03T20:03:43.345Z</time></trkpt><trkpt lat="45.9701583" lon="12.7370133"><ele>27.0</ele><time>2026-04-03T20:03:46.345Z</time></trkpt><trkpt lat="45.9701133" lon="12.736925"><ele>27.0</ele><time>2026-04-03T20:03:49.345Z</time></trkpt><trkpt lat="45.970135" lon="12.73683"><ele>26.833333333333332</ele><time>2026-04-03T20:03:55.345Z</time></trkpt><trkpt lat="45.9701817" lon="12.7367667"><ele>26.666666666666664</ele><time>2026-04-03T20:04:00.345Z</time></trkpt><trkpt lat="45.970215" lon="12.7366283"><ele>26.5</ele><time>2026-04-03T20:06:03.345Z</time></trkpt><trkpt lat="45.9702617" lon="12.736535"><ele>26.333333333333332</ele><time>2026-04-03T20:06:07.345Z</time></trkpt><trkpt lat="45.9703067" lon="12.7364367"><ele>26.166666666666664</ele><time>2026-04-03T20:06:11.345Z</time></trkpt><trkpt lat="45.9703483" lon="12.7363517"><ele>26.0</ele><time>2026-04-03T20:06:14.345Z</time></trkpt><trkpt lat="45.9703883" lon="12.73625"><ele>26.0</ele><time>2026-04-03T20:06:18.345Z</time></trkpt><trkpt lat="45.9704233" lon="12.7361717"><ele>26.0</ele><time>2026-04-03T20:06:21.345Z</time></trkpt><trkpt lat="45.9704217" lon="12.7360533"><ele>26.0</ele><time>2026-04-03T20:06:26.345Z</time></trkpt><trkpt lat="45.9704383" lon="12.7359617"><ele>26.0</ele><time>2026-04-03T20:06:29.345Z</time></trkpt><trkpt lat="45.9704533" lon="12.7358717"><ele>26.0</ele><time>2026-04-03T20:06:32.345Z</time></trkpt><trkpt lat="45.970505" lon="12.735815"><ele>26.0</ele><time>2026-04-03T20:06:37.345Z</time></trkpt><trkpt lat="45.9705817" lon="12.735825"><ele>26.0</ele><time>2026-04-03T20:06:41.345Z</time></trkpt><trkpt lat="45.9706483" lon="12.7358483"><ele>25.999999999999996</ele><time>2026-04-03T20:06:44.345Z</time></trkpt><trkpt lat="45.97072" lon="12.7358833"><ele>26.0</ele><time>2026-04-03T20:06:47.345Z</time></trkpt><trkpt lat="45.9707783" lon="12.7359367"><ele>26.0</ele><time>2026-04-03T20:06:50.345Z</time></trkpt><trkpt lat="45.970835" lon="12.7360183"><ele>26.0</ele><time>2026-04-03T20:06:54.345Z</time></trkpt><trkpt lat="45.970875" lon="12.7360917"><ele>25.999999999999996</ele><time>2026-04-03T20:06:57.345Z</time></trkpt><trkpt lat="45.97093" lon="12.7361833"><ele>26.0</ele><time>2026-04-03T20:07:01.345Z</time></trkpt><trkpt lat="45.9709783" lon="12.7362767"><ele>25.833333333333332</ele><time>2026-04-03T20:07:04.345Z</time></trkpt><trkpt lat="45.9710333" lon="12.7363333"><ele>25.666666666666664</ele><time>2026-04-03T20:07:07.345Z</time></trkpt><trkpt lat="45.971105" lon="12.7363417"><ele>25.5</ele><time>2026-04-03T20:07:10.345Z</time></trkpt><trkpt lat="45.9711583" lon="12.73628"><ele>25.333333333333336</ele><time>2026-04-03T20:07:12.345Z</time></trkpt><trkpt lat="45.97119" lon="12.7361717"><ele>25.166666666666668</ele><time>2026-04-03T20:07:14.346Z</time></trkpt><trkpt lat="45.97121" lon="12.7360367"><ele>25.0</ele><time>2026-04-03T20:07:16.345Z</time></trkpt><trkpt lat="45.971225" lon="12.7359333"><ele>24.857142857142858</ele><time>2026-04-03T20:07:19.345Z</time></trkpt><trkpt lat="45.971235" lon="12.7358433"><ele>24.714285714285715</ele><time>2026-04-03T20:07:34.345Z</time></trkpt><trkpt lat="45.971245" lon="12.7357467"><ele>24.57142857142857</ele><time>2026-04-03T20:07:38.346Z</time></trkpt><trkpt lat="45.9712833" lon="12.7356433"><ele>24.42857142857143</ele><time>2026-04-03T20:07:42.345Z</time></trkpt><trkpt lat="45.9713283" lon="12.7355367"><ele>24.285714285714285</ele><time>2026-04-03T20:07:45.345Z</time></trkpt><trkpt lat="45.97137" lon="12.7354517"><ele>24.142857142857142</ele><time>2026-04-03T20:07:48.345Z</time></trkpt><trkpt lat="45.9713783" lon="12.7353583"><ele>24.0</ele><time>2026-04-03T20:07:51.345Z</time></trkpt><trkpt lat="45.97138" lon="12.7352667"><ele>24.166666666666668</ele><time>2026-04-03T20:07:53.346Z</time></trkpt><trkpt lat="45.9713817" lon="12.73516"><ele>24.333333333333336</ele><time>2026-04-03T20:07:55.345Z</time></trkpt><trkpt lat="45.971385" lon="12.73504"><ele>24.5</ele><time>2026-04-03T20:07:57.345Z</time></trkpt><trkpt lat="45.9713833" lon="12.7349183"><ele>24.666666666666668</ele><time>2026-04-03T20:07:59.345Z</time></trkpt><trkpt lat="45.97138" lon="12.73481"><ele>24.833333333333336</ele><time>2026-04-03T20:08:01.345Z</time></trkpt><trkpt lat="45.9713717" lon="12.7346933"><ele>25.0</ele><time>2026-04-03T20:08:03.345Z</time></trkpt><trkpt lat="45.97136" lon="12.7345733"><ele>25.000000000000004</ele><time>2026-04-03T20:08:05.345Z</time></trkpt><trkpt lat="45.971345" lon="12.7344633"><ele>25.0</ele><time>2026-04-03T20:08:07.345Z</time></trkpt><trkpt lat="45.971325" lon="12.7343533"><ele>25.0</ele><time>2026-04-03T20:08:09.345Z</time></trkpt><trkpt lat="45.97131" lon="12.73426"><ele>25.0</ele><time>2026-04-03T20:08:11.345Z</time></trkpt><trkpt lat="45.97129" lon="12.7341567"><ele>25.0</ele><time>2026-04-03T20:08:14.345Z</time></trkpt><trkpt lat="45.971265" lon="12.7340667"><ele>25.000000000000004</ele><time>2026-04-03T20:08:16.345Z</time></trkpt><trkpt lat="45.97123" lon="12.7339833"><ele>25.0</ele><time>2026-04-03T20:08:18.345Z</time></trkpt><trkpt lat="45.971175" lon="12.7338833"><ele>25.000000000000004</ele><time>2026-04-03T20:08:21.345Z</time></trkpt><trkpt lat="45.9711167" lon="12.7338133"><ele>25.0</ele><time>2026-04-03T20:08:25.345Z</time></trkpt><trkpt lat="45.9710583" lon="12.73374"><ele>25.0</ele><time>2026-04-03T20:08:30.345Z</time></trkpt><trkpt lat="45.971005" lon="12.7336533"><ele>25.0</ele><time>2026-04-03T20:08:36.345Z</time></trkpt><trkpt lat="45.9709533" lon="12.733575"><ele>25.000000000000004</ele><time>2026-04-03T20:08:38.346Z</time></trkpt><trkpt lat="45.9708767" lon="12.73346"><ele>25.0</ele><time>2026-04-03T20:08:40.345Z</time></trkpt><trkpt lat="45.97083" lon="12.7333983"><ele>25.0</ele><time>2026-04-03T20:08:41.345Z</time></trkpt><trkpt lat="45.97075" lon="12.7332883"><ele>25.0</ele><time>2026-04-03T20:08:43.345Z</time></trkpt><trkpt lat="45.9706767" lon="12.7332"><ele>25.0</ele><time>2026-04-03T20:08:45.346Z</time></trkpt><trkpt lat="45.9705833" lon="12.7331383"><ele>25.0</ele><time>2026-04-03T20:08:47.345Z</time></trkpt><trkpt lat="45.9704717" lon="12.733085"><ele>25.0</ele><time>2026-04-03T20:08:49.345Z</time></trkpt><trkpt lat="45.97036" lon="12.7330283"><ele>25.0</ele><time>2026-04-03T20:08:51.345Z</time></trkpt><trkpt lat="45.9702583" lon="12.7329367"><ele>25.0</ele><time>2026-04-03T20:08:53.345Z</time></trkpt><trkpt lat="45.9701783" lon="12.73282"><ele>25.0</ele><time>2026-04-03T20:08:55.345Z</time></trkpt><trkpt lat="45.970125" lon="12.7326983"><ele>25.0</ele><time>2026-04-03T20:08:57.345Z</time></trkpt><trkpt lat="45.9700817" lon="12.7325733"><ele>25.0</ele><time>2026-04-03T20:08:59.345Z</time></trkpt><trkpt lat="45.9700483" lon="12.7324317"><ele>24.8</ele><time>2026-04-03T20:09:01.345Z</time></trkpt><trkpt lat="45.9700083" lon="12.7322783"><ele>24.6</ele><time>2026-04-03T20:09:03.345Z</time></trkpt><trkpt lat="45.9699717" lon="12.732135"><ele>24.4</ele><time>2026-04-03T20:09:05.345Z</time></trkpt><trkpt lat="45.969945" lon="12.7320067"><ele>24.2</ele><time>2026-04-03T20:09:07.345Z</time></trkpt><trkpt lat="45.9699167" lon="12.7319067"><ele>24.0</ele><time>2026-04-03T20:09:09.345Z</time></trkpt><trkpt lat="45.9698883" lon="12.73179"><ele>23.666666666666668</ele><time>2026-04-03T20:09:12.346Z</time></trkpt><trkpt lat="45.9698867" lon="12.7316917"><ele>23.333333333333332</ele><time>2026-04-03T20:09:15.345Z</time></trkpt><trkpt lat="45.96989" lon="12.731585"><ele>23.0</ele><time>2026-04-03T20:09:18.345Z</time></trkpt><trkpt lat="45.9698667" lon="12.73148"><ele>22.666666666666664</ele><time>2026-04-03T20:16:18.344Z</time></trkpt><trkpt lat="45.9698283" lon="12.7313483"><ele>22.333333333333332</ele><time>2026-04-03T20:16:21.344Z</time></trkpt><trkpt lat="45.9698133" lon="12.7312283"><ele>22.0</ele><time>2026-04-03T20:16:23.344Z</time></trkpt><trkpt lat="45.9698133" lon="12.7310983"><ele>22.0</ele><time>2026-04-03T20:16:25.344Z</time></trkpt><trkpt lat="45.9698117" lon="12.7309683"><ele>22.0</ele><time>2026-04-03T20:16:27.345Z</time></trkpt><trkpt lat="45.96979" lon="12.7308617"><ele>22.0</ele><time>2026-04-03T20:16:29.345Z</time></trkpt><trkpt lat="45.9697817" lon="12.7307567"><ele>22.0</ele><time>2026-04-03T20:16:31.344Z</time></trkpt><trkpt lat="45.96978" lon="12.7306433"><ele>22.0</ele><time>2026-04-03T20:16:34.344Z</time></trkpt><trkpt lat="45.96976" lon="12.7305533"><ele>22.0</ele><time>2026-04-03T20:16:36.344Z</time></trkpt><trkpt lat="45.969785" lon="12.7304583"><ele>22.0</ele><time>2026-04-03T20:16:39.344Z</time></trkpt><trkpt lat="45.9698817" lon="12.73046"><ele>22.0</ele><time>2026-04-03T20:16:42.344Z</time></trkpt><trkpt lat="45.9699433" lon="12.7304933"><ele>22.0</ele><time>2026-04-03T20:16:44.344Z</time></trkpt><trkpt lat="45.9700217" lon="12.7305683"><ele>22.0</ele><time>2026-04-03T20:16:47.344Z</time></trkpt><trkpt lat="45.9700833" lon="12.7306367"><ele>22.0</ele><time>2026-04-03T20:16:50.344Z</time></trkpt><trkpt lat="45.97014" lon="12.7307033"><ele>22.0</ele><time>2026-04-03T20:16:53.344Z</time></trkpt><trkpt lat="45.9701983" lon="12.730765"><ele>22.200000000000003</ele><time>2026-04-03T20:16:55.344Z</time></trkpt><trkpt lat="45.9702683" lon="12.7308367"><ele>22.4</ele><time>2026-04-03T20:16:57.344Z</time></trkpt><trkpt lat="45.970335" lon="12.7309117"><ele>22.6</ele><time>2026-04-03T20:16:59.344Z</time></trkpt><trkpt lat="45.9704067" lon="12.7309933"><ele>22.799999999999997</ele><time>2026-04-03T20:17:01.344Z</time></trkpt><trkpt lat="45.9704783" lon="12.7311033"><ele>23.0</ele><time>2026-04-03T20:17:03.344Z</time></trkpt><trkpt lat="45.9705567" lon="12.73122"><ele>23.0</ele><time>2026-04-03T20:17:05.344Z</time></trkpt><trkpt lat="45.9706217" lon="12.7313367"><ele>23.0</ele><time>2026-04-03T20:17:07.344Z</time></trkpt><trkpt lat="45.9706983" lon="12.7314483"><ele>23.0</ele><time>2026-04-03T20:17:09.344Z</time></trkpt><trkpt lat="45.9707717" lon="12.7315767"><ele>23.0</ele><time>2026-04-03T20:17:11.344Z</time></trkpt><trkpt lat="45.9708383" lon="12.7316933"><ele>23.0</ele><time>2026-04-03T20:17:13.344Z</time></trkpt><trkpt lat="45.970885" lon="12.73179"><ele>23.0</ele><time>2026-04-03T20:17:15.344Z</time></trkpt><trkpt lat="45.9709283" lon="12.731875"><ele>23.0</ele><time>2026-04-03T20:17:17.344Z</time></trkpt><trkpt lat="45.9709717" lon="12.731975"><ele>23.0</ele><time>2026-04-03T20:17:19.344Z</time></trkpt><trkpt lat="45.9710233" lon="12.73207"><ele>23.0</ele><time>2026-04-03T20:17:21.344Z</time></trkpt><trkpt lat="45.9710733" lon="12.7321583"><ele>23.0</ele><time>2026-04-03T20:17:23.344Z</time></trkpt><trkpt lat="45.9711117" lon="12.7322383"><ele>23.0</ele><time>2026-04-03T20:17:25.344Z</time></trkpt><trkpt lat="45.9711583" lon="12.732335"><ele>23.0</ele><time>2026-04-03T20:17:35.344Z</time></trkpt><trkpt lat="45.9711883" lon="12.73242"><ele>23.0</ele><time>2026-04-03T20:17:39.344Z</time></trkpt><trkpt lat="45.971235" lon="12.73251"><ele>23.0</ele><time>2026-04-03T20:17:43.344Z</time></trkpt><trkpt lat="45.97128" lon="12.7325917"><ele>23.0</ele><time>2026-04-03T20:17:46.344Z</time></trkpt><trkpt lat="45.9713367" lon="12.7326933"><ele>23.0</ele><time>2026-04-03T20:17:49.344Z</time></trkpt><trkpt lat="45.9714033" lon="12.7327417"><ele>23.0</ele><time>2026-04-03T20:17:52.345Z</time></trkpt><trkpt lat="45.97147" lon="12.7327833"><ele>23.0</ele><time>2026-04-03T20:17:54.344Z</time></trkpt><trkpt lat="45.971535" lon="12.7328467"><ele>23.0</ele><time>2026-04-03T20:17:56.344Z</time></trkpt><trkpt lat="45.9716067" lon="12.7329"><ele>23.0</ele><time>2026-04-03T20:17:58.344Z</time></trkpt><trkpt lat="45.9716883" lon="12.7329583"><ele>23.0</ele><time>2026-04-03T20:18:01.344Z</time></trkpt><trkpt lat="45.9717667" lon="12.7330233"><ele>23.0</ele><time>2026-04-03T20:18:04.344Z</time></trkpt><trkpt lat="45.9718467" lon="12.733075"><ele>23.0</ele><time>2026-04-03T20:18:07.344Z</time></trkpt><trkpt lat="45.97191" lon="12.7331367"><ele>23.166666666666668</ele><time>2026-04-03T20:18:10.344Z</time></trkpt><trkpt lat="45.9719733" lon="12.7332133"><ele>23.333333333333336</ele><time>2026-04-03T20:18:13.344Z</time></trkpt><trkpt lat="45.9720133" lon="12.7332983"><ele>23.5</ele><time>2026-04-03T20:18:16.344Z</time></trkpt><trkpt lat="45.9720533" lon="12.73338"><ele>23.666666666666668</ele><time>2026-04-03T20:21:12.344Z</time></trkpt><trkpt lat="45.9720917" lon="12.7334983"><ele>23.833333333333332</ele><time>2026-04-03T20:21:14.344Z</time></trkpt><trkpt lat="45.9721183" lon="12.7336467"><ele>24.0</ele><time>2026-04-03T20:21:16.344Z</time></trkpt><trkpt lat="45.9721283" lon="12.7337917"><ele>24.0</ele><time>2026-04-03T20:21:18.344Z</time></trkpt><trkpt lat="45.972145" lon="12.7338967"><ele>24.0</ele><time>2026-04-03T20:21:20.345Z</time></trkpt><trkpt lat="45.9722117" lon="12.7339833"><ele>24.0</ele><time>2026-04-03T20:21:23.345Z</time></trkpt><trkpt lat="45.9723017" lon="12.7340033"><ele>24.0</ele><time>2026-04-03T20:21:26.344Z</time></trkpt><trkpt lat="45.9723733" lon="12.734055"><ele>24.0</ele><time>2026-04-03T20:21:29.344Z</time></trkpt><trkpt lat="45.97245" lon="12.734095"><ele>24.0</ele><time>2026-04-03T20:21:32.344Z</time></trkpt><trkpt lat="45.9725267" lon="12.7341333"><ele>24.0</ele><time>2026-04-03T20:21:35.344Z</time></trkpt><trkpt lat="45.9726117" lon="12.7341617"><ele>24.0</ele><time>2026-04-03T20:21:38.345Z</time></trkpt><trkpt lat="45.9726917" lon="12.7342117"><ele>24.0</ele><time>2026-04-03T20:21:41.344Z</time></trkpt><trkpt lat="45.9727517" lon="12.734275"><ele>24.0</ele><time>2026-04-03T20:21:44.344Z</time></trkpt><trkpt lat="45.972795" lon="12.7343417"><ele>24.0</ele><time>2026-04-03T20:21:46.344Z</time></trkpt><trkpt lat="45.9728617" lon="12.7344067"><ele>24.0</ele><time>2026-04-03T20:21:49.344Z</time></trkpt><trkpt lat="45.9729317" lon="12.73444"><ele>23.999999999999996</ele><time>2026-04-03T20:21:52.344Z</time></trkpt><trkpt lat="45.973" lon="12.7344783"><ele>24.0</ele><time>2026-04-03T20:21:54.344Z</time></trkpt><trkpt lat="45.9730667" lon="12.7345267"><ele>24.0</ele><time>2026-04-03T20:22:11.344Z</time></trkpt><trkpt lat="45.973115" lon="12.7344667"><ele>24.0</ele><time>2026-04-03T20:22:17.344Z</time></trkpt><trkpt lat="45.97313" lon="12.7343767"><ele>24.0</ele><time>2026-04-03T20:22:25.343Z</time></trkpt><trkpt lat="45.973145" lon="12.734285"><ele>23.999999999999996</ele><time>2026-04-03T20:22:29.343Z</time></trkpt><trkpt lat="45.9731633" lon="12.7341683"><ele>24.0</ele><time>2026-04-03T20:22:33.343Z</time></trkpt><trkpt lat="45.973175" lon="12.7340533"><ele>24.0</ele><time>2026-04-03T20:22:37.343Z</time></trkpt><trkpt lat="45.9731983" lon="12.7339533"><ele>24.0</ele><time>2026-04-03T20:22:41.343Z</time></trkpt><trkpt lat="45.9732117" lon="12.7338583"><ele>24.0</ele><time>2026-04-03T20:22:46.343Z</time></trkpt><trkpt lat="45.97326" lon="12.73377"><ele>24.0</ele><time>2026-04-03T20:22:50.343Z</time></trkpt><trkpt lat="45.9733133" lon="12.7336767"><ele>24.0</ele><time>2026-04-03T20:22:53.343Z</time></trkpt><trkpt lat="45.9733233" lon="12.7335617"><ele>24.0</ele><time>2026-04-03T20:22:57.343Z</time></trkpt><trkpt lat="45.9733017" lon="12.73345"><ele>24.333333333333332</ele><time>2026-04-03T20:23:01.343Z</time></trkpt><trkpt lat="45.9732783" lon="12.7333317"><ele>24.666666666666664</ele><time>2026-04-03T20:23:04.343Z</time></trkpt><trkpt lat="45.9732517" lon="12.7332467"><ele>25.0</ele><time>2026-04-03T20:23:06.343Z</time></trkpt><trkpt lat="45.9732183" lon="12.7331267"><ele>25.333333333333332</ele><time>2026-04-03T20:23:09.343Z</time></trkpt><trkpt lat="45.9731967" lon="12.7330233"><ele>25.666666666666664</ele><time>2026-04-03T20:23:11.343Z</time></trkpt><trkpt lat="45.9731667" lon="12.7329083"><ele>26.0</ele><time>2026-04-03T20:23:14.344Z</time></trkpt><trkpt lat="45.97312" lon="12.7328133"><ele>25.857142857142858</ele><time>2026-04-03T20:23:17.343Z</time></trkpt><trkpt lat="45.9730817" lon="12.7327217"><ele>25.714285714285715</ele><time>2026-04-03T20:23:20.344Z</time></trkpt><trkpt lat="45.9730533" lon="12.7326267"><ele>25.571428571428573</ele><time>2026-04-03T20:23:23.343Z</time></trkpt><trkpt lat="45.9730117" lon="12.7325467"><ele>25.42857142857143</ele><time>2026-04-03T20:23:27.343Z</time></trkpt><trkpt lat="45.9729733" lon="12.732455"><ele>25.285714285714285</ele><time>2026-04-03T20:23:37.343Z</time></trkpt><trkpt lat="45.972955" lon="12.7323683"><ele>25.142857142857146</ele><time>2026-04-03T20:23:45.343Z</time></trkpt><trkpt lat="45.972935" lon="12.732275"><ele>25.0</ele><time>2026-04-03T20:23:48.343Z</time></trkpt><trkpt lat="45.972885" lon="12.73218"><ele>25.000000000000004</ele><time>2026-04-03T20:23:51.343Z</time></trkpt><trkpt lat="45.97284" lon="12.7320983"><ele>25.0</ele><time>2026-04-03T20:23:55.343Z</time></trkpt><trkpt lat="45.9727767" lon="12.73202"><ele>25.0</ele><time>2026-04-03T20:23:59.343Z</time></trkpt><trkpt lat="45.972715" lon="12.731935"><ele>25.0</ele><time>2026-04-03T20:24:02.343Z</time></trkpt><trkpt lat="45.9726683" lon="12.73186"><ele>25.000000000000004</ele><time>2026-04-03T20:24:05.344Z</time></trkpt><trkpt lat="45.9726067" lon="12.7317967"><ele>25.0</ele><time>2026-04-03T20:24:08.343Z</time></trkpt><trkpt lat="45.97254" lon="12.73173"><ele>25.000000000000004</ele><time>2026-04-03T20:24:11.343Z</time></trkpt><trkpt lat="45.9724717" lon="12.7316667"><ele>25.0</ele><time>2026-04-03T20:24:14.344Z</time></trkpt><trkpt lat="45.972395" lon="12.7316167"><ele>25.0</ele><time>2026-04-03T20:24:17.343Z</time></trkpt><trkpt lat="45.9723367" lon="12.7315417"><ele>25.0</ele><time>2026-04-03T20:24:21.344Z</time></trkpt><trkpt lat="45.9722767" lon="12.7314967"><ele>25.0</ele><time>2026-04-03T20:24:24.343Z</time></trkpt><trkpt lat="45.9722183" lon="12.7314467"><ele>25.000000000000004</ele><time>2026-04-03T20:24:27.343Z</time></trkpt><trkpt lat="45.97216" lon="12.7313967"><ele>25.0</ele><time>2026-04-03T20:24:30.343Z</time></trkpt><trkpt lat="45.9721067" lon="12.73134"><ele>25.000000000000004</ele><time>2026-04-03T20:24:33.342Z</time></trkpt><trkpt lat="45.97204" lon="12.7312733"><ele>25.0</ele><time>2026-04-03T20:24:37.343Z</time></trkpt><trkpt lat="45.9719817" lon="12.73122"><ele>25.0</ele><time>2026-04-03T20:24:40.343Z</time></trkpt><trkpt lat="45.97194" lon="12.731135"><ele>25.0</ele><time>2026-04-03T20:24:43.343Z</time></trkpt><trkpt lat="45.9719267" lon="12.7310383"><ele>25.0</ele><time>2026-04-03T20:24:47.343Z</time></trkpt><trkpt lat="45.9719383" lon="12.73094"><ele>25.000000000000004</ele><time>2026-04-03T20:24:50.343Z</time></trkpt><trkpt lat="45.9718967" lon="12.7308617"><ele>25.0</ele><time>2026-04-03T20:24:55.343Z</time></trkpt><trkpt lat="45.9718283" lon="12.730815"><ele>25.000000000000004</ele><time>2026-04-03T20:24:58.344Z</time></trkpt><trkpt lat="45.9717667" lon="12.7307783"><ele>25.0</ele><time>2026-04-03T20:25:02.343Z</time></trkpt><trkpt lat="45.9716783" lon="12.7306917"><ele>25.0</ele><time>2026-04-03T20:32:37.343Z</time></trkpt><trkpt lat="45.9716183" lon="12.7306433"><ele>25.0</ele><time>2026-04-03T20:32:39.343Z</time></trkpt><trkpt lat="45.9715367" lon="12.7305767"><ele>25.000000000000004</ele><time>2026-04-03T20:32:42.343Z</time></trkpt><trkpt lat="45.971465" lon="12.7305033"><ele>25.0</ele><time>2026-04-03T20:32:45.343Z</time></trkpt><trkpt lat="45.9714" lon="12.730415"><ele>24.857142857142858</ele><time>2026-04-03T20:32:48.343Z</time></trkpt><trkpt lat="45.9713483" lon="12.7303133"><ele>24.714285714285715</ele><time>2026-04-03T20:32:51.342Z</time></trkpt><trkpt lat="45.9712933" lon="12.7302083"><ele>24.57142857142857</ele><time>2026-04-03T20:32:54.342Z</time></trkpt><trkpt lat="45.9712583" lon="12.73013"><ele>24.42857142857143</ele><time>2026-04-03T20:32:56.342Z</time></trkpt><trkpt lat="45.9712167" lon="12.7300517"><ele>24.285714285714285</ele><time>2026-04-03T20:32:58.342Z</time></trkpt><trkpt lat="45.971175" lon="12.729975"><ele>24.142857142857142</ele><time>2026-04-03T20:33:00.342Z</time></trkpt><trkpt lat="45.9711317" lon="12.7299017"><ele>24.0</ele><time>2026-04-03T20:33:02.342Z</time></trkpt><trkpt lat="45.9710867" lon="12.7298333"><ele>23.999999999999996</ele><time>2026-04-03T20:33:04.342Z</time></trkpt><trkpt lat="45.9710367" lon="12.7297633"><ele>24.0</ele><time>2026-04-03T20:33:06.342Z</time></trkpt><trkpt lat="45.97099" lon="12.72969"><ele>24.0</ele><time>2026-04-03T20:33:08.342Z</time></trkpt><trkpt lat="45.970945" lon="12.7296233"><ele>24.0</ele><time>2026-04-03T20:33:10.342Z</time></trkpt><trkpt lat="45.9708983" lon="12.72956"><ele>24.0</ele><time>2026-04-03T20:33:12.342Z</time></trkpt><trkpt lat="45.9708383" lon="12.7294617"><ele>23.999999999999996</ele><time>2026-04-03T20:33:15.342Z</time></trkpt><trkpt lat="45.970795" lon="12.7293917"><ele>24.0</ele><time>2026-04-03T20:33:17.342Z</time></trkpt><trkpt lat="45.97075" lon="12.7293267"><ele>23.833333333333332</ele><time>2026-04-03T20:33:19.342Z</time></trkpt><trkpt lat="45.9706933" lon="12.7292867"><ele>23.666666666666668</ele><time>2026-04-03T20:33:21.342Z</time></trkpt><trkpt lat="45.9706033" lon="12.7292683"><ele>23.5</ele><time>2026-04-03T20:33:24.342Z</time></trkpt><trkpt lat="45.9705133" lon="12.7292417"><ele>23.333333333333336</ele><time>2026-04-03T20:33:27.342Z</time></trkpt><trkpt lat="45.9704383" lon="12.7291867"><ele>23.166666666666668</ele><time>2026-04-03T20:33:30.342Z</time></trkpt><trkpt lat="45.9703717" lon="12.7290983"><ele>23.0</ele><time>2026-04-03T20:33:33.342Z</time></trkpt><trkpt lat="45.9703117" lon="12.7289917"><ele>23.0</ele><time>2026-04-03T20:33:36.342Z</time></trkpt><trkpt lat="45.9702717" lon="12.7289167"><ele>23.0</ele><time>2026-04-03T20:33:38.342Z</time></trkpt><trkpt lat="45.9702283" lon="12.7288367"><ele>23.0</ele><time>2026-04-03T20:33:40.342Z</time></trkpt><trkpt lat="45.9701683" lon="12.7287167"><ele>23.0</ele><time>2026-04-03T20:33:43.343Z</time></trkpt><trkpt lat="45.9701183" lon="12.7286317"><ele>23.0</ele><time>2026-04-03T20:33:46.342Z</time></trkpt><trkpt lat="45.9700667" lon="12.7285433"><ele>23.0</ele><time>2026-04-03T20:33:55.342Z</time></trkpt><trkpt lat="45.970045" lon="12.7284167"><ele>23.166666666666668</ele><time>2026-04-03T20:33:58.342Z</time></trkpt><trkpt lat="45.9700533" lon="12.728305"><ele>23.333333333333336</ele><time>2026-04-03T20:34:01.342Z</time></trkpt><trkpt lat="45.970095" lon="12.7282133"><ele>23.5</ele><time>2026-04-03T20:34:04.342Z</time></trkpt><trkpt lat="45.9701567" lon="12.7281583"><ele>23.666666666666668</ele><time>2026-04-03T20:34:06.342Z</time></trkpt><trkpt lat="45.9702283" lon="12.7280883"><ele>23.833333333333332</ele><time>2026-04-03T20:34:08.342Z</time></trkpt><trkpt lat="45.9702817" lon="12.7280233"><ele>24.0</ele><time>2026-04-03T20:34:10.342Z</time></trkpt><trkpt lat="45.970345" lon="12.7279567"><ele>24.0</ele><time>2026-04-03T20:34:12.342Z</time></trkpt><trkpt lat="45.9704033" lon="12.72791"><ele>24.0</ele><time>2026-04-03T20:34:14.342Z</time></trkpt><trkpt lat="45.97047" lon="12.7278667"><ele>24.0</ele><time>2026-04-03T20:34:16.342Z</time></trkpt><trkpt lat="45.970565" lon="12.7278167"><ele>24.0</ele><time>2026-04-03T20:34:18.342Z</time></trkpt><trkpt lat="45.970665" lon="12.7277567"><ele>24.0</ele><time>2026-04-03T20:34:20.342Z</time></trkpt><trkpt lat="45.9707533" lon="12.7277117"><ele>24.0</ele><time>2026-04-03T20:34:22.342Z</time></trkpt><trkpt lat="45.9708233" lon="12.7276633"><ele>24.333333333333332</ele><time>2026-04-03T20:34:24.342Z</time></trkpt><trkpt lat="45.9708917" lon="12.7276067"><ele>24.666666666666664</ele><time>2026-04-03T20:34:26.342Z</time></trkpt><trkpt lat="45.9709617" lon="12.727545"><ele>25.0</ele><time>2026-04-03T20:34:28.342Z</time></trkpt><trkpt lat="45.9710233" lon="12.7274917"><ele>25.333333333333332</ele><time>2026-04-03T20:34:29.342Z</time></trkpt><trkpt lat="45.9710983" lon="12.7274717"><ele>25.666666666666664</ele><time>2026-04-03T20:34:31.342Z</time></trkpt><trkpt lat="45.9711883" lon="12.7274633"><ele>26.0</ele><time>2026-04-03T20:34:33.342Z</time></trkpt><trkpt lat="45.97128" lon="12.7274867"><ele>26.0</ele><time>2026-04-03T20:34:35.343Z</time></trkpt><trkpt lat="45.97139" lon="12.7275117"><ele>26.0</ele><time>2026-04-03T20:34:37.342Z</time></trkpt><trkpt lat="45.9715083" lon="12.7275317"><ele>26.0</ele><time>2026-04-03T20:34:39.342Z</time></trkpt><trkpt lat="45.9715733" lon="12.72754"><ele>26.0</ele><time>2026-04-03T20:34:40.342Z</time></trkpt><trkpt lat="45.9716383" lon="12.727545"><ele>26.0</ele><time>2026-04-03T20:34:41.342Z</time></trkpt><trkpt lat="45.9717633" lon="12.7275483"><ele>25.8</ele><time>2026-04-03T20:34:43.342Z</time></trkpt><trkpt lat="45.9718783" lon="12.7275417"><ele>25.6</ele><time>2026-04-03T20:34:45.342Z</time></trkpt><trkpt lat="45.9719833" lon="12.7275317"><ele>25.4</ele><time>2026-04-03T20:34:47.342Z</time></trkpt><trkpt lat="45.9720867" lon="12.7275183"><ele>25.2</ele><time>2026-04-03T20:34:49.342Z</time></trkpt><trkpt lat="45.972165" lon="12.7274933"><ele>25.0</ele><time>2026-04-03T20:34:51.343Z</time></trkpt><trkpt lat="45.9722383" lon="12.7274567"><ele>25.000000000000004</ele><time>2026-04-03T20:34:53.342Z</time></trkpt><trkpt lat="45.972315" lon="12.72742"><ele>25.0</ele><time>2026-04-03T20:34:55.342Z</time></trkpt><trkpt lat="45.9723883" lon="12.7273733"><ele>25.0</ele><time>2026-04-03T20:34:57.342Z</time></trkpt><trkpt lat="45.9724517" lon="12.7273183"><ele>25.0</ele><time>2026-04-03T20:34:59.342Z</time></trkpt><trkpt lat="45.972515" lon="12.72726"><ele>25.000000000000004</ele><time>2026-04-03T20:35:01.342Z</time></trkpt><trkpt lat="45.9725733" lon="12.7272"><ele>25.0</ele><time>2026-04-03T20:35:03.342Z</time></trkpt><trkpt lat="45.9726417" lon="12.7271317"><ele>25.2</ele><time>2026-04-03T20:35:05.342Z</time></trkpt><trkpt lat="45.9727083" lon="12.7270633"><ele>25.4</ele><time>2026-04-03T20:35:07.342Z</time></trkpt><trkpt lat="45.9727917" lon="12.7269817"><ele>25.6</ele><time>2026-04-03T20:35:09.342Z</time></trkpt><trkpt lat="45.9728783" lon="12.7268867"><ele>25.8</ele><time>2026-04-03T20:35:11.342Z</time></trkpt><trkpt lat="45.9729333" lon="12.726775"><ele>26.0</ele><time>2026-04-03T20:35:13.342Z</time></trkpt><trkpt lat="45.9729517" lon="12.72662"><ele>25.6</ele><time>2026-04-03T20:35:15.342Z</time></trkpt><trkpt lat="45.9729" lon="12.72644"><ele>25.200000000000003</ele><time>2026-04-03T20:35:17.342Z</time></trkpt><trkpt lat="45.9728467" lon="12.7263583"><ele>24.799999999999997</ele><time>2026-04-03T20:35:18.342Z</time></trkpt><trkpt lat="45.9727867" lon="12.7262567"><ele>24.4</ele><time>2026-04-03T20:35:19.342Z</time></trkpt><trkpt lat="45.9727283" lon="12.7261717"><ele>24.0</ele><time>2026-04-03T20:35:20.342Z</time></trkpt><trkpt lat="45.9726667" lon="12.7260933"><ele>24.0</ele><time>2026-04-03T20:35:21.342Z</time></trkpt><trkpt lat="45.97261" lon="12.726025"><ele>24.0</ele><time>2026-04-03T20:35:22.343Z</time></trkpt><trkpt lat="45.9725517" lon="12.7259717"><ele>24.0</ele><time>2026-04-03T20:35:23.342Z</time></trkpt><trkpt lat="45.9724367" lon="12.72591"><ele>24.0</ele><time>2026-04-03T20:35:25.342Z</time></trkpt><trkpt lat="45.972335" lon="12.7258733"><ele>24.0</ele><time>2026-04-03T20:35:27.342Z</time></trkpt><trkpt lat="45.972235" lon="12.72584"><ele>23.799999999999997</ele><time>2026-04-03T20:35:29.342Z</time></trkpt><trkpt lat="45.9721417" lon="12.7258033"><ele>23.599999999999998</ele><time>2026-04-03T20:35:31.342Z</time></trkpt><trkpt lat="45.9720483" lon="12.72574"><ele>23.4</ele><time>2026-04-03T20:35:33.342Z</time></trkpt><trkpt lat="45.9719917" lon="12.7256283"><ele>23.2</ele><time>2026-04-03T20:35:35.342Z</time></trkpt><trkpt lat="45.9720167" lon="12.725495"><ele>23.0</ele><time>2026-04-03T20:35:37.342Z</time></trkpt><trkpt lat="45.9720767" lon="12.7253633"><ele>23.2</ele><time>2026-04-03T20:35:39.342Z</time></trkpt><trkpt lat="45.9721433" lon="12.7252217"><ele>23.4</ele><time>2026-04-03T20:35:41.342Z</time></trkpt><trkpt lat="45.97219" lon="12.7250917"><ele>23.599999999999998</ele><time>2026-04-03T20:35:43.342Z</time></trkpt><trkpt lat="45.9722333" lon="12.7249667"><ele>23.799999999999997</ele><time>2026-04-03T20:35:45.342Z</time></trkpt><trkpt lat="45.9722633" lon="12.724855"><ele>24.0</ele><time>2026-04-03T20:35:47.342Z</time></trkpt><trkpt lat="45.9722583" lon="12.7247517"><ele>24.0</ele><time>2026-04-03T20:35:49.342Z</time></trkpt><trkpt lat="45.97217" lon="12.7247217"><ele>24.0</ele><time>2026-04-03T20:35:52.342Z</time></trkpt><trkpt lat="45.9720783" lon="12.7247417"><ele>24.0</ele><time>2026-04-03T20:35:54.342Z</time></trkpt><trkpt lat="45.9719617" lon="12.7247317"><ele>24.0</ele><time>2026-04-03T20:35:56.342Z</time></trkpt><trkpt lat="45.9718917" lon="12.7247217"><ele>24.0</ele><time>2026-04-03T20:35:57.342Z</time></trkpt><trkpt lat="45.971825" lon="12.7247183"><ele>24.0</ele><time>2026-04-03T20:35:58.342Z</time></trkpt><trkpt lat="45.97176" lon="12.7247167"><ele>24.142857142857142</ele><time>2026-04-03T20:35:59.342Z</time></trkpt><trkpt lat="45.9716867" lon="12.7247283"><ele>24.285714285714285</ele><time>2026-04-03T20:36:00.342Z</time></trkpt><trkpt lat="45.97161" lon="12.7247467"><ele>24.42857142857143</ele><time>2026-04-03T20:36:01.342Z</time></trkpt><trkpt lat="45.971535" lon="12.7247767"><ele>24.57142857142857</ele><time>2026-04-03T20:36:02.342Z</time></trkpt><trkpt lat="45.9714667" lon="12.7248"><ele>24.714285714285715</ele><time>2026-04-03T20:36:03.342Z</time></trkpt><trkpt lat="45.9714017" lon="12.724825"><ele>24.857142857142858</ele><time>2026-04-03T20:36:04.342Z</time></trkpt><trkpt lat="45.9713333" lon="12.72484"><ele>25.0</ele><time>2026-04-03T20:36:05.343Z</time></trkpt><trkpt lat="45.9712583" lon="12.72486"><ele>25.000000000000004</ele><time>2026-04-03T20:36:06.342Z</time></trkpt><trkpt lat="45.9711867" lon="12.72489"><ele>25.0</ele><time>2026-04-03T20:36:07.343Z</time></trkpt><trkpt lat="45.9711167" lon="12.7249067"><ele>25.0</ele><time>2026-04-03T20:36:08.342Z</time></trkpt><trkpt lat="45.9710433" lon="12.72492"><ele>25.0</ele><time>2026-04-03T20:36:09.342Z</time></trkpt><trkpt lat="45.9709717" lon="12.72494"><ele>25.000000000000004</ele><time>2026-04-03T20:36:10.342Z</time></trkpt><trkpt lat="45.9709017" lon="12.7249633"><ele>25.0</ele><time>2026-04-03T20:36:11.342Z</time></trkpt><trkpt lat="45.970785" lon="12.7249967"><ele>24.8</ele><time>2026-04-03T20:36:13.342Z</time></trkpt><trkpt lat="45.97067" lon="12.724985"><ele>24.6</ele><time>2026-04-03T20:36:15.342Z</time></trkpt><trkpt lat="45.9705633" lon="12.7249467"><ele>24.4</ele><time>2026-04-03T20:36:17.342Z</time></trkpt><trkpt lat="45.970465" lon="12.7249033"><ele>24.2</ele><time>2026-04-03T20:36:19.342Z</time></trkpt><trkpt lat="45.970365" lon="12.724855"><ele>24.0</ele><time>2026-04-03T20:36:21.342Z</time></trkpt><trkpt lat="45.9702633" lon="12.724815"><ele>24.0</ele><time>2026-04-03T20:36:23.342Z</time></trkpt><trkpt lat="45.9701767" lon="12.72476"><ele>24.0</ele><time>2026-04-03T20:36:25.342Z</time></trkpt><trkpt lat="45.9700933" lon="12.7247283"><ele>24.0</ele><time>2026-04-03T20:36:27.342Z</time></trkpt><trkpt lat="45.9700067" lon="12.724695"><ele>24.0</ele><time>2026-04-03T20:36:29.342Z</time></trkpt><trkpt lat="45.96991" lon="12.7246567"><ele>24.0</ele><time>2026-04-03T20:36:31.342Z</time></trkpt><trkpt lat="45.9698133" lon="12.7246083"><ele>23.799999999999997</ele><time>2026-04-03T20:36:33.342Z</time></trkpt><trkpt lat="45.969715" lon="12.7245583"><ele>23.599999999999998</ele><time>2026-04-03T20:36:35.342Z</time></trkpt><trkpt lat="45.969615" lon="12.7245317"><ele>23.4</ele><time>2026-04-03T20:36:37.343Z</time></trkpt><trkpt lat="45.9695083" lon="12.7245117"><ele>23.2</ele><time>2026-04-03T20:36:39.342Z</time></trkpt><trkpt lat="45.9694117" lon="12.7244867"><ele>23.0</ele><time>2026-04-03T20:36:41.342Z</time></trkpt><trkpt lat="45.9693233" lon="12.7244617"><ele>23.0</ele><time>2026-04-03T20:36:43.342Z</time></trkpt><trkpt lat="45.969225" lon="12.724445"><ele>23.0</ele><time>2026-04-03T20:36:45.343Z</time></trkpt><trkpt lat="45.9691217" lon="12.7244367"><ele>23.0</ele><time>2026-04-03T20:36:47.342Z</time></trkpt><trkpt lat="45.9690233" lon="12.7244517"><ele>23.0</ele><time>2026-04-03T20:36:49.342Z</time></trkpt><trkpt lat="45.968945" lon="12.72454"><ele>23.0</ele><time>2026-04-03T20:36:51.342Z</time></trkpt><trkpt lat="45.96889" lon="12.7246483"><ele>22.799999999999997</ele><time>2026-04-03T20:36:53.342Z</time></trkpt><trkpt lat="45.9688383" lon="12.724765"><ele>22.6</ele><time>2026-04-03T20:36:55.342Z</time></trkpt><trkpt lat="45.9687633" lon="12.7248833"><ele>22.4</ele><time>2026-04-03T20:36:57.342Z</time></trkpt><trkpt lat="45.96867" lon="12.7249883"><ele>22.200000000000003</ele><time>2026-04-03T20:36:59.342Z</time></trkpt><trkpt lat="45.9686167" lon="12.7250383"><ele>22.0</ele><time>2026-04-03T20:37:00.342Z</time></trkpt><trkpt lat="45.9685617" lon="12.725095"><ele>22.0</ele><time>2026-04-03T20:37:01.342Z</time></trkpt><trkpt lat="45.968505" lon="12.7251517"><ele>22.0</ele><time>2026-04-03T20:37:02.342Z</time></trkpt><trkpt lat="45.9684483" lon="12.7252133"><ele>22.0</ele><time>2026-04-03T20:37:03.342Z</time></trkpt><trkpt lat="45.96839" lon="12.7252717"><ele>22.0</ele><time>2026-04-03T20:37:04.342Z</time></trkpt><trkpt lat="45.9683333" lon="12.72533"><ele>22.0</ele><time>2026-04-03T20:37:05.342Z</time></trkpt><trkpt lat="45.9682767" lon="12.7253867"><ele>22.0</ele><time>2026-04-03T20:37:06.342Z</time></trkpt><trkpt lat="45.9682183" lon="12.7254483"><ele>22.0</ele><time>2026-04-03T20:37:07.342Z</time></trkpt><trkpt lat="45.9681617" lon="12.7255033"><ele>22.285714285714285</ele><time>2026-04-03T20:37:08.342Z</time></trkpt><trkpt lat="45.9681033" lon="12.72556"><ele>22.57142857142857</ele><time>2026-04-03T20:37:09.342Z</time></trkpt><trkpt lat="45.9680467" lon="12.72562"><ele>22.857142857142854</ele><time>2026-04-03T20:37:10.342Z</time></trkpt><trkpt lat="45.9679867" lon="12.7256833"><ele>23.142857142857142</ele><time>2026-04-03T20:37:11.342Z</time></trkpt><trkpt lat="45.9679267" lon="12.7257417"><ele>23.428571428571427</ele><time>2026-04-03T20:37:12.342Z</time></trkpt><trkpt lat="45.9678667" lon="12.7257967"><ele>23.71428571428571</ele><time>2026-04-03T20:37:13.342Z</time></trkpt><trkpt lat="45.9678033" lon="12.7258467"><ele>24.0</ele><time>2026-04-03T20:37:14.342Z</time></trkpt><trkpt lat="45.9677383" lon="12.7258933"><ele>23.999999999999996</ele><time>2026-04-03T20:37:15.343Z</time></trkpt><trkpt lat="45.9676633" lon="12.7259367"><ele>24.0</ele><time>2026-04-03T20:37:16.342Z</time></trkpt><trkpt lat="45.9675883" lon="12.7259683"><ele>24.0</ele><time>2026-04-03T20:37:17.342Z</time></trkpt><trkpt lat="45.9675167" lon="12.7260117"><ele>24.0</ele><time>2026-04-03T20:37:18.342Z</time></trkpt><trkpt lat="45.96745" lon="12.7260383"><ele>24.0</ele><time>2026-04-03T20:37:19.342Z</time></trkpt><trkpt lat="45.9673833" lon="12.7260667"><ele>23.999999999999996</ele><time>2026-04-03T20:37:20.342Z</time></trkpt><trkpt lat="45.9673217" lon="12.726095"><ele>24.0</ele><time>2026-04-03T20:37:21.342Z</time></trkpt><trkpt lat="45.9672583" lon="12.7261183"><ele>23.71428571428571</ele><time>2026-04-03T20:37:22.342Z</time></trkpt><trkpt lat="45.9671967" lon="12.7261417"><ele>23.428571428571427</ele><time>2026-04-03T20:37:23.342Z</time></trkpt><trkpt lat="45.9671333" lon="12.726155"><ele>23.142857142857142</ele><time>2026-04-03T20:37:24.342Z</time></trkpt><trkpt lat="45.96707" lon="12.7261683"><ele>22.857142857142854</ele><time>2026-04-03T20:37:25.342Z</time></trkpt><trkpt lat="45.9670033" lon="12.7261817"><ele>22.57142857142857</ele><time>2026-04-03T20:37:26.342Z</time></trkpt><trkpt lat="45.9669383" lon="12.7261983"><ele>22.285714285714285</ele><time>2026-04-03T20:37:27.342Z</time></trkpt><trkpt lat="45.966875" lon="12.726215"><ele>22.0</ele><time>2026-04-03T20:37:28.342Z</time></trkpt><trkpt lat="45.9667983" lon="12.7262317"><ele>22.0</ele><time>2026-04-03T20:37:29.342Z</time></trkpt><trkpt lat="45.9667233" lon="12.7262533"><ele>22.0</ele><time>2026-04-03T20:37:30.342Z</time></trkpt><trkpt lat="45.966655" lon="12.726275"><ele>22.0</ele><time>2026-04-03T20:37:31.342Z</time></trkpt><trkpt lat="45.9665833" lon="12.726295"><ele>22.0</ele><time>2026-04-03T20:37:32.342Z</time></trkpt><trkpt lat="45.9665183" lon="12.7263117"><ele>22.0</ele><time>2026-04-03T20:37:33.342Z</time></trkpt><trkpt lat="45.9664517" lon="12.7263267"><ele>22.0</ele><time>2026-04-03T20:37:34.342Z</time></trkpt><trkpt lat="45.9663867" lon="12.72634"><ele>22.0</ele><time>2026-04-03T20:37:35.342Z</time></trkpt><trkpt lat="45.96627" lon="12.7263617"><ele>21.8</ele><time>2026-04-03T20:37:37.342Z</time></trkpt><trkpt lat="45.9661717" lon="12.7263917"><ele>21.6</ele><time>2026-04-03T20:37:39.342Z</time></trkpt><trkpt lat="45.9660667" lon="12.72642"><ele>21.400000000000002</ele><time>2026-04-03T20:37:41.342Z</time></trkpt><trkpt lat="45.9659467" lon="12.7264367"><ele>21.200000000000003</ele><time>2026-04-03T20:37:43.342Z</time></trkpt><trkpt lat="45.9658817" lon="12.7264483"><ele>21.0</ele><time>2026-04-03T20:37:44.342Z</time></trkpt><trkpt lat="45.96581" lon="12.7264567"><ele>21.428571428571427</ele><time>2026-04-03T20:37:45.343Z</time></trkpt><trkpt lat="45.9657383" lon="12.7264717"><ele>21.857142857142858</ele><time>2026-04-03T20:37:46.342Z</time></trkpt><trkpt lat="45.9656633" lon="12.726485"><ele>22.285714285714285</ele><time>2026-04-03T20:37:47.343Z</time></trkpt><trkpt lat="45.96559" lon="12.726495"><ele>22.714285714285715</ele><time>2026-04-03T20:37:48.342Z</time></trkpt><trkpt lat="45.965515" lon="12.7265133"><ele>23.142857142857142</ele><time>2026-04-03T20:37:49.342Z</time></trkpt><trkpt lat="45.965445" lon="12.7265267"><ele>23.57142857142857</ele><time>2026-04-03T20:37:50.343Z</time></trkpt><trkpt lat="45.96538" lon="12.7265283"><ele>24.0</ele><time>2026-04-03T20:37:51.342Z</time></trkpt><trkpt lat="45.9653133" lon="12.7265417"><ele>24.0</ele><time>2026-04-03T20:37:52.342Z</time></trkpt><trkpt lat="45.965185" lon="12.7265783"><ele>24.0</ele><time>2026-04-03T20:37:54.342Z</time></trkpt><trkpt lat="45.9650633" lon="12.726605"><ele>24.0</ele><time>2026-04-03T20:37:56.342Z</time></trkpt><trkpt lat="45.9649433" lon="12.72661"><ele>24.0</ele><time>2026-04-03T20:37:58.342Z</time></trkpt><trkpt lat="45.9648267" lon="12.7265917"><ele>24.2</ele><time>2026-04-03T20:38:00.342Z</time></trkpt><trkpt lat="45.9647183" lon="12.726575"><ele>24.4</ele><time>2026-04-03T20:38:02.342Z</time></trkpt><trkpt lat="45.96463" lon="12.7265633"><ele>24.6</ele><time>2026-04-03T20:38:04.342Z</time></trkpt><trkpt lat="45.9645383" lon="12.7265467"><ele>24.8</ele><time>2026-04-03T20:38:06.342Z</time></trkpt><trkpt lat="45.9644467" lon="12.7265317"><ele>25.0</ele><time>2026-04-03T20:38:08.342Z</time></trkpt><trkpt lat="45.964345" lon="12.7265167"><ele>25.000000000000004</ele><time>2026-04-03T20:38:10.342Z</time></trkpt><trkpt lat="45.9642817" lon="12.7265067"><ele>25.0</ele><time>2026-04-03T20:38:11.342Z</time></trkpt><trkpt lat="45.9642133" lon="12.7265017"><ele>25.0</ele><time>2026-04-03T20:38:12.342Z</time></trkpt><trkpt lat="45.96415" lon="12.726495"><ele>25.0</ele><time>2026-04-03T20:38:13.342Z</time></trkpt><trkpt lat="45.964025" lon="12.72648"><ele>25.000000000000004</ele><time>2026-04-03T20:38:15.342Z</time></trkpt><trkpt lat="45.9639583" lon="12.7264633"><ele>25.0</ele><time>2026-04-03T20:38:16.342Z</time></trkpt><trkpt lat="45.9638933" lon="12.72645"><ele>25.0</ele><time>2026-04-03T20:38:17.342Z</time></trkpt><trkpt lat="45.96383" lon="12.726445"><ele>25.0</ele><time>2026-04-03T20:38:18.342Z</time></trkpt><trkpt lat="45.963765" lon="12.7264467"><ele>25.0</ele><time>2026-04-03T20:38:19.342Z</time></trkpt><trkpt lat="45.9636567" lon="12.7264333"><ele>25.0</ele><time>2026-04-03T20:38:21.342Z</time></trkpt><trkpt lat="45.9635367" lon="12.7264317"><ele>25.0</ele><time>2026-04-03T20:38:23.342Z</time></trkpt><trkpt lat="45.9634133" lon="12.7264317"><ele>24.714285714285715</ele><time>2026-04-03T20:38:25.342Z</time></trkpt><trkpt lat="45.9633467" lon="12.7264333"><ele>24.42857142857143</ele><time>2026-04-03T20:38:26.342Z</time></trkpt><trkpt lat="45.96328" lon="12.7264383"><ele>24.142857142857146</ele><time>2026-04-03T20:38:27.342Z</time></trkpt><trkpt lat="45.9632067" lon="12.7264467"><ele>23.857142857142858</ele><time>2026-04-03T20:38:28.342Z</time></trkpt><trkpt lat="45.96313" lon="12.7264567"><ele>23.57142857142857</ele><time>2026-04-03T20:38:29.342Z</time></trkpt><trkpt lat="45.9630533" lon="12.7264667"><ele>23.28571428571429</ele><time>2026-04-03T20:38:30.342Z</time></trkpt><trkpt lat="45.962975" lon="12.726475"><ele>23.0</ele><time>2026-04-03T20:38:31.342Z</time></trkpt><trkpt lat="45.96289" lon="12.726475"><ele>23.0</ele><time>2026-04-03T20:38:32.342Z</time></trkpt><trkpt lat="45.9628083" lon="12.72648"><ele>23.0</ele><time>2026-04-03T20:38:33.342Z</time></trkpt><trkpt lat="45.962735" lon="12.726485"><ele>23.0</ele><time>2026-04-03T20:38:34.342Z</time></trkpt><trkpt lat="45.9626617" lon="12.726485"><ele>23.0</ele><time>2026-04-03T20:38:35.342Z</time></trkpt><trkpt lat="45.9625867" lon="12.7264833"><ele>23.0</ele><time>2026-04-03T20:38:36.342Z</time></trkpt><trkpt lat="45.9625117" lon="12.7264867"><ele>23.0</ele><time>2026-04-03T20:38:37.342Z</time></trkpt><trkpt lat="45.9624433" lon="12.7264883"><ele>23.0</ele><time>2026-04-03T20:38:38.342Z</time></trkpt><trkpt lat="45.9623717" lon="12.7264967"><ele>22.599999999999998</ele><time>2026-04-03T20:38:39.342Z</time></trkpt><trkpt lat="45.9623033" lon="12.7265117"><ele>22.2</ele><time>2026-04-03T20:38:40.342Z</time></trkpt><trkpt lat="45.9621767" lon="12.726535"><ele>21.8</ele><time>2026-04-03T20:38:42.342Z</time></trkpt><trkpt lat="45.962075" lon="12.7265417"><ele>21.4</ele><time>2026-04-03T20:38:44.342Z</time></trkpt><trkpt lat="45.9619967" lon="12.7265517"><ele>21.0</ele><time>2026-04-03T20:38:47.342Z</time></trkpt><trkpt lat="45.9619283" lon="12.7265933"><ele>21.0</ele><time>2026-04-03T20:38:51.342Z</time></trkpt><trkpt lat="45.9619017" lon="12.7266933"><ele>21.0</ele><time>2026-04-03T20:38:55.342Z</time></trkpt><trkpt lat="45.9619167" lon="12.7267867"><ele>21.0</ele><time>2026-04-03T20:38:57.342Z</time></trkpt><trkpt lat="45.961935" lon="12.7269133"><ele>21.0</ele><time>2026-04-03T20:39:00.342Z</time></trkpt><trkpt lat="45.9619867" lon="12.727015"><ele>21.0</ele><time>2026-04-03T20:39:03.342Z</time></trkpt><trkpt lat="45.962035" lon="12.7271117"><ele>21.0</ele><time>2026-04-03T20:39:06.342Z</time></trkpt><trkpt lat="45.96206" lon="12.7272017"><ele>21.166666666666668</ele><time>2026-04-03T20:39:09.342Z</time></trkpt><trkpt lat="45.9620367" lon="12.7272933"><ele>21.333333333333332</ele><time>2026-04-03T20:39:12.342Z</time></trkpt><trkpt lat="45.96201" lon="12.7273933"><ele>21.5</ele><time>2026-04-03T20:39:15.342Z</time></trkpt><trkpt lat="45.9620533" lon="12.7274967"><ele>21.666666666666664</ele><time>2026-04-03T20:39:18.342Z</time></trkpt><trkpt lat="45.96215" lon="12.7275367"><ele>21.833333333333332</ele><time>2026-04-03T20:39:20.342Z</time></trkpt><trkpt lat="45.9622583" lon="12.7275483"><ele>22.0</ele><time>2026-04-03T20:39:22.342Z</time></trkpt><trkpt lat="45.96236" lon="12.7275583"><ele>22.0</ele><time>2026-04-03T20:39:24.343Z</time></trkpt><trkpt lat="45.9624617" lon="12.7275517"><ele>22.0</ele><time>2026-04-03T20:39:26.343Z</time></trkpt><trkpt lat="45.9625567" lon="12.7275517"><ele>22.0</ele><time>2026-04-03T20:39:28.342Z</time></trkpt><trkpt lat="45.9626367" lon="12.7275567"><ele>22.0</ele><time>2026-04-03T20:39:30.343Z</time></trkpt><trkpt lat="45.96271" lon="12.7275383"><ele>22.0</ele><time>2026-04-03T20:39:32.342Z</time></trkpt><trkpt lat="45.962775" lon="12.7275233"><ele>22.0</ele><time>2026-04-03T20:39:34.343Z</time></trkpt><trkpt lat="45.962845" lon="12.7274883"><ele>22.166666666666664</ele><time>2026-04-03T20:39:37.342Z</time></trkpt><trkpt lat="45.962925" lon="12.7274617"><ele>22.333333333333332</ele><time>2026-04-03T20:45:12.341Z</time></trkpt><trkpt lat="45.9629883" lon="12.7274517"><ele>22.5</ele><time>2026-04-03T20:45:15.341Z</time></trkpt><trkpt lat="45.9630733" lon="12.7274583"><ele>22.666666666666668</ele><time>2026-04-03T20:45:19.341Z</time></trkpt><trkpt lat="45.96314" lon="12.7274883"><ele>22.833333333333336</ele><time>2026-04-03T20:45:22.341Z</time></trkpt><trkpt lat="45.9632283" lon="12.7275167"><ele>23.0</ele><time>2026-04-03T20:45:25.341Z</time></trkpt><trkpt lat="45.963305" lon="12.7275317"><ele>22.857142857142858</ele><time>2026-04-03T20:45:27.341Z</time></trkpt><trkpt lat="45.9633683" lon="12.7275217"><ele>22.71428571428571</ele><time>2026-04-03T20:45:29.341Z</time></trkpt><trkpt lat="45.96343" lon="12.7274833"><ele>22.57142857142857</ele><time>2026-04-03T20:45:31.341Z</time></trkpt><trkpt lat="45.9634967" lon="12.7274467"><ele>22.42857142857143</ele><time>2026-04-03T20:45:33.341Z</time></trkpt><trkpt lat="45.963555" lon="12.7274083"><ele>22.285714285714285</ele><time>2026-04-03T20:45:35.341Z</time></trkpt><trkpt lat="45.963615" lon="12.727375"><ele>22.142857142857142</ele><time>2026-04-03T20:45:38.341Z</time></trkpt><trkpt lat="45.9635433" lon="12.727435"><ele>22.0</ele><time>2026-04-03T20:52:11.341Z</time></trkpt><trkpt lat="45.963485" lon="12.7275017"><ele>22.0</ele><time>2026-04-03T20:52:13.341Z</time></trkpt><trkpt lat="45.9634317" lon="12.7275667"><ele>22.0</ele><time>2026-04-03T20:52:15.341Z</time></trkpt><trkpt lat="45.9633483" lon="12.727575"><ele>22.0</ele><time>2026-04-03T20:52:18.341Z</time></trkpt><trkpt lat="45.9633133" lon="12.7274817"><ele>22.0</ele><time>2026-04-03T20:52:21.341Z</time></trkpt><trkpt lat="45.9633633" lon="12.7274"><ele>22.0</ele><time>2026-04-03T20:52:25.341Z</time></trkpt><trkpt lat="45.96343" lon="12.7273583"><ele>22.0</ele><time>2026-04-03T20:52:29.341Z</time></trkpt><trkpt lat="45.9634917" lon="12.72733"><ele>22.0</ele><time>2026-04-03T20:52:32.341Z</time></trkpt><trkpt lat="45.9635683" lon="12.7273083"><ele>22.0</ele><time>2026-04-03T20:52:36.341Z</time></trkpt><trkpt lat="45.9636983" lon="12.7274017"><ele>22.0</ele><time>2026-04-03T20:53:01.341Z</time></trkpt><trkpt lat="45.9636617" lon="12.7275017"><ele>22.0</ele><time>2026-04-03T20:53:05.341Z</time></trkpt><trkpt lat="45.9635783" lon="12.7275783"><ele>22.0</ele><time>2026-04-03T20:53:08.341Z</time></trkpt><trkpt lat="45.96351" lon="12.7276467"><ele>22.0</ele><time>2026-04-03T20:53:10.341Z</time></trkpt><trkpt lat="45.96344" lon="12.7277433"><ele>22.0</ele><time>2026-04-03T20:53:12.341Z</time></trkpt><trkpt lat="45.9633683" lon="12.7278433"><ele>22.0</ele><time>2026-04-03T20:53:14.341Z</time></trkpt><trkpt lat="45.9633167" lon="12.7279167"><ele>22.0</ele><time>2026-04-03T20:53:16.341Z</time></trkpt><trkpt lat="45.963255" lon="12.7280033"><ele>22.0</ele><time>2026-04-03T20:53:19.341Z</time></trkpt><trkpt lat="45.963205" lon="12.728075"><ele>22.0</ele><time>2026-04-03T20:53:21.341Z</time></trkpt><trkpt lat="45.96315" lon="12.7281317"><ele>22.0</ele><time>2026-04-03T20:53:23.341Z</time></trkpt><trkpt lat="45.9630767" lon="12.7281917"><ele>22.0</ele><time>2026-04-03T20:53:26.341Z</time></trkpt><trkpt lat="45.9630167" lon="12.728245"><ele>22.0</ele><time>2026-04-03T20:53:29.341Z</time></trkpt><trkpt lat="45.9629417" lon="12.7282967"><ele>22.0</ele><time>2026-04-03T20:53:34.341Z</time></trkpt><trkpt lat="45.9628867" lon="12.7283533"><ele>22.0</ele><time>2026-04-03T20:53:39.34Z</time></trkpt><trkpt lat="45.9628183" lon="12.7283817"><ele>22.0</ele><time>2026-04-03T20:53:43.34Z</time></trkpt><trkpt lat="45.9627467" lon="12.7283467"><ele>22.0</ele><time>2026-04-03T20:53:48.34Z</time></trkpt><trkpt lat="45.9627" lon="12.72827"><ele>22.0</ele><time>2026-04-03T20:53:56.341Z</time></trkpt><trkpt lat="45.9626433" lon="12.72821"><ele>22.0</ele><time>2026-04-03T20:53:59.34Z</time></trkpt><trkpt lat="45.9625783" lon="12.7282183"><ele>22.0</ele><time>2026-04-03T20:54:01.34Z</time></trkpt><trkpt lat="45.9625017" lon="12.728275"><ele>22.0</ele><time>2026-04-03T20:54:03.34Z</time></trkpt><trkpt lat="45.9624233" lon="12.728345"><ele>22.0</ele><time>2026-04-03T20:54:05.34Z</time></trkpt><trkpt lat="45.962345" lon="12.7284133"><ele>22.0</ele><time>2026-04-03T20:54:07.34Z</time></trkpt><trkpt lat="45.9622767" lon="12.72847"><ele>22.0</ele><time>2026-04-03T20:54:09.34Z</time></trkpt><trkpt lat="45.96221" lon="12.7285217"><ele>22.166666666666664</ele><time>2026-04-03T20:54:11.34Z</time></trkpt><trkpt lat="45.9621683" lon="12.72863"><ele>22.333333333333332</ele><time>2026-04-03T20:54:14.34Z</time></trkpt><trkpt lat="45.9621667" lon="12.7287267"><ele>22.5</ele><time>2026-04-03T20:54:16.34Z</time></trkpt><trkpt lat="45.96212" lon="12.7288267"><ele>22.666666666666668</ele><time>2026-04-03T20:54:19.34Z</time></trkpt><trkpt lat="45.9620633" lon="12.7288967"><ele>22.833333333333336</ele><time>2026-04-03T20:54:22.34Z</time></trkpt><trkpt lat="45.961995" lon="12.7289517"><ele>23.0</ele><time>2026-04-03T20:54:26.34Z</time></trkpt><trkpt lat="45.9619117" lon="12.7289883"><ele>23.0</ele><time>2026-04-03T20:54:30.34Z</time></trkpt><trkpt lat="45.961835" lon="12.72902"><ele>23.0</ele><time>2026-04-03T20:54:33.341Z</time></trkpt><trkpt lat="45.96177" lon="12.7290733"><ele>23.0</ele><time>2026-04-03T20:54:36.34Z</time></trkpt><trkpt lat="45.9617067" lon="12.7290933"><ele>23.0</ele><time>2026-04-03T20:54:39.34Z</time></trkpt><trkpt lat="45.961635" lon="12.7290833"><ele>23.0</ele><time>2026-04-03T20:54:41.34Z</time></trkpt><trkpt lat="45.9615433" lon="12.7291033"><ele>23.0</ele><time>2026-04-03T20:54:43.34Z</time></trkpt><trkpt lat="45.9614567" lon="12.7291367"><ele>23.166666666666668</ele><time>2026-04-03T20:54:45.34Z</time></trkpt><trkpt lat="45.9613733" lon="12.729175"><ele>23.333333333333336</ele><time>2026-04-03T20:54:48.34Z</time></trkpt><trkpt lat="45.9612967" lon="12.729205"><ele>23.5</ele><time>2026-04-03T20:54:51.34Z</time></trkpt><trkpt lat="45.961235" lon="12.7292283"><ele>23.666666666666668</ele><time>2026-04-03T20:54:53.34Z</time></trkpt><trkpt lat="45.96116" lon="12.7292433"><ele>23.833333333333332</ele><time>2026-04-03T20:54:56.34Z</time></trkpt><trkpt lat="45.96109" lon="12.72927"><ele>24.0</ele><time>2026-04-03T20:54:59.34Z</time></trkpt><trkpt lat="45.9610217" lon="12.7293033"><ele>24.0</ele><time>2026-04-03T20:55:01.34Z</time></trkpt><trkpt lat="45.96093" lon="12.7293417"><ele>24.0</ele><time>2026-04-03T20:55:03.34Z</time></trkpt><trkpt lat="45.9608417" lon="12.7293233"><ele>24.0</ele><time>2026-04-03T20:55:05.34Z</time></trkpt><trkpt lat="45.9607583" lon="12.72927"><ele>24.0</ele><time>2026-04-03T20:55:07.34Z</time></trkpt><trkpt lat="45.960685" lon="12.72922"><ele>24.0</ele><time>2026-04-03T20:55:09.341Z</time></trkpt><trkpt lat="45.9605933" lon="12.7291867"><ele>23.833333333333332</ele><time>2026-04-03T20:55:11.34Z</time></trkpt><trkpt lat="45.9605" lon="12.7291633"><ele>23.666666666666668</ele><time>2026-04-03T20:55:13.34Z</time></trkpt><trkpt lat="45.9604167" lon="12.729135"><ele>23.5</ele><time>2026-04-03T20:55:15.34Z</time></trkpt><trkpt lat="45.9603383" lon="12.7291183"><ele>23.333333333333336</ele><time>2026-04-03T20:55:17.34Z</time></trkpt><trkpt lat="45.96026" lon="12.7290717"><ele>23.166666666666668</ele><time>2026-04-03T20:55:20.341Z</time></trkpt><trkpt lat="45.9602033" lon="12.7290283"><ele>23.0</ele><time>2026-04-03T20:55:22.34Z</time></trkpt><trkpt lat="45.96015" lon="12.7289367"><ele>23.0</ele><time>2026-04-03T20:55:25.34Z</time></trkpt><trkpt lat="45.9601283" lon="12.72883"><ele>23.0</ele><time>2026-04-03T20:55:28.341Z</time></trkpt><trkpt lat="45.9601617" lon="12.7287133"><ele>23.0</ele><time>2026-04-03T20:55:31.34Z</time></trkpt><trkpt lat="45.9602433" lon="12.72864"><ele>23.0</ele><time>2026-04-03T20:55:34.34Z</time></trkpt><trkpt lat="45.9603083" lon="12.7286383"><ele>23.0</ele><time>2026-04-03T20:55:36.34Z</time></trkpt><trkpt lat="45.9603783" lon="12.7286467"><ele>23.0</ele><time>2026-04-03T20:55:38.34Z</time></trkpt><trkpt lat="45.9604483" lon="12.7286483"><ele>23.0</ele><time>2026-04-03T20:55:40.341Z</time></trkpt><trkpt lat="45.9605167" lon="12.7286567"><ele>23.0</ele><time>2026-04-03T20:55:42.34Z</time></trkpt><trkpt lat="45.96058" lon="12.7286567"><ele>23.0</ele><time>2026-04-03T20:55:44.34Z</time></trkpt><trkpt lat="45.9606433" lon="12.7286567"><ele>23.0</ele><time>2026-04-03T20:55:46.34Z</time></trkpt><trkpt lat="45.9607117" lon="12.728655"><ele>23.0</ele><time>2026-04-03T20:55:48.34Z</time></trkpt><trkpt lat="45.9607817" lon="12.7286633"><ele>23.0</ele><time>2026-04-03T20:55:50.34Z</time></trkpt><trkpt lat="45.9608467" lon="12.7286683"><ele>23.0</ele><time>2026-04-03T20:55:52.341Z</time></trkpt><trkpt lat="45.96091" lon="12.728665"><ele>23.142857142857142</ele><time>2026-04-03T20:55:55.34Z</time></trkpt><trkpt lat="45.96098" lon="12.7286717"><ele>23.285714285714285</ele><time>2026-04-03T20:56:08.34Z</time></trkpt><trkpt lat="45.9610467" lon="12.7286867"><ele>23.428571428571427</ele><time>2026-04-03T20:56:11.34Z</time></trkpt><trkpt lat="45.9611167" lon="12.7286617"><ele>23.57142857142857</ele><time>2026-04-03T20:56:16.34Z</time></trkpt><trkpt lat="45.9611783" lon="12.7285917"><ele>23.714285714285715</ele><time>2026-04-03T20:56:23.34Z</time></trkpt><trkpt lat="45.9611783" lon="12.72849"><ele>23.857142857142854</ele><time>2026-04-03T20:56:28.34Z</time></trkpt><trkpt lat="45.9612017" lon="12.7283917"><ele>24.0</ele><time>2026-04-03T20:56:32.34Z</time></trkpt><trkpt lat="45.961255" lon="12.728325"><ele>23.57142857142857</ele><time>2026-04-03T20:56:35.34Z</time></trkpt><trkpt lat="45.9613267" lon="12.7282683"><ele>23.142857142857142</ele><time>2026-04-03T20:56:38.34Z</time></trkpt><trkpt lat="45.9613517" lon="12.72817"><ele>22.714285714285715</ele><time>2026-04-03T20:56:42.34Z</time></trkpt><trkpt lat="45.961305" lon="12.7280783"><ele>22.285714285714285</ele><time>2026-04-03T20:56:47.34Z</time></trkpt><trkpt lat="45.9612417" lon="12.72808"><ele>21.857142857142858</ele><time>2026-04-03T20:56:50.34Z</time></trkpt><trkpt lat="45.9611717" lon="12.7281"><ele>21.428571428571427</ele><time>2026-04-03T20:56:53.34Z</time></trkpt><trkpt lat="45.9610917" lon="12.72809"><ele>21.0</ele><time>2026-04-03T20:56:56.34Z</time></trkpt><trkpt lat="45.961015" lon="12.72808"><ele>21.0</ele><time>2026-04-03T20:56:59.34Z</time></trkpt><trkpt lat="45.9608833" lon="12.7280533"><ele>21.0</ele><time>2026-04-03T20:57:11.34Z</time></trkpt><trkpt lat="45.9608267" lon="12.7279883"><ele>21.0</ele><time>2026-04-03T20:57:16.34Z</time></trkpt><trkpt lat="45.9607483" lon="12.727825"><ele>21.0</ele><time>2026-04-03T20:57:39.34Z</time></trkpt><trkpt lat="45.960695" lon="12.727765"><ele>21.0</ele><time>2026-04-03T20:57:43.34Z</time></trkpt><trkpt lat="45.96063" lon="12.7276983"><ele>21.285714285714285</ele><time>2026-04-03T20:57:47.34Z</time></trkpt><trkpt lat="45.9605583" lon="12.7277233"><ele>21.57142857142857</ele><time>2026-04-03T20:57:51.34Z</time></trkpt><trkpt lat="45.960525" lon="12.7278083"><ele>21.857142857142858</ele><time>2026-04-03T20:57:55.34Z</time></trkpt><trkpt lat="45.9605017" lon="12.7279283"><ele>22.142857142857142</ele><time>2026-04-03T20:58:03.34Z</time></trkpt><trkpt lat="45.96043" lon="12.7279467"><ele>22.428571428571427</ele><time>2026-04-03T20:58:08.34Z</time></trkpt><trkpt lat="45.960365" lon="12.7279383"><ele>22.714285714285715</ele><time>2026-04-03T20:58:11.34Z</time></trkpt><trkpt lat="45.9603483" lon="12.7278467"><ele>23.0</ele><time>2026-04-03T20:58:15.34Z</time></trkpt><trkpt lat="45.9603183" lon="12.7277667"><ele>22.857142857142858</ele><time>2026-04-03T20:58:18.34Z</time></trkpt><trkpt lat="45.9602833" lon="12.7276783"><ele>22.71428571428571</ele><time>2026-04-03T20:58:21.34Z</time></trkpt><trkpt lat="45.9602683" lon="12.7275867"><ele>22.57142857142857</ele><time>2026-04-03T20:58:24.34Z</time></trkpt><trkpt lat="45.9601983" lon="12.7275533"><ele>22.42857142857143</ele><time>2026-04-03T20:58:27.34Z</time></trkpt><trkpt lat="45.9601383" lon="12.7275233"><ele>22.285714285714285</ele><time>2026-04-03T20:58:29.34Z</time></trkpt><trkpt lat="45.960065" lon="12.7274767"><ele>22.142857142857142</ele><time>2026-04-03T20:58:32.34Z</time></trkpt><trkpt lat="45.9599933" lon="12.727415"><ele>22.0</ele><time>2026-04-03T20:58:36.34Z</time></trkpt><trkpt lat="45.9598583" lon="12.7272783"><ele>22.0</ele><time>2026-04-03T20:58:55.34Z</time></trkpt><trkpt lat="45.95975" lon="12.7272083"><ele>22.0</ele><time>2026-04-03T20:59:18.34Z</time></trkpt><trkpt lat="45.9596617" lon="12.72716"><ele>22.0</ele><time>2026-04-03T21:00:00.34Z</time></trkpt><trkpt lat="45.9595633" lon="12.72711"><ele>22.0</ele><time>2026-04-03T21:00:33.34Z</time></trkpt><trkpt lat="45.9594933" lon="12.72711"><ele>22.0</ele><time>2026-04-03T21:00:47.34Z</time></trkpt><trkpt lat="45.9594083" lon="12.7270233"><ele>22.0</ele><time>2026-04-03T21:01:32.34Z</time></trkpt><trkpt lat="45.95936" lon="12.7269583"><ele>22.0</ele><time>2026-04-03T21:01:37.34Z</time></trkpt><trkpt lat="45.9593067" lon="12.7268717"><ele>22.0</ele><time>2026-04-03T21:01:46.34Z</time></trkpt><trkpt lat="45.9592783" lon="12.726735"><ele>22.0</ele><time>2026-04-03T21:01:55.34Z</time></trkpt><trkpt lat="45.959255" lon="12.7266417"><ele>22.0</ele><time>2026-04-03T21:02:00.34Z</time></trkpt><trkpt lat="45.9592017" lon="12.7265517"><ele>22.0</ele><time>2026-04-03T21:02:07.34Z</time></trkpt><trkpt lat="45.9591083" lon="12.72637"><ele>22.0</ele><time>2026-04-03T21:04:23.339Z</time></trkpt><trkpt lat="45.9590367" lon="12.7262617"><ele>22.0</ele><time>2026-04-03T21:04:33.339Z</time></trkpt><trkpt lat="45.9589667" lon="12.726115"><ele>22.0</ele><time>2026-04-03T21:05:08.339Z</time></trkpt><trkpt lat="45.95889" lon="12.726105"><ele>22.0</ele><time>2026-04-03T21:05:15.339Z</time></trkpt><trkpt lat="45.9588317" lon="12.7260667"><ele>22.0</ele><time>2026-04-03T21:05:20.339Z</time></trkpt><trkpt lat="45.9587767" lon="12.726005"><ele>22.0</ele><time>2026-04-03T21:05:24.339Z</time></trkpt><trkpt lat="45.9587333" lon="12.725935"><ele>22.0</ele><time>2026-04-03T21:05:29.339Z</time></trkpt><trkpt lat="45.958675" lon="12.725825"><ele>22.0</ele><time>2026-04-03T21:07:31.339Z</time></trkpt><trkpt lat="45.958595" lon="12.7257517"><ele>22.0</ele><time>2026-04-03T21:07:41.339Z</time></trkpt><trkpt lat="45.9585483" lon="12.72567"><ele>22.0</ele><time>2026-04-03T21:07:45.339Z</time></trkpt><trkpt lat="45.958475" lon="12.72551"><ele>22.0</ele><time>2026-04-03T21:10:19.339Z</time></trkpt><trkpt lat="45.9583033" lon="12.725705"><ele>22.0</ele><time>2026-04-03T21:30:57.57Z</time></trkpt><trkpt lat="45.95845" lon="12.7257017"><ele>22.0</ele><time>2026-04-03T21:31:00.336Z</time></trkpt><trkpt lat="45.9585217" lon="12.72565"><ele>22.0</ele><time>2026-04-03T21:31:06.336Z</time></trkpt><trkpt lat="45.9586267" lon="12.72565"><ele>22.0</ele><time>2026-04-03T21:31:09.336Z</time></trkpt><trkpt lat="45.9585583" lon="12.72558"><ele>22.0</ele><time>2026-04-03T21:32:05.336Z</time></trkpt><trkpt lat="45.9585233" lon="12.7255017"><ele>22.0</ele><time>2026-04-03T21:32:10.336Z</time></trkpt><trkpt lat="45.9584633" lon="12.725455"><ele>22.0</ele><time>2026-04-03T21:32:15.336Z</time></trkpt><trkpt lat="45.9584183" lon="12.7253867"><ele>22.0</ele><time>2026-04-03T21:32:24.336Z</time></trkpt><trkpt lat="45.958375" lon="12.7252983"><ele>22.0</ele><time>2026-04-03T21:32:32.336Z</time></trkpt><trkpt lat="45.958375" lon="12.725195"><ele>22.0</ele><time>2026-04-03T21:32:40.336Z</time></trkpt><trkpt lat="45.958415" lon="12.7251083"><ele>22.0</ele><time>2026-04-03T21:32:44.336Z</time></trkpt><trkpt lat="45.95847" lon="12.725055"><ele>22.0</ele><time>2026-04-03T21:32:51.336Z</time></trkpt><trkpt lat="45.9585517" lon="12.7250217"><ele>22.285714285714285</ele><time>2026-04-03T21:33:19.337Z</time></trkpt><trkpt lat="45.95862" lon="12.7250233"><ele>22.57142857142857</ele><time>2026-04-03T21:33:25.336Z</time></trkpt><trkpt lat="45.9586817" lon="12.7249467"><ele>22.857142857142854</ele><time>2026-04-03T21:33:30.336Z</time></trkpt><trkpt lat="45.9587017" lon="12.7248133"><ele>23.142857142857142</ele><time>2026-04-03T21:33:33.336Z</time></trkpt><trkpt lat="45.9587067" lon="12.7247167"><ele>23.428571428571427</ele><time>2026-04-03T21:33:35.336Z</time></trkpt><trkpt lat="45.9586967" lon="12.724625"><ele>23.71428571428571</ele><time>2026-04-03T21:33:37.336Z</time></trkpt><trkpt lat="45.9586517" lon="12.7245467"><ele>24.0</ele><time>2026-04-03T21:33:41.336Z</time></trkpt><trkpt lat="45.95858" lon="12.7245317"><ele>23.999999999999996</ele><time>2026-04-03T21:33:45.336Z</time></trkpt><trkpt lat="45.9585383" lon="12.72446"><ele>24.0</ele><time>2026-04-03T21:33:50.336Z</time></trkpt><trkpt lat="45.958535" lon="12.724365"><ele>24.0</ele><time>2026-04-03T21:33:53.336Z</time></trkpt><trkpt lat="45.9585367" lon="12.7242617"><ele>24.0</ele><time>2026-04-03T21:33:56.336Z</time></trkpt><trkpt lat="45.9585183" lon="12.72416"><ele>24.0</ele><time>2026-04-03T21:33:59.336Z</time></trkpt><trkpt lat="45.9585233" lon="12.724065"><ele>23.999999999999996</ele><time>2026-04-03T21:34:03.336Z</time></trkpt><trkpt lat="45.95854" lon="12.723975"><ele>24.0</ele><time>2026-04-03T21:34:10.336Z</time></trkpt><trkpt lat="45.9585467" lon="12.7238817"><ele>24.0</ele><time>2026-04-03T21:34:30.336Z</time></trkpt><trkpt lat="45.9585483" lon="12.7237783"><ele>24.0</ele><time>2026-04-03T21:58:51.334Z</time></trkpt><trkpt lat="45.9585017" lon="12.7236983"><ele>24.0</ele><time>2026-04-03T21:58:56.335Z</time></trkpt><trkpt lat="45.9585617" lon="12.72365"><ele>24.0</ele><time>2026-04-03T21:59:27.334Z</time></trkpt><trkpt lat="45.958585" lon="12.7235633"><ele>24.0</ele><time>2026-04-03T21:59:37.334Z</time></trkpt><trkpt lat="45.9585233" lon="12.72367"><ele>24.0</ele><time>2026-04-03T22:02:05.334Z</time></trkpt><trkpt lat="45.958475" lon="12.7238067"><ele>23.999999999999996</ele><time>2026-04-03T22:02:30.334Z</time></trkpt><trkpt lat="45.95843" lon="12.723875"><ele>24.0</ele><time>2026-04-03T22:02:36.334Z</time></trkpt><trkpt lat="45.958375" lon="12.72394"><ele>24.0</ele><time>2026-04-03T22:02:41.334Z</time></trkpt><trkpt lat="45.958325" lon="12.724"><ele>24.0</ele><time>2026-04-03T22:02:46.334Z</time></trkpt><trkpt lat="45.9582867" lon="12.72413"><ele>24.0</ele><time>2026-04-03T22:03:34.334Z</time></trkpt><trkpt lat="45.9582817" lon="12.7242217"><ele>23.999999999999996</ele><time>2026-04-03T22:03:40.334Z</time></trkpt><trkpt lat="45.9582467" lon="12.7243133"><ele>24.0</ele><time>2026-04-03T22:03:47.334Z</time></trkpt><trkpt lat="45.9581867" lon="12.7243883"><ele>23.71428571428571</ele><time>2026-04-03T22:03:51.334Z</time></trkpt><trkpt lat="45.958115" lon="12.72436"><ele>23.428571428571427</ele><time>2026-04-03T22:03:56.334Z</time></trkpt><trkpt lat="45.9580717" lon="12.7242617"><ele>23.142857142857142</ele><time>2026-04-03T22:03:59.334Z</time></trkpt><trkpt lat="45.9580717" lon="12.72415"><ele>22.857142857142854</ele><time>2026-04-03T22:04:02.334Z</time></trkpt><trkpt lat="45.9580867" lon="12.7240483"><ele>22.57142857142857</ele><time>2026-04-03T22:04:05.334Z</time></trkpt><trkpt lat="45.9581017" lon="12.723955"><ele>22.285714285714285</ele><time>2026-04-03T22:04:07.335Z</time></trkpt><trkpt lat="45.95811" lon="12.723855"><ele>22.0</ele><time>2026-04-03T22:04:09.334Z</time></trkpt><trkpt lat="45.9581133" lon="12.7237433"><ele>22.0</ele><time>2026-04-03T22:04:11.334Z</time></trkpt><trkpt lat="45.958115" lon="12.7236517"><ele>22.0</ele><time>2026-04-03T22:04:13.334Z</time></trkpt><trkpt lat="45.9581033" lon="12.72356"><ele>22.0</ele><time>2026-04-03T22:04:18.334Z</time></trkpt><trkpt lat="45.9581833" lon="12.7234817"><ele>22.0</ele><time>2026-04-03T22:06:22.334Z</time></trkpt><trkpt lat="45.9582333" lon="12.7233733"><ele>22.0</ele><time>2026-04-03T22:07:50.334Z</time></trkpt><trkpt lat="45.9582367" lon="12.7232817"><ele>22.0</ele><time>2026-04-03T22:07:54.334Z</time></trkpt><trkpt lat="45.9582683" lon="12.7231983"><ele>22.0</ele><time>2026-04-03T22:08:06.334Z</time></trkpt><trkpt lat="45.9582933" lon="12.7231033"><ele>22.0</ele><time>2026-04-03T22:08:14.334Z</time></trkpt><trkpt lat="45.9583217" lon="12.7230117"><ele>22.0</ele><time>2026-04-03T22:08:21.334Z</time></trkpt><trkpt lat="45.9583233" lon="12.72291"><ele>22.0</ele><time>2026-04-03T22:08:30.334Z</time></trkpt><trkpt lat="45.9583317" lon="12.7228117"><ele>22.0</ele><time>2026-04-03T22:08:37.334Z</time></trkpt><trkpt lat="45.9583333" lon="12.7227167"><ele>22.0</ele><time>2026-04-03T22:08:43.334Z</time></trkpt><trkpt lat="45.9582767" lon="12.72276"><ele>22.0</ele><time>2026-04-03T22:19:22.335Z</time></trkpt><trkpt lat="45.958315" lon="12.7226717"><ele>22.0</ele><time>2026-04-03T22:19:27.334Z</time></trkpt><trkpt lat="45.958365" lon="12.7225833"><ele>22.0</ele><time>2026-04-03T22:19:30.334Z</time></trkpt><trkpt lat="45.9583933" lon="12.7224617"><ele>22.0</ele><time>2026-04-03T22:19:33.335Z</time></trkpt><trkpt lat="45.9584217" lon="12.7223583"><ele>22.0</ele><time>2026-04-03T22:19:36.334Z</time></trkpt><trkpt lat="45.9584167" lon="12.72226"><ele>22.0</ele><time>2026-04-03T22:19:41.334Z</time></trkpt><trkpt lat="45.9583833" lon="12.722165"><ele>22.0</ele><time>2026-04-03T22:19:44.334Z</time></trkpt><trkpt lat="45.9583667" lon="12.7220633"><ele>22.0</ele><time>2026-04-03T22:19:46.334Z</time></trkpt><trkpt lat="45.9583717" lon="12.7219633"><ele>21.857142857142858</ele><time>2026-04-03T22:19:49.334Z</time></trkpt><trkpt lat="45.9584" lon="12.7218717"><ele>21.714285714285715</ele><time>2026-04-03T22:19:53.334Z</time></trkpt><trkpt lat="45.9583833" lon="12.7217633"><ele>21.57142857142857</ele><time>2026-04-03T22:19:57.334Z</time></trkpt><trkpt lat="45.9584033" lon="12.7216517"><ele>21.42857142857143</ele><time>2026-04-03T22:20:00.334Z</time></trkpt><trkpt lat="45.9584383" lon="12.721555"><ele>21.285714285714285</ele><time>2026-04-03T22:20:02.334Z</time></trkpt><trkpt lat="45.9584617" lon="12.72147"><ele>21.142857142857142</ele><time>2026-04-03T22:20:04.334Z</time></trkpt><trkpt lat="45.9584633" lon="12.721365"><ele>21.0</ele><time>2026-04-03T22:20:07.334Z</time></trkpt><trkpt lat="45.9584533" lon="12.72127"><ele>21.0</ele><time>2026-04-03T22:20:10.334Z</time></trkpt><trkpt lat="45.9584617" lon="12.72116"><ele>21.0</ele><time>2026-04-03T22:20:14.334Z</time></trkpt><trkpt lat="45.9584917" lon="12.7210483"><ele>21.0</ele><time>2026-04-03T22:20:18.334Z</time></trkpt><trkpt lat="45.95852" lon="12.7209583"><ele>21.0</ele><time>2026-04-03T22:20:21.334Z</time></trkpt><trkpt lat="45.9585483" lon="12.7208467"><ele>21.0</ele><time>2026-04-03T22:20:24.335Z</time></trkpt><trkpt lat="45.9585917" lon="12.72076"><ele>21.0</ele><time>2026-04-03T22:20:27.335Z</time></trkpt><trkpt lat="45.9586183" lon="12.7206483"><ele>20.857142857142858</ele><time>2026-04-03T22:20:30.334Z</time></trkpt><trkpt lat="45.9586167" lon="12.720545"><ele>20.714285714285715</ele><time>2026-04-03T22:20:33.334Z</time></trkpt><trkpt lat="45.9585867" lon="12.7204633"><ele>20.57142857142857</ele><time>2026-04-03T22:20:39.334Z</time></trkpt><trkpt lat="45.9585117" lon="12.720455"><ele>20.42857142857143</ele><time>2026-04-03T22:20:46.334Z</time></trkpt><trkpt lat="45.9584683" lon="12.7203683"><ele>20.285714285714285</ele><time>2026-04-03T22:20:52.334Z</time></trkpt><trkpt lat="45.9584267" lon="12.7202817"><ele>20.142857142857142</ele><time>2026-04-03T22:20:56.334Z</time></trkpt><trkpt lat="45.958375" lon="12.720215"><ele>20.0</ele><time>2026-04-03T22:20:59.334Z</time></trkpt><trkpt lat="45.9583383" lon="12.7201117"><ele>20.0</ele><time>2026-04-03T22:21:02.334Z</time></trkpt><trkpt lat="45.9582833" lon="12.720015"><ele>20.0</ele><time>2026-04-03T22:21:05.334Z</time></trkpt><trkpt lat="45.9582133" lon="12.719935"><ele>20.0</ele><time>2026-04-03T22:21:08.334Z</time></trkpt><trkpt lat="45.9581667" lon="12.7198733"><ele>20.0</ele><time>2026-04-03T22:21:10.334Z</time></trkpt><trkpt lat="45.958155" lon="12.71974"><ele>20.0</ele><time>2026-04-03T22:21:13.334Z</time></trkpt><trkpt lat="45.9581933" lon="12.7196383"><ele>20.0</ele><time>2026-04-03T22:21:15.334Z</time></trkpt><trkpt lat="45.9582383" lon="12.71954"><ele>20.0</ele><time>2026-04-03T22:21:17.334Z</time></trkpt><trkpt lat="45.9582567" lon="12.7194417"><ele>20.0</ele><time>2026-04-03T22:21:20.334Z</time></trkpt><trkpt lat="45.958205" lon="12.7193817"><ele>20.0</ele><time>2026-04-03T22:21:24.334Z</time></trkpt><trkpt lat="45.9581567" lon="12.7193133"><ele>20.0</ele><time>2026-04-03T22:21:28.334Z</time></trkpt><trkpt lat="45.9580967" lon="12.7192633"><ele>20.0</ele><time>2026-04-03T22:21:32.334Z</time></trkpt><trkpt lat="45.9580383" lon="12.7192183"><ele>20.0</ele><time>2026-04-03T22:21:38.334Z</time></trkpt><trkpt lat="45.957985" lon="12.71914"><ele>20.0</ele><time>2026-04-03T22:21:42.334Z</time></trkpt><trkpt lat="45.957935" lon="12.719045"><ele>20.0</ele><time>2026-04-03T22:21:45.334Z</time></trkpt><trkpt lat="45.9579317" lon="12.7189217"><ele>20.0</ele><time>2026-04-03T22:21:48.334Z</time></trkpt><trkpt lat="45.9579417" lon="12.7188167"><ele>20.0</ele><time>2026-04-03T22:21:51.334Z</time></trkpt><trkpt lat="45.95788" lon="12.7187683"><ele>20.0</ele><time>2026-04-03T22:21:57.334Z</time></trkpt><trkpt lat="45.9577983" lon="12.7187183"><ele>20.0</ele><time>2026-04-03T22:22:01.335Z</time></trkpt><trkpt lat="45.9577367" lon="12.7186317"><ele>20.0</ele><time>2026-04-03T22:22:04.334Z</time></trkpt><trkpt lat="45.95768" lon="12.7185617"><ele>20.0</ele><time>2026-04-03T22:22:06.334Z</time></trkpt><trkpt lat="45.95763" lon="12.718475"><ele>20.0</ele><time>2026-04-03T22:22:08.334Z</time></trkpt><trkpt lat="45.9576167" lon="12.718375"><ele>20.0</ele><time>2026-04-03T22:22:10.334Z</time></trkpt><trkpt lat="45.9576433" lon="12.7182217"><ele>20.0</ele><time>2026-04-03T22:22:12.334Z</time></trkpt><trkpt lat="45.9576917" lon="12.7180833"><ele>20.0</ele><time>2026-04-03T22:22:14.334Z</time></trkpt><trkpt lat="45.957745" lon="12.7179433"><ele>20.0</ele><time>2026-04-03T22:22:16.335Z</time></trkpt><trkpt lat="45.9578033" lon="12.7178183"><ele>20.0</ele><time>2026-04-03T22:22:18.334Z</time></trkpt><trkpt lat="45.9578683" lon="12.717705"><ele>20.0</ele><time>2026-04-03T22:22:20.334Z</time></trkpt><trkpt lat="45.9579167" lon="12.71762"><ele>20.0</ele><time>2026-04-03T22:22:22.334Z</time></trkpt><trkpt lat="45.9579583" lon="12.7175467"><ele>20.0</ele><time>2026-04-03T22:22:24.334Z</time></trkpt><trkpt lat="45.95801" lon="12.717495"><ele>20.0</ele><time>2026-04-03T22:22:26.334Z</time></trkpt><trkpt lat="45.95807" lon="12.71744"><ele>20.142857142857142</ele><time>2026-04-03T22:22:29.334Z</time></trkpt><trkpt lat="45.9581333" lon="12.7174217"><ele>20.285714285714285</ele><time>2026-04-03T22:22:32.334Z</time></trkpt><trkpt lat="45.9581967" lon="12.71744"><ele>20.42857142857143</ele><time>2026-04-03T22:22:36.334Z</time></trkpt><trkpt lat="45.9582667" lon="12.7174533"><ele>20.57142857142857</ele><time>2026-04-03T22:22:41.334Z</time></trkpt><trkpt lat="45.9583367" lon="12.7174867"><ele>20.714285714285715</ele><time>2026-04-03T22:22:45.334Z</time></trkpt><trkpt lat="45.9583983" lon="12.7174467"><ele>20.857142857142858</ele><time>2026-04-03T22:22:49.334Z</time></trkpt><trkpt lat="45.95847" lon="12.7174317"><ele>21.0</ele><time>2026-04-03T22:22:53.334Z</time></trkpt><trkpt lat="45.95852" lon="12.717505"><ele>20.571428571428573</ele><time>2026-04-03T22:22:56.334Z</time></trkpt><trkpt lat="45.9585133" lon="12.7176383"><ele>20.142857142857142</ele><time>2026-04-03T22:22:59.334Z</time></trkpt><trkpt lat="45.9584717" lon="12.7177133"><ele>19.714285714285715</ele><time>2026-04-03T22:23:01.334Z</time></trkpt><trkpt lat="45.958415" lon="12.717765"><ele>19.285714285714285</ele><time>2026-04-03T22:23:03.334Z</time></trkpt><trkpt lat="45.958375" lon="12.71785"><ele>18.857142857142858</ele><time>2026-04-03T22:23:06.334Z</time></trkpt><trkpt lat="45.9583833" lon="12.7179467"><ele>18.42857142857143</ele><time>2026-04-03T22:23:10.334Z</time></trkpt><trkpt lat="45.9584367" lon="12.7179983"><ele>18.0</ele><time>2026-04-03T22:23:16.334Z</time></trkpt><trkpt lat="45.9585033" lon="12.7180167"><ele>18.000000000000004</ele><time>2026-04-03T22:23:42.334Z</time></trkpt><trkpt lat="45.9585683" lon="12.7180067"><ele>18.0</ele><time>2026-04-03T22:23:48.334Z</time></trkpt><trkpt lat="45.9586367" lon="12.718045"><ele>18.0</ele><time>2026-04-03T22:23:54.334Z</time></trkpt><trkpt lat="45.9586817" lon="12.7181117"><ele>18.0</ele><time>2026-04-03T22:24:00.334Z</time></trkpt><trkpt lat="45.9587283" lon="12.7181817"><ele>18.0</ele><time>2026-04-03T22:24:11.334Z</time></trkpt><trkpt lat="45.958785" lon="12.71823"><ele>18.000000000000004</ele><time>2026-04-03T22:24:20.334Z</time></trkpt><trkpt lat="45.9588067" lon="12.7183233"><ele>18.0</ele><time>2026-04-03T22:24:37.334Z</time></trkpt><trkpt lat="45.9588" lon="12.7184167"><ele>18.0</ele><time>2026-04-03T22:24:44.334Z</time></trkpt><trkpt lat="45.958765" lon="12.7184983"><ele>18.0</ele><time>2026-04-03T22:24:52.334Z</time></trkpt><trkpt lat="45.9587883" lon="12.7186867"><ele>18.0</ele><time>2026-04-03T22:25:22.334Z</time></trkpt><trkpt lat="45.958915" lon="12.7187033"><ele>18.0</ele><time>2026-04-03T22:25:45.334Z</time></trkpt><trkpt lat="45.958995" lon="12.7186483"><ele>18.0</ele><time>2026-04-03T22:25:49.334Z</time></trkpt><trkpt lat="45.95904" lon="12.7185833"><ele>18.0</ele><time>2026-04-03T22:25:52.334Z</time></trkpt><trkpt lat="45.9590417" lon="12.7184783"><ele>18.0</ele><time>2026-04-03T22:25:55.334Z</time></trkpt><trkpt lat="45.95904" lon="12.718365"><ele>18.0</ele><time>2026-04-03T22:25:58.334Z</time></trkpt><trkpt lat="45.95906" lon="12.718235"><ele>18.0</ele><time>2026-04-03T22:26:01.334Z</time></trkpt><trkpt lat="45.959085" lon="12.7181083"><ele>18.0</ele><time>2026-04-03T22:26:04.334Z</time></trkpt><trkpt lat="45.9591" lon="12.7180167"><ele>18.0</ele><time>2026-04-03T22:26:06.334Z</time></trkpt><trkpt lat="45.959105" lon="12.717895"><ele>18.0</ele><time>2026-04-03T22:26:09.334Z</time></trkpt><trkpt lat="45.9590983" lon="12.7178017"><ele>18.0</ele><time>2026-04-03T22:26:11.334Z</time></trkpt><trkpt lat="45.9591183" lon="12.7176933"><ele>18.0</ele><time>2026-04-03T22:26:14.334Z</time></trkpt><trkpt lat="45.95914" lon="12.7175933"><ele>18.0</ele><time>2026-04-03T22:26:17.334Z</time></trkpt><trkpt lat="45.959135" lon="12.7174917"><ele>18.0</ele><time>2026-04-03T22:26:20.334Z</time></trkpt><trkpt lat="45.9591317" lon="12.7173583"><ele>18.0</ele><time>2026-04-03T22:26:23.334Z</time></trkpt><trkpt lat="45.9591317" lon="12.717255"><ele>18.0</ele><time>2026-04-03T22:26:25.334Z</time></trkpt><trkpt lat="45.9591267" lon="12.717125"><ele>18.0</ele><time>2026-04-03T22:26:28.335Z</time></trkpt><trkpt lat="45.9591183" lon="12.7169967"><ele>18.0</ele><time>2026-04-03T22:26:31.334Z</time></trkpt><trkpt lat="45.95912" lon="12.7169"><ele>18.0</ele><time>2026-04-03T22:26:33.334Z</time></trkpt><trkpt lat="45.9591333" lon="12.7167733"><ele>18.0</ele><time>2026-04-03T22:26:36.334Z</time></trkpt><trkpt lat="45.9591433" lon="12.7166783"><ele>18.0</ele><time>2026-04-03T22:26:38.334Z</time></trkpt><trkpt lat="45.959165" lon="12.7165833"><ele>18.000000000000004</ele><time>2026-04-03T22:26:40.334Z</time></trkpt><trkpt lat="45.9591883" lon="12.7164583"><ele>18.0</ele><time>2026-04-03T22:26:43.334Z</time></trkpt><trkpt lat="45.9592233" lon="12.7163717"><ele>18.0</ele><time>2026-04-03T22:26:45.334Z</time></trkpt><trkpt lat="45.9592583" lon="12.7162817"><ele>18.0</ele><time>2026-04-03T22:26:47.335Z</time></trkpt><trkpt lat="45.9593017" lon="12.7161933"><ele>18.0</ele><time>2026-04-03T22:26:49.334Z</time></trkpt><trkpt lat="45.9593383" lon="12.716105"><ele>18.000000000000004</ele><time>2026-04-03T22:26:51.334Z</time></trkpt><trkpt lat="45.959375" lon="12.7160183"><ele>18.0</ele><time>2026-04-03T22:26:53.334Z</time></trkpt><trkpt lat="45.9594017" lon="12.71593"><ele>18.166666666666668</ele><time>2026-04-03T22:26:55.334Z</time></trkpt><trkpt lat="45.9594183" lon="12.715815"><ele>18.333333333333332</ele><time>2026-04-03T22:26:57.334Z</time></trkpt><trkpt lat="45.959435" lon="12.7156533"><ele>18.5</ele><time>2026-04-03T22:26:59.334Z</time></trkpt><trkpt lat="45.9594433" lon="12.7155533"><ele>18.666666666666664</ele><time>2026-04-03T22:27:00.334Z</time></trkpt><trkpt lat="45.9594533" lon="12.715435"><ele>18.833333333333332</ele><time>2026-04-03T22:27:01.335Z</time></trkpt><trkpt lat="45.9594633" lon="12.715325"><ele>19.0</ele><time>2026-04-03T22:27:02.334Z</time></trkpt><trkpt lat="45.9594717" lon="12.715225"><ele>18.666666666666664</ele><time>2026-04-03T22:27:03.334Z</time></trkpt><trkpt lat="45.9594767" lon="12.71509"><ele>18.333333333333332</ele><time>2026-04-03T22:27:05.334Z</time></trkpt><trkpt lat="45.959495" lon="12.714985"><ele>18.0</ele><time>2026-04-03T22:27:07.334Z</time></trkpt><trkpt lat="45.959515" lon="12.714865"><ele>17.666666666666668</ele><time>2026-04-03T22:27:09.334Z</time></trkpt><trkpt lat="45.9595083" lon="12.71477"><ele>17.333333333333336</ele><time>2026-04-03T22:27:11.334Z</time></trkpt><trkpt lat="45.959455" lon="12.714695"><ele>17.0</ele><time>2026-04-03T22:27:14.335Z</time></trkpt><trkpt lat="45.95939" lon="12.7146917"><ele>16.999999999999996</ele><time>2026-04-03T22:27:17.334Z</time></trkpt><trkpt lat="45.959325" lon="12.714675"><ele>17.0</ele><time>2026-04-03T22:27:21.334Z</time></trkpt><trkpt lat="45.959305" lon="12.7145717"><ele>17.0</ele><time>2026-04-03T22:27:25.334Z</time></trkpt><trkpt lat="45.9593233" lon="12.7144833"><ele>17.0</ele><time>2026-04-03T22:27:27.334Z</time></trkpt><trkpt lat="45.95934" lon="12.7143867"><ele>17.0</ele><time>2026-04-03T22:27:29.334Z</time></trkpt><trkpt lat="45.959345" lon="12.714295"><ele>16.999999999999996</ele><time>2026-04-03T22:27:31.334Z</time></trkpt><trkpt lat="45.9593483" lon="12.7141983"><ele>17.0</ele><time>2026-04-03T22:27:33.334Z</time></trkpt><trkpt lat="45.9593533" lon="12.7140417"><ele>17.2</ele><time>2026-04-03T22:27:35.334Z</time></trkpt><trkpt lat="45.9593483" lon="12.71387"><ele>17.4</ele><time>2026-04-03T22:27:37.334Z</time></trkpt><trkpt lat="45.9593467" lon="12.7137783"><ele>17.6</ele><time>2026-04-03T22:27:38.334Z</time></trkpt><trkpt lat="45.9593467" lon="12.7136117"><ele>17.8</ele><time>2026-04-03T22:27:40.334Z</time></trkpt><trkpt lat="45.9593433" lon="12.7134667"><ele>18.0</ele><time>2026-04-03T22:27:42.334Z</time></trkpt><trkpt lat="45.9593333" lon="12.7132917"><ele>18.142857142857146</ele><time>2026-04-03T22:27:44.334Z</time></trkpt><trkpt lat="45.9593167" lon="12.7131917"><ele>18.285714285714285</ele><time>2026-04-03T22:27:45.334Z</time></trkpt><trkpt lat="45.9592933" lon="12.7131017"><ele>18.42857142857143</ele><time>2026-04-03T22:27:46.334Z</time></trkpt><trkpt lat="45.95927" lon="12.7130083"><ele>18.571428571428573</ele><time>2026-04-03T22:27:47.334Z</time></trkpt><trkpt lat="45.9592433" lon="12.712925"><ele>18.714285714285715</ele><time>2026-04-03T22:27:48.334Z</time></trkpt><trkpt lat="45.9592117" lon="12.712845"><ele>18.857142857142858</ele><time>2026-04-03T22:27:49.334Z</time></trkpt><trkpt lat="45.9591433" lon="12.7127483"><ele>19.0</ele><time>2026-04-03T22:27:51.334Z</time></trkpt><trkpt lat="45.95908" lon="12.7127183"><ele>19.0</ele><time>2026-04-03T22:27:53.334Z</time></trkpt><trkpt lat="45.9590133" lon="12.7126767"><ele>19.0</ele><time>2026-04-03T22:27:57.334Z</time></trkpt><trkpt lat="45.95896" lon="12.7125883"><ele>19.0</ele><time>2026-04-03T22:28:03.334Z</time></trkpt><trkpt lat="45.9589183" lon="12.7125167"><ele>19.0</ele><time>2026-04-03T22:28:06.334Z</time></trkpt><trkpt lat="45.9588617" lon="12.71245"><ele>19.0</ele><time>2026-04-03T22:28:10.334Z</time></trkpt><trkpt lat="45.958805" lon="12.7123917"><ele>19.0</ele><time>2026-04-03T22:28:15.334Z</time></trkpt><trkpt lat="45.9587567" lon="12.7122983"><ele>19.0</ele><time>2026-04-03T22:28:19.334Z</time></trkpt><trkpt lat="45.9586917" lon="12.7122933"><ele>19.0</ele><time>2026-04-03T22:28:22.334Z</time></trkpt><trkpt lat="45.9586317" lon="12.7123267"><ele>19.0</ele><time>2026-04-03T22:28:25.334Z</time></trkpt><trkpt lat="45.95856" lon="12.7123467"><ele>19.0</ele><time>2026-04-03T22:28:29.334Z</time></trkpt><trkpt lat="45.958485" lon="12.712295"><ele>19.0</ele><time>2026-04-03T22:28:32.334Z</time></trkpt><trkpt lat="45.9584167" lon="12.71232"><ele>19.0</ele><time>2026-04-03T22:28:35.334Z</time></trkpt><trkpt lat="45.9582667" lon="12.7123317"><ele>19.0</ele><time>2026-04-03T22:28:51.335Z</time></trkpt><trkpt lat="45.9581917" lon="12.7123267"><ele>19.333333333333332</ele><time>2026-04-03T22:28:54.334Z</time></trkpt><trkpt lat="45.9581283" lon="12.7123067"><ele>19.666666666666664</ele><time>2026-04-03T22:28:57.335Z</time></trkpt><trkpt lat="45.9580367" lon="12.7122483"><ele>20.0</ele><time>2026-04-03T22:29:04.334Z</time></trkpt><trkpt lat="45.9579717" lon="12.71219"><ele>20.333333333333332</ele><time>2026-04-03T22:29:07.334Z</time></trkpt><trkpt lat="45.9579183" lon="12.7121367"><ele>20.666666666666668</ele><time>2026-04-03T22:29:11.334Z</time></trkpt><trkpt lat="45.9578633" lon="12.712045"><ele>21.0</ele><time>2026-04-03T22:29:14.334Z</time></trkpt><trkpt lat="45.9578217" lon="12.71194"><ele>20.833333333333332</ele><time>2026-04-03T22:29:16.334Z</time></trkpt><trkpt lat="45.95782" lon="12.7118367"><ele>20.666666666666668</ele><time>2026-04-03T22:29:19.334Z</time></trkpt><trkpt lat="45.9577917" lon="12.71172"><ele>20.5</ele><time>2026-04-03T22:29:22.334Z</time></trkpt><trkpt lat="45.9577583" lon="12.7116217"><ele>20.333333333333336</ele><time>2026-04-03T22:29:24.334Z</time></trkpt><trkpt lat="45.957705" lon="12.71151"><ele>20.166666666666668</ele><time>2026-04-03T22:29:26.334Z</time></trkpt><trkpt lat="45.9576583" lon="12.711445"><ele>20.0</ele><time>2026-04-03T22:29:27.334Z</time></trkpt><trkpt lat="45.95757" lon="12.7113117"><ele>19.833333333333336</ele><time>2026-04-03T22:29:29.334Z</time></trkpt><trkpt lat="45.9575167" lon="12.7112283"><ele>19.666666666666668</ele><time>2026-04-03T22:29:30.334Z</time></trkpt><trkpt lat="45.95747" lon="12.7111533"><ele>19.5</ele><time>2026-04-03T22:29:31.334Z</time></trkpt><trkpt lat="45.9573933" lon="12.711025"><ele>19.333333333333332</ele><time>2026-04-03T22:29:33.334Z</time></trkpt><trkpt lat="45.95732" lon="12.71092"><ele>19.166666666666664</ele><time>2026-04-03T22:29:35.334Z</time></trkpt><trkpt lat="45.9572667" lon="12.7108433"><ele>19.0</ele><time>2026-04-03T22:29:37.334Z</time></trkpt><trkpt lat="45.9571967" lon="12.7107667"><ele>19.0</ele><time>2026-04-03T22:29:40.334Z</time></trkpt><trkpt lat="45.9571467" lon="12.71071"><ele>19.0</ele><time>2026-04-03T22:29:43.334Z</time></trkpt><trkpt lat="45.9571017" lon="12.7106383"><ele>19.0</ele><time>2026-04-03T22:29:46.334Z</time></trkpt><trkpt lat="45.9570467" lon="12.710575"><ele>19.0</ele><time>2026-04-03T22:29:49.334Z</time></trkpt><trkpt lat="45.9569683" lon="12.7105117"><ele>19.0</ele><time>2026-04-03T22:29:52.335Z</time></trkpt><trkpt lat="45.9569067" lon="12.71046"><ele>19.0</ele><time>2026-04-03T22:29:54.334Z</time></trkpt><trkpt lat="45.9568417" lon="12.710385"><ele>19.0</ele><time>2026-04-03T22:29:56.334Z</time></trkpt><trkpt lat="45.9567783" lon="12.7103017"><ele>19.0</ele><time>2026-04-03T22:29:58.334Z</time></trkpt><trkpt lat="45.956715" lon="12.71023"><ele>19.0</ele><time>2026-04-03T22:30:00.334Z</time></trkpt><trkpt lat="45.9566567" lon="12.71016"><ele>19.0</ele><time>2026-04-03T22:30:02.334Z</time></trkpt><trkpt lat="45.9565933" lon="12.710125"><ele>19.0</ele><time>2026-04-03T22:30:04.334Z</time></trkpt><trkpt lat="45.9565317" lon="12.7100817"><ele>19.0</ele><time>2026-04-03T22:30:06.334Z</time></trkpt><trkpt lat="45.956485" lon="12.7099683"><ele>19.0</ele><time>2026-04-03T22:30:09.334Z</time></trkpt><trkpt lat="45.9564517" lon="12.7098183"><ele>19.0</ele><time>2026-04-03T22:30:11.334Z</time></trkpt><trkpt lat="45.956435" lon="12.7096917"><ele>19.0</ele><time>2026-04-03T22:30:13.334Z</time></trkpt><trkpt lat="45.9564617" lon="12.7095983"><ele>19.0</ele><time>2026-04-03T22:30:15.334Z</time></trkpt><trkpt lat="45.956505" lon="12.709505"><ele>19.0</ele><time>2026-04-03T22:30:17.334Z</time></trkpt><trkpt lat="45.956525" lon="12.7094133"><ele>19.0</ele><time>2026-04-03T22:30:19.334Z</time></trkpt><trkpt lat="45.956545" lon="12.7093117"><ele>19.0</ele><time>2026-04-03T22:30:22.335Z</time></trkpt><trkpt lat="45.9565983" lon="12.7092267"><ele>18.8</ele><time>2026-04-03T22:30:25.334Z</time></trkpt><trkpt lat="45.9566933" lon="12.7091983"><ele>18.599999999999998</ele><time>2026-04-03T22:30:36.334Z</time></trkpt><trkpt lat="45.9567867" lon="12.70926"><ele>18.4</ele><time>2026-04-03T22:30:38.334Z</time></trkpt><trkpt lat="45.95689" lon="12.7093283"><ele>18.2</ele><time>2026-04-03T22:30:40.334Z</time></trkpt><trkpt lat="45.9569517" lon="12.7093683"><ele>18.0</ele><time>2026-04-03T22:30:41.334Z</time></trkpt><trkpt lat="45.9570683" lon="12.7094167"><ele>18.0</ele><time>2026-04-03T22:30:43.334Z</time></trkpt><trkpt lat="45.9571767" lon="12.70948"><ele>18.0</ele><time>2026-04-03T22:30:45.334Z</time></trkpt><trkpt lat="45.9572733" lon="12.7095683"><ele>18.0</ele><time>2026-04-03T22:30:47.334Z</time></trkpt><trkpt lat="45.9573733" lon="12.709665"><ele>18.0</ele><time>2026-04-03T22:30:49.334Z</time></trkpt><trkpt lat="45.9574917" lon="12.709745"><ele>18.666666666666668</ele><time>2026-04-03T22:30:51.334Z</time></trkpt><trkpt lat="45.9575433" lon="12.7098"><ele>19.333333333333332</ele><time>2026-04-03T22:30:52.334Z</time></trkpt><trkpt lat="45.9575967" lon="12.7098483"><ele>20.0</ele><time>2026-04-03T22:30:53.334Z</time></trkpt><trkpt lat="45.9576917" lon="12.7099483"><ele>20.666666666666664</ele><time>2026-04-03T22:30:55.334Z</time></trkpt><trkpt lat="45.957785" lon="12.7100333"><ele>21.333333333333332</ele><time>2026-04-03T22:30:57.334Z</time></trkpt><trkpt lat="45.9578433" lon="12.7100683"><ele>22.0</ele><time>2026-04-03T22:30:58.334Z</time></trkpt><trkpt lat="45.9579483" lon="12.71012"><ele>22.0</ele><time>2026-04-03T22:31:00.334Z</time></trkpt><trkpt lat="45.9580517" lon="12.710165"><ele>22.0</ele><time>2026-04-03T22:31:02.335Z</time></trkpt><trkpt lat="45.9581567" lon="12.7102"><ele>22.0</ele><time>2026-04-03T22:31:04.334Z</time></trkpt><trkpt lat="45.9582567" lon="12.7102233"><ele>22.0</ele><time>2026-04-03T22:31:06.334Z</time></trkpt><trkpt lat="45.95835" lon="12.710245"><ele>22.0</ele><time>2026-04-03T22:31:08.334Z</time></trkpt><trkpt lat="45.9584367" lon="12.710275"><ele>21.8</ele><time>2026-04-03T22:31:10.334Z</time></trkpt><trkpt lat="45.9585167" lon="12.7103117"><ele>21.6</ele><time>2026-04-03T22:31:12.334Z</time></trkpt><trkpt lat="45.9586083" lon="12.7103467"><ele>21.400000000000002</ele><time>2026-04-03T22:31:14.334Z</time></trkpt><trkpt lat="45.95871" lon="12.7103917"><ele>21.200000000000003</ele><time>2026-04-03T22:31:16.334Z</time></trkpt><trkpt lat="45.95881" lon="12.7104517"><ele>21.0</ele><time>2026-04-03T22:31:18.334Z</time></trkpt><trkpt lat="45.958905" lon="12.71049"><ele>21.0</ele><time>2026-04-03T22:31:20.334Z</time></trkpt><trkpt lat="45.9589917" lon="12.7104667"><ele>21.0</ele><time>2026-04-03T22:31:22.334Z</time></trkpt><trkpt lat="45.95908" lon="12.7103667"><ele>21.0</ele><time>2026-04-03T22:31:24.334Z</time></trkpt><trkpt lat="45.95914" lon="12.7103083"><ele>21.0</ele><time>2026-04-03T22:31:25.334Z</time></trkpt><trkpt lat="45.9592033" lon="12.7102383"><ele>21.0</ele><time>2026-04-03T22:31:26.334Z</time></trkpt><trkpt lat="45.95927" lon="12.7101583"><ele>21.0</ele><time>2026-04-03T22:31:27.334Z</time></trkpt><trkpt lat="45.9593417" lon="12.7100817"><ele>21.0</ele><time>2026-04-03T22:31:28.334Z</time></trkpt><trkpt lat="45.959415" lon="12.7099883"><ele>21.0</ele><time>2026-04-03T22:31:29.334Z</time></trkpt><trkpt lat="45.9594917" lon="12.7099"><ele>21.0</ele><time>2026-04-03T22:31:30.334Z</time></trkpt><trkpt lat="45.9595767" lon="12.70982"><ele>21.0</ele><time>2026-04-03T22:31:31.335Z</time></trkpt><trkpt lat="45.9596733" lon="12.7097333"><ele>21.0</ele><time>2026-04-03T22:31:32.334Z</time></trkpt><trkpt lat="45.9597767" lon="12.7096583"><ele>21.0</ele><time>2026-04-03T22:31:33.334Z</time></trkpt><trkpt lat="45.9598817" lon="12.7095783"><ele>21.0</ele><time>2026-04-03T22:31:34.334Z</time></trkpt><trkpt lat="45.9599933" lon="12.709525"><ele>21.0</ele><time>2026-04-03T22:31:35.335Z</time></trkpt><trkpt lat="45.9601033" lon="12.70951"><ele>21.0</ele><time>2026-04-03T22:31:36.334Z</time></trkpt><trkpt lat="45.960225" lon="12.7095367"><ele>21.5</ele><time>2026-04-03T22:31:37.334Z</time></trkpt><trkpt lat="45.9603433" lon="12.7095783"><ele>22.0</ele><time>2026-04-03T22:31:38.334Z</time></trkpt><trkpt lat="45.9604617" lon="12.7096267"><ele>22.5</ele><time>2026-04-03T22:31:39.334Z</time></trkpt><trkpt lat="45.9605817" lon="12.709675"><ele>23.0</ele><time>2026-04-03T22:31:40.334Z</time></trkpt><trkpt lat="45.9607067" lon="12.7097183"><ele>23.0</ele><time>2026-04-03T22:31:41.334Z</time></trkpt><trkpt lat="45.9608317" lon="12.7097633"><ele>23.0</ele><time>2026-04-03T22:31:42.334Z</time></trkpt><trkpt lat="45.9609517" lon="12.7098083"><ele>23.0</ele><time>2026-04-03T22:31:43.334Z</time></trkpt><trkpt lat="45.9610817" lon="12.7098383"><ele>23.0</ele><time>2026-04-03T22:31:44.334Z</time></trkpt><trkpt lat="45.96122" lon="12.7098833"><ele>23.75</ele><time>2026-04-03T22:31:45.334Z</time></trkpt><trkpt lat="45.9613433" lon="12.7099233"><ele>24.5</ele><time>2026-04-03T22:31:46.334Z</time></trkpt><trkpt lat="45.9614633" lon="12.7099667"><ele>25.25</ele><time>2026-04-03T22:31:47.334Z</time></trkpt><trkpt lat="45.9615817" lon="12.7100167"><ele>26.0</ele><time>2026-04-03T22:31:48.334Z</time></trkpt><trkpt lat="45.9617017" lon="12.71007"><ele>26.25</ele><time>2026-04-03T22:31:49.334Z</time></trkpt><trkpt lat="45.9618183" lon="12.7101117"><ele>26.5</ele><time>2026-04-03T22:31:50.334Z</time></trkpt><trkpt lat="45.9619333" lon="12.71016"><ele>26.75</ele><time>2026-04-03T22:31:51.334Z</time></trkpt><trkpt lat="45.9620483" lon="12.7102"><ele>27.0</ele><time>2026-04-03T22:31:52.334Z</time></trkpt><trkpt lat="45.9621667" lon="12.7102417"><ele>27.0</ele><time>2026-04-03T22:31:53.334Z</time></trkpt><trkpt lat="45.9622733" lon="12.7102733"><ele>27.0</ele><time>2026-04-03T22:31:54.334Z</time></trkpt><trkpt lat="45.96238" lon="12.71031"><ele>27.0</ele><time>2026-04-03T22:31:55.334Z</time></trkpt><trkpt lat="45.9624983" lon="12.710345"><ele>27.0</ele><time>2026-04-03T22:31:56.334Z</time></trkpt><trkpt lat="45.962615" lon="12.7103617"><ele>27.0</ele><time>2026-04-03T22:31:57.334Z</time></trkpt><trkpt lat="45.9627267" lon="12.7103483"><ele>27.0</ele><time>2026-04-03T22:31:58.335Z</time></trkpt><trkpt lat="45.9628417" lon="12.7103167"><ele>27.0</ele><time>2026-04-03T22:31:59.334Z</time></trkpt><trkpt lat="45.962955" lon="12.7102767"><ele>27.0</ele><time>2026-04-03T22:32:00.334Z</time></trkpt><trkpt lat="45.96307" lon="12.7102233"><ele>27.0</ele><time>2026-04-03T22:32:01.334Z</time></trkpt><trkpt lat="45.96319" lon="12.7101817"><ele>27.0</ele><time>2026-04-03T22:32:02.334Z</time></trkpt><trkpt lat="45.96331" lon="12.7101583"><ele>27.0</ele><time>2026-04-03T22:32:03.334Z</time></trkpt><trkpt lat="45.9634167" lon="12.7101267"><ele>27.0</ele><time>2026-04-03T22:32:04.334Z</time></trkpt><trkpt lat="45.9635167" lon="12.7101"><ele>26.5</ele><time>2026-04-03T22:32:05.334Z</time></trkpt><trkpt lat="45.9636083" lon="12.7100817"><ele>26.0</ele><time>2026-04-03T22:32:06.334Z</time></trkpt><trkpt lat="45.963685" lon="12.7100683"><ele>25.5</ele><time>2026-04-03T22:32:07.334Z</time></trkpt><trkpt lat="45.963755" lon="12.7100583"><ele>25.0</ele><time>2026-04-03T22:32:08.334Z</time></trkpt><trkpt lat="45.96384" lon="12.7100367"><ele>24.5</ele><time>2026-04-03T22:32:10.334Z</time></trkpt><trkpt lat="45.9639233" lon="12.71005"><ele>24.0</ele><time>2026-04-03T22:32:12.334Z</time></trkpt><trkpt lat="45.963985" lon="12.71007"><ele>24.0</ele><time>2026-04-03T22:32:13.334Z</time></trkpt><trkpt lat="45.96406" lon="12.7100933"><ele>24.0</ele><time>2026-04-03T22:32:14.334Z</time></trkpt><trkpt lat="45.9641467" lon="12.710115"><ele>24.0</ele><time>2026-04-03T22:32:15.334Z</time></trkpt><trkpt lat="45.964235" lon="12.7101283"><ele>24.0</ele><time>2026-04-03T22:32:16.334Z</time></trkpt><trkpt lat="45.9643283" lon="12.7101467"><ele>24.0</ele><time>2026-04-03T22:32:17.334Z</time></trkpt><trkpt lat="45.9644383" lon="12.7101567"><ele>24.25</ele><time>2026-04-03T22:32:18.334Z</time></trkpt><trkpt lat="45.96455" lon="12.7101717"><ele>24.5</ele><time>2026-04-03T22:32:19.334Z</time></trkpt><trkpt lat="45.9646733" lon="12.7101783"><ele>24.75</ele><time>2026-04-03T22:32:20.334Z</time></trkpt><trkpt lat="45.964795" lon="12.7101783"><ele>25.0</ele><time>2026-04-03T22:32:21.334Z</time></trkpt><trkpt lat="45.9649317" lon="12.7101783"><ele>25.25</ele><time>2026-04-03T22:32:22.334Z</time></trkpt><trkpt lat="45.9650567" lon="12.7101683"><ele>25.5</ele><time>2026-04-03T22:32:23.334Z</time></trkpt><trkpt lat="45.9652017" lon="12.7101583"><ele>25.75</ele><time>2026-04-03T22:32:24.334Z</time></trkpt><trkpt lat="45.9653483" lon="12.7101667"><ele>26.0</ele><time>2026-04-03T22:32:25.334Z</time></trkpt><trkpt lat="45.965495" lon="12.7101783"><ele>26.0</ele><time>2026-04-03T22:32:26.334Z</time></trkpt><trkpt lat="45.9656483" lon="12.7101883"><ele>26.0</ele><time>2026-04-03T22:32:27.335Z</time></trkpt><trkpt lat="45.965795" lon="12.7102083"><ele>26.0</ele><time>2026-04-03T22:32:28.334Z</time></trkpt><trkpt lat="45.9659467" lon="12.7102283"><ele>25.0</ele><time>2026-04-03T22:32:29.335Z</time></trkpt><trkpt lat="45.966105" lon="12.7102483"><ele>24.0</ele><time>2026-04-03T22:32:30.334Z</time></trkpt><trkpt lat="45.966255" lon="12.7102667"><ele>23.0</ele><time>2026-04-03T22:32:31.334Z</time></trkpt><trkpt lat="45.9664117" lon="12.71029"><ele>23.0</ele><time>2026-04-03T22:32:32.334Z</time></trkpt><trkpt lat="45.9665733" lon="12.7103083"><ele>23.0</ele><time>2026-04-03T22:32:33.334Z</time></trkpt><trkpt lat="45.966735" lon="12.7103283"><ele>23.0</ele><time>2026-04-03T22:32:34.334Z</time></trkpt><trkpt lat="45.9668967" lon="12.710345"><ele>23.666666666666668</ele><time>2026-04-03T22:32:35.334Z</time></trkpt><trkpt lat="45.967055" lon="12.710365"><ele>24.333333333333336</ele><time>2026-04-03T22:32:36.334Z</time></trkpt><trkpt lat="45.967215" lon="12.7103883"><ele>25.0</ele><time>2026-04-03T22:32:37.334Z</time></trkpt><trkpt lat="45.9673683" lon="12.71041"><ele>26.0</ele><time>2026-04-03T22:32:38.334Z</time></trkpt><trkpt lat="45.9675333" lon="12.7104283"><ele>27.0</ele><time>2026-04-03T22:32:39.334Z</time></trkpt><trkpt lat="45.9676967" lon="12.7104517"><ele>28.0</ele><time>2026-04-03T22:32:40.334Z</time></trkpt><trkpt lat="45.967865" lon="12.7104717"><ele>28.0</ele><time>2026-04-03T22:32:41.334Z</time></trkpt><trkpt lat="45.968035" lon="12.7104867"><ele>28.0</ele><time>2026-04-03T22:32:42.334Z</time></trkpt><trkpt lat="45.9681983" lon="12.7105117"><ele>28.0</ele><time>2026-04-03T22:32:43.334Z</time></trkpt><trkpt lat="45.968365" lon="12.7105283"><ele>27.666666666666668</ele><time>2026-04-03T22:32:44.334Z</time></trkpt><trkpt lat="45.9685183" lon="12.7105533"><ele>27.333333333333336</ele><time>2026-04-03T22:32:45.334Z</time></trkpt><trkpt lat="45.96867" lon="12.710585"><ele>27.0</ele><time>2026-04-03T22:32:46.334Z</time></trkpt><trkpt lat="45.968825" lon="12.71061"><ele>27.0</ele><time>2026-04-03T22:32:47.334Z</time></trkpt><trkpt lat="45.9689783" lon="12.7106267"><ele>27.0</ele><time>2026-04-03T22:32:48.334Z</time></trkpt><trkpt lat="45.9691283" lon="12.71064"><ele>27.0</ele><time>2026-04-03T22:32:49.334Z</time></trkpt><trkpt lat="45.96928" lon="12.710645"><ele>27.0</ele><time>2026-04-03T22:32:50.334Z</time></trkpt><trkpt lat="45.9694317" lon="12.71065"><ele>27.0</ele><time>2026-04-03T22:32:51.334Z</time></trkpt><trkpt lat="45.969585" lon="12.7106567"><ele>27.0</ele><time>2026-04-03T22:32:52.334Z</time></trkpt><trkpt lat="45.96975" lon="12.7106617"><ele>27.0</ele><time>2026-04-03T22:32:53.334Z</time></trkpt><trkpt lat="45.9699167" lon="12.710665"><ele>27.0</ele><time>2026-04-03T22:32:54.334Z</time></trkpt><trkpt lat="45.9700717" lon="12.7106583"><ele>27.0</ele><time>2026-04-03T22:32:55.334Z</time></trkpt><trkpt lat="45.9702217" lon="12.7106483"><ele>26.666666666666664</ele><time>2026-04-03T22:32:56.335Z</time></trkpt><trkpt lat="45.9703767" lon="12.710645"><ele>26.333333333333332</ele><time>2026-04-03T22:32:57.334Z</time></trkpt><trkpt lat="45.97053" lon="12.7106417"><ele>26.0</ele><time>2026-04-03T22:32:58.334Z</time></trkpt><trkpt lat="45.9706817" lon="12.7106383"><ele>26.0</ele><time>2026-04-03T22:32:59.334Z</time></trkpt><trkpt lat="45.9708367" lon="12.7106383"><ele>26.0</ele><time>2026-04-03T22:33:00.334Z</time></trkpt><trkpt lat="45.9709917" lon="12.7106333"><ele>26.0</ele><time>2026-04-03T22:33:01.334Z</time></trkpt><trkpt lat="45.9711467" lon="12.7106317"><ele>26.0</ele><time>2026-04-03T22:33:02.334Z</time></trkpt><trkpt lat="45.9712917" lon="12.7106283"><ele>26.0</ele><time>2026-04-03T22:33:03.334Z</time></trkpt><trkpt lat="45.97142" lon="12.7106217"><ele>26.0</ele><time>2026-04-03T22:33:04.334Z</time></trkpt><trkpt lat="45.9715783" lon="12.7106217"><ele>26.0</ele><time>2026-04-03T22:33:05.334Z</time></trkpt><trkpt lat="45.9717233" lon="12.7106217"><ele>26.0</ele><time>2026-04-03T22:33:06.334Z</time></trkpt><trkpt lat="45.9718683" lon="12.710625"><ele>26.0</ele><time>2026-04-03T22:33:07.334Z</time></trkpt><trkpt lat="45.9720083" lon="12.7106133"><ele>26.0</ele><time>2026-04-03T22:33:08.334Z</time></trkpt><trkpt lat="45.9721533" lon="12.7106117"><ele>26.0</ele><time>2026-04-03T22:33:09.334Z</time></trkpt><trkpt lat="45.9722967" lon="12.7106117"><ele>26.0</ele><time>2026-04-03T22:33:10.334Z</time></trkpt><trkpt lat="45.9724317" lon="12.71061"><ele>26.0</ele><time>2026-04-03T22:33:11.334Z</time></trkpt><trkpt lat="45.9725633" lon="12.7105983"><ele>26.0</ele><time>2026-04-03T22:33:12.334Z</time></trkpt><trkpt lat="45.97269" lon="12.710575"><ele>26.0</ele><time>2026-04-03T22:33:13.334Z</time></trkpt><trkpt lat="45.9728017" lon="12.710515"><ele>26.25</ele><time>2026-04-03T22:33:14.335Z</time></trkpt><trkpt lat="45.97294" lon="12.71044"><ele>26.5</ele><time>2026-04-03T22:33:15.334Z</time></trkpt><trkpt lat="45.973055" lon="12.7103533"><ele>26.75</ele><time>2026-04-03T22:33:16.334Z</time></trkpt><trkpt lat="45.9731683" lon="12.7102667"><ele>27.0</ele><time>2026-04-03T22:33:17.335Z</time></trkpt><trkpt lat="45.9732883" lon="12.7101583"><ele>27.25</ele><time>2026-04-03T22:33:18.334Z</time></trkpt><trkpt lat="45.973415" lon="12.7100517"><ele>27.5</ele><time>2026-04-03T22:33:19.334Z</time></trkpt><trkpt lat="45.97354" lon="12.709935"><ele>27.75</ele><time>2026-04-03T22:33:20.334Z</time></trkpt><trkpt lat="45.973665" lon="12.70982"><ele>28.0</ele><time>2026-04-03T22:33:21.334Z</time></trkpt><trkpt lat="45.973795" lon="12.7097067"><ele>28.0</ele><time>2026-04-03T22:33:22.334Z</time></trkpt><trkpt lat="45.9739233" lon="12.7095967"><ele>28.0</ele><time>2026-04-03T22:33:23.334Z</time></trkpt><trkpt lat="45.9740533" lon="12.709485"><ele>28.0</ele><time>2026-04-03T22:33:24.334Z</time></trkpt><trkpt lat="45.9741833" lon="12.70937"><ele>28.0</ele><time>2026-04-03T22:33:25.334Z</time></trkpt><trkpt lat="45.9742983" lon="12.7092467"><ele>28.0</ele><time>2026-04-03T22:33:26.335Z</time></trkpt><trkpt lat="45.97442" lon="12.7091217"><ele>28.0</ele><time>2026-04-03T22:33:27.334Z</time></trkpt><trkpt lat="45.9745383" lon="12.709005"><ele>28.0</ele><time>2026-04-03T22:33:28.334Z</time></trkpt><trkpt lat="45.9746533" lon="12.7088833"><ele>28.0</ele><time>2026-04-03T22:33:29.334Z</time></trkpt><trkpt lat="45.9747683" lon="12.708775"><ele>28.0</ele><time>2026-04-03T22:33:30.334Z</time></trkpt><trkpt lat="45.974895" lon="12.70867"><ele>28.0</ele><time>2026-04-03T22:33:31.334Z</time></trkpt><trkpt lat="45.9750233" lon="12.7085567"><ele>28.0</ele><time>2026-04-03T22:33:32.334Z</time></trkpt><trkpt lat="45.9751533" lon="12.7084417"><ele>28.5</ele><time>2026-04-03T22:33:33.334Z</time></trkpt><trkpt lat="45.975275" lon="12.7083283"><ele>29.0</ele><time>2026-04-03T22:33:34.334Z</time></trkpt><trkpt lat="45.975395" lon="12.7082083"><ele>29.5</ele><time>2026-04-03T22:33:35.334Z</time></trkpt><trkpt lat="45.9755233" lon="12.70809"><ele>30.0</ele><time>2026-04-03T22:33:36.334Z</time></trkpt><trkpt lat="45.975645" lon="12.7079783"><ele>30.0</ele><time>2026-04-03T22:33:37.334Z</time></trkpt><trkpt lat="45.9757567" lon="12.7078733"><ele>30.0</ele><time>2026-04-03T22:33:38.334Z</time></trkpt><trkpt lat="45.9758783" lon="12.7077633"><ele>30.0</ele><time>2026-04-03T22:33:39.334Z</time></trkpt><trkpt lat="45.9759983" lon="12.7076483"><ele>30.0</ele><time>2026-04-03T22:33:40.334Z</time></trkpt><trkpt lat="45.9761167" lon="12.7075367"><ele>30.0</ele><time>2026-04-03T22:33:41.334Z</time></trkpt><trkpt lat="45.976235" lon="12.707425"><ele>30.0</ele><time>2026-04-03T22:33:42.334Z</time></trkpt><trkpt lat="45.9763583" lon="12.707315"><ele>30.0</ele><time>2026-04-03T22:33:43.334Z</time></trkpt><trkpt lat="45.9764817" lon="12.7071983"><ele>30.0</ele><time>2026-04-03T22:33:44.334Z</time></trkpt><trkpt lat="45.9766033" lon="12.7070883"><ele>30.0</ele><time>2026-04-03T22:33:45.334Z</time></trkpt><trkpt lat="45.9767183" lon="12.7069733"><ele>30.0</ele><time>2026-04-03T22:33:46.334Z</time></trkpt><trkpt lat="45.9768367" lon="12.706855"><ele>30.0</ele><time>2026-04-03T22:33:47.334Z</time></trkpt><trkpt lat="45.9769583" lon="12.7067417"><ele>30.0</ele><time>2026-04-03T22:33:48.334Z</time></trkpt><trkpt lat="45.9770817" lon="12.7066267"><ele>29.75</ele><time>2026-04-03T22:33:49.334Z</time></trkpt><trkpt lat="45.977205" lon="12.70652"><ele>29.5</ele><time>2026-04-03T22:33:50.334Z</time></trkpt><trkpt lat="45.977315" lon="12.7064017"><ele>29.25</ele><time>2026-04-03T22:33:51.334Z</time></trkpt><trkpt lat="45.9774283" lon="12.7062867"><ele>29.0</ele><time>2026-04-03T22:33:52.334Z</time></trkpt><trkpt lat="45.977535" lon="12.7061667"><ele>29.25</ele><time>2026-04-03T22:33:53.334Z</time></trkpt><trkpt lat="45.9776317" lon="12.7060283"><ele>29.5</ele><time>2026-04-03T22:33:54.334Z</time></trkpt><trkpt lat="45.97772" lon="12.7058817"><ele>29.75</ele><time>2026-04-03T22:33:55.334Z</time></trkpt><trkpt lat="45.9778" lon="12.7057317"><ele>30.0</ele><time>2026-04-03T22:33:56.334Z</time></trkpt><trkpt lat="45.9778767" lon="12.7055567"><ele>30.0</ele><time>2026-04-03T22:33:57.334Z</time></trkpt><trkpt lat="45.97795" lon="12.705385"><ele>30.0</ele><time>2026-04-03T22:33:58.335Z</time></trkpt><trkpt lat="45.9780233" lon="12.705215"><ele>30.0</ele><time>2026-04-03T22:33:59.334Z</time></trkpt><trkpt lat="45.9780983" lon="12.70504"><ele>30.0</ele><time>2026-04-03T22:34:00.334Z</time></trkpt><trkpt lat="45.9781817" lon="12.704875"><ele>30.25</ele><time>2026-04-03T22:34:01.334Z</time></trkpt><trkpt lat="45.9782733" lon="12.7047233"><ele>30.5</ele><time>2026-04-03T22:34:02.335Z</time></trkpt><trkpt lat="45.978365" lon="12.7045717"><ele>30.75</ele><time>2026-04-03T22:34:03.334Z</time></trkpt><trkpt lat="45.97846" lon="12.704425"><ele>31.0</ele><time>2026-04-03T22:34:04.334Z</time></trkpt><trkpt lat="45.9785567" lon="12.7042817"><ele>32.25</ele><time>2026-04-03T22:34:05.334Z</time></trkpt><trkpt lat="45.97865" lon="12.7041233"><ele>33.5</ele><time>2026-04-03T22:34:06.334Z</time></trkpt><trkpt lat="45.9787517" lon="12.7039817"><ele>34.75</ele><time>2026-04-03T22:34:07.334Z</time></trkpt><trkpt lat="45.97885" lon="12.703835"><ele>36.0</ele><time>2026-04-03T22:34:08.334Z</time></trkpt><trkpt lat="45.9789433" lon="12.7036767"><ele>35.0</ele><time>2026-04-03T22:34:09.334Z</time></trkpt><trkpt lat="45.97905" lon="12.7035233"><ele>34.0</ele><time>2026-04-03T22:34:10.334Z</time></trkpt><trkpt lat="45.97913" lon="12.7033617"><ele>33.0</ele><time>2026-04-03T22:34:11.334Z</time></trkpt><trkpt lat="45.9792183" lon="12.7031983"><ele>32.0</ele><time>2026-04-03T22:34:12.334Z</time></trkpt><trkpt lat="45.9793033" lon="12.70304"><ele>32.0</ele><time>2026-04-03T22:34:13.334Z</time></trkpt><trkpt lat="45.9793933" lon="12.7028867"><ele>32.0</ele><time>2026-04-03T22:34:14.334Z</time></trkpt><trkpt lat="45.9794767" lon="12.7027283"><ele>32.0</ele><time>2026-04-03T22:34:15.334Z</time></trkpt><trkpt lat="45.9795533" lon="12.7025667"><ele>32.0</ele><time>2026-04-03T22:34:16.334Z</time></trkpt><trkpt lat="45.9796317" lon="12.7024067"><ele>31.5</ele><time>2026-04-03T22:34:17.334Z</time></trkpt><trkpt lat="45.9797083" lon="12.70225"><ele>31.0</ele><time>2026-04-03T22:34:18.335Z</time></trkpt><trkpt lat="45.9797867" lon="12.7020983"><ele>30.5</ele><time>2026-04-03T22:34:19.334Z</time></trkpt><trkpt lat="45.9798633" lon="12.7019467"><ele>30.0</ele><time>2026-04-03T22:34:20.334Z</time></trkpt><trkpt lat="45.9799383" lon="12.7018017"><ele>30.0</ele><time>2026-04-03T22:34:21.334Z</time></trkpt><trkpt lat="45.98001" lon="12.7016633"><ele>30.0</ele><time>2026-04-03T22:34:22.334Z</time></trkpt><trkpt lat="45.9800733" lon="12.7015333"><ele>30.0</ele><time>2026-04-03T22:34:23.334Z</time></trkpt><trkpt lat="45.9801417" lon="12.7014083"><ele>30.0</ele><time>2026-04-03T22:34:24.334Z</time></trkpt><trkpt lat="45.9802017" lon="12.7012817"><ele>30.0</ele><time>2026-04-03T22:34:25.334Z</time></trkpt><trkpt lat="45.9802317" lon="12.7011483"><ele>31.0</ele><time>2026-04-03T22:34:26.334Z</time></trkpt><trkpt lat="45.9802583" lon="12.7010133"><ele>32.0</ele><time>2026-04-03T22:34:27.334Z</time></trkpt><trkpt lat="45.9802767" lon="12.7008767"><ele>33.0</ele><time>2026-04-03T22:34:28.334Z</time></trkpt><trkpt lat="45.9802533" lon="12.7007483"><ele>34.0</ele><time>2026-04-03T22:34:29.334Z</time></trkpt><trkpt lat="45.980215" lon="12.7006217"><ele>35.0</ele><time>2026-04-03T22:34:30.334Z</time></trkpt><trkpt lat="45.9801733" lon="12.7005033"><ele>35.0</ele><time>2026-04-03T22:34:31.334Z</time></trkpt><trkpt lat="45.98013" lon="12.7003783"><ele>35.0</ele><time>2026-04-03T22:34:32.334Z</time></trkpt><trkpt lat="45.980085" lon="12.7002517"><ele>35.0</ele><time>2026-04-03T22:34:33.334Z</time></trkpt><trkpt lat="45.9800367" lon="12.7001183"><ele>35.0</ele><time>2026-04-03T22:34:34.334Z</time></trkpt><trkpt lat="45.97999" lon="12.699975"><ele>35.0</ele><time>2026-04-03T22:34:35.334Z</time></trkpt><trkpt lat="45.9799433" lon="12.69983"><ele>34.6</ele><time>2026-04-03T22:34:36.334Z</time></trkpt><trkpt lat="45.9798983" lon="12.69969"><ele>34.2</ele><time>2026-04-03T22:34:37.334Z</time></trkpt><trkpt lat="45.979865" lon="12.6995617"><ele>33.8</ele><time>2026-04-03T22:34:38.334Z</time></trkpt><trkpt lat="45.9798367" lon="12.6994533"><ele>33.4</ele><time>2026-04-03T22:34:39.334Z</time></trkpt><trkpt lat="45.9798233" lon="12.69929"><ele>33.0</ele><time>2026-04-03T22:34:41.334Z</time></trkpt><trkpt lat="45.97988" lon="12.6991383"><ele>33.0</ele><time>2026-04-03T22:34:43.334Z</time></trkpt><trkpt lat="45.9799333" lon="12.6990783"><ele>33.0</ele><time>2026-04-03T22:34:44.334Z</time></trkpt><trkpt lat="45.9799967" lon="12.6990367"><ele>33.0</ele><time>2026-04-03T22:34:45.334Z</time></trkpt><trkpt lat="45.9800717" lon="12.6989933"><ele>33.0</ele><time>2026-04-03T22:34:46.334Z</time></trkpt><trkpt lat="45.9801567" lon="12.6989467"><ele>33.0</ele><time>2026-04-03T22:34:47.334Z</time></trkpt><trkpt lat="45.9802483" lon="12.6989"><ele>33.0</ele><time>2026-04-03T22:34:48.334Z</time></trkpt><trkpt lat="45.980345" lon="12.6988483"><ele>33.5</ele><time>2026-04-03T22:34:49.334Z</time></trkpt><trkpt lat="45.980435" lon="12.6988017"><ele>34.0</ele><time>2026-04-03T22:34:50.334Z</time></trkpt><trkpt lat="45.980525" lon="12.6987583"><ele>34.5</ele><time>2026-04-03T22:34:51.334Z</time></trkpt><trkpt lat="45.98061" lon="12.698715"><ele>35.0</ele><time>2026-04-03T22:34:52.334Z</time></trkpt><trkpt lat="45.9806883" lon="12.698675"><ele>35.5</ele><time>2026-04-03T22:34:53.334Z</time></trkpt><trkpt lat="45.98076" lon="12.6986383"><ele>36.0</ele><time>2026-04-03T22:34:54.334Z</time></trkpt><trkpt lat="45.98082" lon="12.6986033"><ele>35.833333333333336</ele><time>2026-04-03T22:34:55.334Z</time></trkpt><trkpt lat="45.9809133" lon="12.6985583"><ele>35.666666666666664</ele><time>2026-04-03T22:34:57.334Z</time></trkpt><trkpt lat="45.98097" lon="12.6984983"><ele>35.5</ele><time>2026-04-03T22:34:59.334Z</time></trkpt><trkpt lat="45.98098" lon="12.698375"><ele>35.33333333333333</ele><time>2026-04-03T22:35:01.334Z</time></trkpt><trkpt lat="45.9809333" lon="12.698295"><ele>35.166666666666664</ele><time>2026-04-03T22:35:02.334Z</time></trkpt><trkpt lat="45.9809" lon="12.6982067"><ele>35.0</ele><time>2026-04-03T22:35:03.334Z</time></trkpt><trkpt lat="45.98086" lon="12.6981117"><ele>35.0</ele><time>2026-04-03T22:35:04.334Z</time></trkpt><trkpt lat="45.9808167" lon="12.6980117"><ele>35.0</ele><time>2026-04-03T22:35:05.334Z</time></trkpt><trkpt lat="45.9807783" lon="12.697915"><ele>35.0</ele><time>2026-04-03T22:35:06.334Z</time></trkpt><trkpt lat="45.98075" lon="12.6978183"><ele>35.0</ele><time>2026-04-03T22:35:07.334Z</time></trkpt><trkpt lat="45.980725" lon="12.6977217"><ele>35.0</ele><time>2026-04-03T22:35:08.334Z</time></trkpt><trkpt lat="45.9806967" lon="12.6976233"><ele>35.0</ele><time>2026-04-03T22:35:09.334Z</time></trkpt><trkpt lat="45.98065" lon="12.6975383"><ele>35.0</ele><time>2026-04-03T22:35:10.335Z</time></trkpt><trkpt lat="45.9806" lon="12.6974533"><ele>35.0</ele><time>2026-04-03T22:35:11.334Z</time></trkpt><trkpt lat="45.9805417" lon="12.697365"><ele>35.0</ele><time>2026-04-03T22:35:12.334Z</time></trkpt><trkpt lat="45.980475" lon="12.6972667"><ele>35.0</ele><time>2026-04-03T22:35:13.334Z</time></trkpt><trkpt lat="45.98041" lon="12.6971567"><ele>35.0</ele><time>2026-04-03T22:35:14.334Z</time></trkpt><trkpt lat="45.9803417" lon="12.6970533"><ele>35.0</ele><time>2026-04-03T22:35:15.334Z</time></trkpt><trkpt lat="45.9802767" lon="12.6969533"><ele>35.0</ele><time>2026-04-03T22:35:16.334Z</time></trkpt><trkpt lat="45.9802117" lon="12.6968533"><ele>35.0</ele><time>2026-04-03T22:35:17.334Z</time></trkpt><trkpt lat="45.9801533" lon="12.6967633"><ele>35.0</ele><time>2026-04-03T22:35:18.334Z</time></trkpt><trkpt lat="45.9801" lon="12.69669"><ele>35.0</ele><time>2026-04-03T22:35:19.334Z</time></trkpt><trkpt lat="45.9800267" lon="12.6965983"><ele>35.0</ele><time>2026-04-03T22:35:21.334Z</time></trkpt><trkpt lat="45.97998" lon="12.6965367"><ele>35.0</ele><time>2026-04-03T22:35:23.334Z</time></trkpt><trkpt lat="45.9799283" lon="12.6964633"><ele>35.0</ele><time>2026-04-03T22:35:25.334Z</time></trkpt><trkpt lat="45.97988" lon="12.6963783"><ele>35.0</ele><time>2026-04-03T22:35:27.334Z</time></trkpt></trkseg></trk></gpx>